U27435 / G-EZIL 7700 Squawk Report (21st of September, 2017)

Aircraft A319 Reg No. G-EZIL Age 12 years old
Model A319 Jet engines 2 First flight 25-05-05
Registered 15-06-05 Rollout 05-05 Delivered 15-06-05
Construction No. 2492 Line No. N/A Series 111
ADSHEX 400C4E Airline name EasyJet Owner N/A
Airfield based Luton~Beds~G First tracked 2011-04-01 15:22:02

Flight history for G-EZIL

Route Flight No Date Playback
Faro (FAO) - Gatwick (LGW) U28916 2017-10-22 10:16:00
Gatwick (LGW) - Faro (FAO) U28915 2017-10-22 07:35:00
Schonefeld (SXF) - Gatwick (LGW) U28212 2017-10-21 22:12:00
Schwechat (VIE) - Schonefeld (SXF) U24734 2017-10-20 20:22:00
Schonefeld (SXF) - Schwechat (VIE) U24733 2017-10-20 17:53:00
Blagnac (TLS) - Schonefeld (SXF) U21745 2017-10-20 15:59:00
Schonefeld (SXF) - Blagnac (TLS) U21746 2017-10-20 12:54:00
Malpensa (MXP) - Schonefeld (SXF) U24672 2017-10-20 09:31:00
Schonefeld (SXF) - Malpensa (MXP) U24673 2017-10-20 06:59:00
Eleftherios Venizelos Intl (ATH) - Schonefeld (SXF) U24614 2017-10-19 21:17:00
Schonefeld (SXF) - Eleftherios Venizelos Intl (ATH) U24613 2017-10-19 17:45:00
Gatwick (LGW) - Schonefeld (SXF) U28209 2017-10-19 10:14:00
Schonefeld (SXF) - Gatwick (LGW) U28208 2017-10-19 08:22:00
Manchester (MAN) - Schonefeld (SXF) U21895 2017-10-19 05:34:00
Schonefeld (SXF) - Manchester (MAN) U21896 2017-10-18 18:21:00
Split (SPU) - Schonefeld (SXF) U24756 2017-10-18 14:48:00
Schonefeld (SXF) - Split (SPU) U24755 2017-10-18 12:20:00
Geneve Cointrin (GVA) - Schonefeld (SXF) U21591 2017-10-18 09:38:00
Schonefeld (SXF) - Geneve Cointrin (GVA) U21590 2017-10-18 06:35:00
Eleftherios Venizelos Intl (ATH) - Schonefeld (SXF) U24614 2017-10-17 21:17:00
Time Lat Lon Altitude Heading Speed Vertical Rate
2017-09-21 14:10:30 GMT 36.67524 -4.49956 0 132 55 0
2017-09-21 14:10:19 GMT 36.67699 -4.50203 0 132 68 0
2017-09-21 14:10:11 GMT 36.67924 -4.50518 0 132 98 0
2017-09-21 14:10:01 GMT 36.68243 -4.50966 -75 131 121 -128
2017-09-21 14:09:49 GMT 36.68693 -4.51596 75 131 124 -704
2017-09-21 14:09:09 GMT 36.70248 -4.53770 550 131 127 -768
2017-09-21 14:09:00 GMT 36.70583 -4.54239 650 131 126 -768
2017-09-21 14:08:57 GMT 36.70681 -4.54378 675 131 126 -512
2017-09-21 14:08:49 GMT 36.71007 -4.54840 775 131 126 -768
2017-09-21 14:08:35 GMT 36.71528 -4.55570 925 131 123 -768
2017-09-21 14:08:30 GMT 36.71777 -4.55915 1,000 131 123 -768
2017-09-21 14:08:13 GMT 36.72390 -4.56792 1,175 131 125 -640
2017-09-21 14:08:09 GMT 36.72548 -4.57008 1,225 131 126 -704
2017-09-21 14:08:07 GMT 36.72620 -4.57111 1,250 131 126 -640
2017-09-21 14:07:54 GMT 36.73125 -4.57814 1,350 131 126 -640
2017-09-21 14:07:46 GMT 36.73444 -4.58261 1,475 131 126 -704
2017-09-21 14:07:13 GMT 36.74713 -4.60041 1,850 131 129 -768
2017-09-21 14:07:01 GMT 36.75197 -4.60722 1,975 131 130 -704
2017-09-21 14:06:53 GMT 36.75532 -4.61198 2,075 131 131 -704
2017-09-21 14:06:45 GMT 36.75849 -4.61648 2,175 131 131 -768
2017-09-21 14:06:38 GMT 36.76167 -4.62095 2,275 131 131 -704
2017-09-21 14:06:21 GMT 36.76821 -4.63015 2,475 130 130 -768
2017-09-21 14:06:11 GMT 36.77206 -4.63554 2,600 131 129 -832
2017-09-21 14:05:49 GMT 36.78102 -4.64809 2,875 131 128 -768
2017-09-21 14:05:45 GMT 36.78246 -4.65008 2,925 131 128 -768
2017-09-21 14:05:36 GMT 36.78623 -4.65546 3,025 131 128 -640
2017-09-21 14:05:31 GMT 36.78800 -4.65797 3,075 131 128 -640
2017-09-21 14:05:25 GMT 36.79024 -4.66112 3,150 131 126 -640
2017-09-21 14:05:18 GMT 36.79317 -4.66527 3,225 131 126 -640
2017-09-21 14:05:15 GMT 36.79431 -4.66690 3,250 131 127 -704
2017-09-21 14:05:09 GMT 36.79665 -4.67016 3,325 132 129 -640
2017-09-21 14:05:01 GMT 36.79968 -4.67433 3,375 130 141 -768
2017-09-21 14:04:50 GMT 36.80443 -4.68117 3,525 130 141 -768
2017-09-21 14:04:41 GMT 36.80859 -4.68710 3,625 131 155 -960
2017-09-21 14:04:31 GMT 36.81372 -4.69425 3,750 132 160 -832
2017-09-21 14:04:24 GMT 36.81677 -4.69841 3,875 131 165 -1088
2017-09-21 14:04:21 GMT 36.81853 -4.70083 3,925 131 167 -1152
2017-09-21 14:04:13 GMT 36.82260 -4.70661 4,075 131 172 -1088
2017-09-21 14:04:10 GMT 36.82408 -4.70869 4,125 131 174 -1024
2017-09-21 14:04:03 GMT 36.82755 -4.71359 4,225 130 180 -1216
2017-09-21 14:03:59 GMT 36.83052 -4.71788 4,300 130 182 -1344
2017-09-21 14:03:53 GMT 36.83339 -4.72202 4,425 131 182 -1216
2017-09-21 14:03:49 GMT 36.83544 -4.72488 4,500 131 182 -1216
2017-09-21 14:03:43 GMT 36.83907 -4.72991 4,625 132 183 -1152
2017-09-21 14:03:38 GMT 36.84181 -4.73370 4,725 131 184 -1280
2017-09-21 14:03:33 GMT 36.84508 -4.73831 4,825 130 185 -1152
2017-09-21 14:03:28 GMT 36.84746 -4.74180 4,900 130 186 -1024
2017-09-21 14:03:23 GMT 36.85071 -4.74644 5,000 131 187 -832
2017-09-21 14:03:18 GMT 36.85332 -4.75007 5,050 131 189 -768
2017-09-21 14:03:12 GMT 36.85648 -4.75451 5,125 130 192 -832
2017-09-21 14:03:07 GMT 36.85931 -4.75860 5,175 130 194 -960
2017-09-21 14:03:00 GMT 36.86351 -4.76454 5,275 131 196 -704
2017-09-21 14:02:58 GMT 36.86504 -4.76666 5,325 132 196 -832
2017-09-21 14:02:51 GMT 36.86989 -4.77333 5,450 131 198 -768
2017-09-21 14:02:47 GMT 36.87250 -4.77695 5,475 131 200 -576
2017-09-21 14:02:40 GMT 36.87617 -4.78216 5,525 130 205 -384
2017-09-21 14:02:31 GMT 36.88269 -4.79141 5,575 132 215 -640
2017-09-21 14:02:01 GMT 36.90424 -4.81637 5,850 143 230 -960
2017-09-21 14:01:53 GMT 36.91132 -4.82264 5,975 147 230 -960
2017-09-21 14:01:50 GMT 36.91378 -4.82461 6,025 147 231 -960
2017-09-21 14:01:45 GMT 36.91844 -4.82825 6,100 147 231 -832
2017-09-21 14:01:42 GMT 36.92226 -4.83130 6,175 147 231 -448
2017-09-21 14:01:38 GMT 36.92477 -4.83328 6,175 147 231 -320
2017-09-21 14:01:34 GMT 36.92766 -4.83562 6,200 147 233 -192
2017-09-21 14:01:29 GMT 36.93196 -4.83913 6,200 146 235 -256
2017-09-21 14:01:24 GMT 36.93701 -4.84324 6,225 146 240 -384
2017-09-21 14:01:20 GMT 36.94139 -4.84682 6,250 146 245 -320
2017-09-21 14:01:13 GMT 36.94711 -4.85154 6,300 146 250 -320
2017-09-21 14:01:09 GMT 36.95149 -4.85512 6,325 146 255 -384
2017-09-21 14:01:04 GMT 36.95694 -4.85966 6,350 146 259 -320
2017-09-21 14:00:57 GMT 36.96345 -4.86491 6,375 147 264 -384
2017-09-21 14:00:53 GMT 36.96739 -4.86811 6,400 147 269 -448
2017-09-21 14:00:48 GMT 36.97257 -4.87226 6,425 147 271 -512
2017-09-21 14:00:44 GMT 36.97714 -4.87583 6,475 147 274 -512
2017-09-21 14:00:42 GMT 36.97943 -4.87764 6,500 147 275 -384
2017-09-21 14:00:39 GMT 36.98470 -4.88179 6,525 147 280 -576
2017-09-21 14:00:34 GMT 36.98780 -4.88426 6,550 147 282 -896
2017-09-21 14:00:32 GMT 36.99013 -4.88611 6,600 147 283 -1088
2017-09-21 14:00:28 GMT 36.99437 -4.88951 6,675 147 282 -1088
2017-09-21 14:00:25 GMT 36.99888 -4.89316 6,725 146 282 -1024
2017-09-21 14:00:22 GMT 37.00232 -4.89587 6,775 146 282 -1024
2017-09-21 14:00:18 GMT 37.00612 -4.89897 6,850 146 282 -1088
2017-09-21 14:00:14 GMT 37.01085 -4.90277 6,925 146 283 -1024
2017-09-21 14:00:11 GMT 37.01294 -4.90450 6,950 146 284 -1024
2017-09-21 14:00:06 GMT 37.01829 -4.90892 7,025 146 284 -1024
2017-09-21 14:00:04 GMT 37.02178 -4.91190 7,075 145 285 -1088
2017-09-21 14:00:02 GMT 37.02388 -4.91364 7,125 145 285 -1024
2017-09-21 13:59:58 GMT 37.02855 -4.91761 7,200 145 285 -576
2017-09-21 13:59:53 GMT 37.03276 -4.92123 7,225 145 285 -576
2017-09-21 13:59:51 GMT 37.03555 -4.92363 7,250 145 285 -576
2017-09-21 13:59:47 GMT 37.03952 -4.92695 7,275 148 286 -512
2017-09-21 13:59:44 GMT 37.04553 -4.93134 7,325 154 285 -640
2017-09-21 13:59:40 GMT 37.04713 -4.93234 7,350 157 285 -896
2017-09-21 13:59:36 GMT 37.05246 -4.93477 7,400 165 284 -1024
2017-09-21 13:59:33 GMT 37.05707 -4.93603 7,475 172 283 -960
2017-09-21 13:59:30 GMT 37.05991 -4.93648 7,500 176 282 -1024
2017-09-21 13:59:26 GMT 37.06517 -4.93660 7,575 184 281 -1152
2017-09-21 13:59:22 GMT 37.07076 -4.93597 7,650 189 281 -1088
2017-09-21 13:59:20 GMT 37.07346 -4.93543 7,675 190 280 -1088
2017-09-21 13:59:18 GMT 37.07676 -4.93471 7,725 190 280 -1088
2017-09-21 13:59:15 GMT 37.07946 -4.93417 7,750 190 280 -1024
2017-09-21 13:59:12 GMT 37.08361 -4.93334 7,825 190 280 -1024
2017-09-21 13:59:10 GMT 37.08687 -4.93269 7,850 190 280 -1024
2017-09-21 13:59:06 GMT 37.09213 -4.93161 7,925 190 280 -1024
2017-09-21 13:59:02 GMT 37.09708 -4.93064 8,000 189 281 -1024
2017-09-21 13:59:00 GMT 37.09978 -4.93011 8,025 189 281 -1024
2017-09-21 13:58:56 GMT 37.10660 -4.92877 8,100 189 281 -1088
2017-09-21 13:58:52 GMT 37.11023 -4.92802 8,150 189 281 -1088
2017-09-21 13:58:49 GMT 37.11351 -4.92737 8,200 189 281 -1088
2017-09-21 13:58:47 GMT 37.11652 -4.92677 8,250 189 281 -1024
2017-09-21 13:58:45 GMT 37.11899 -4.92629 8,275 189 281 -1024
2017-09-21 13:58:42 GMT 37.12285 -4.92556 8,325 189 281 -1024
2017-09-21 13:58:39 GMT 37.12671 -4.92480 8,375 189 281 -1024
2017-09-21 13:58:35 GMT 37.13193 -4.92379 8,425 189 281 -1024
2017-09-21 13:58:32 GMT 37.13709 -4.92271 8,500 189 281 -960
2017-09-21 13:58:29 GMT 37.13961 -4.92223 8,525 189 281 -1024
2017-09-21 13:58:27 GMT 37.14180 -4.92182 8,550 189 282 -1088
2017-09-21 13:58:24 GMT 37.14510 -4.92117 8,600 189 282 -1088
2017-09-21 13:58:21 GMT 37.15008 -4.92024 8,675 189 282 -1088
2017-09-21 13:58:18 GMT 37.15338 -4.91954 8,725 189 282 -1024
2017-09-21 13:58:15 GMT 37.15939 -4.91835 8,775 190 282 -1088
2017-09-21 13:58:10 GMT 37.16386 -4.91746 8,850 190 283 -1088
2017-09-21 13:58:06 GMT 37.16912 -4.91644 8,925 190 283 -1088
2017-09-21 13:58:04 GMT 37.17133 -4.91597 8,950 190 283 -1088
2017-09-21 13:58:00 GMT 37.17685 -4.91489 9,025 190 282 -1024
2017-09-21 13:57:56 GMT 37.18262 -4.91376 9,100 190 282 -1024
2017-09-21 13:57:53 GMT 37.18509 -4.91322 9,125 190 282 -1024
2017-09-21 13:57:51 GMT 37.18979 -4.91226 9,200 190 282 -1024
2017-09-21 13:57:47 GMT 37.19286 -4.91167 9,225 190 282 -1152
2017-09-21 13:57:44 GMT 37.19808 -4.91059 9,300 190 282 -1600
2017-09-21 13:57:40 GMT 37.20305 -4.90960 9,400 190 282 -1600
2017-09-21 13:57:37 GMT 37.20636 -4.90892 9,475 190 282 -1600
2017-09-21 13:57:34 GMT 37.21158 -4.90778 9,575 190 282 -1664
2017-09-21 13:57:29 GMT 37.21628 -4.90680 9,675 190 283 -1600
2017-09-21 13:57:27 GMT 37.21962 -4.90610 9,725 190 283 -1600
2017-09-21 13:57:25 GMT 37.22349 -4.90528 9,800 190 283 -1600
2017-09-21 13:57:23 GMT 37.22456 -4.90505 9,825 190 283 -1536
2017-09-21 13:57:20 GMT 37.23085 -4.90378 9,925 190 284 -1472
2017-09-21 13:57:16 GMT 37.23349 -4.90323 10,000 190 284 -1408
2017-09-21 13:57:13 GMT 37.23793 -4.90235 10,075 190 285 -1344
2017-09-21 13:57:09 GMT 37.24319 -4.90128 10,175 190 286 -1344
2017-09-21 13:57:06 GMT 37.24738 -4.90044 10,225 190 287 -1280
2017-09-21 13:57:04 GMT 37.24965 -4.89996 10,275 190 287 -1344
2017-09-21 13:57:02 GMT 37.25189 -4.89949 10,300 189 288 -1472
2017-09-21 13:56:59 GMT 37.25665 -4.89856 10,375 189 288 -1536
2017-09-21 13:56:55 GMT 37.26343 -4.89721 10,500 189 289 -1408
2017-09-21 13:56:53 GMT 37.26512 -4.89692 10,525 189 290 -1344
2017-09-21 13:56:48 GMT 37.26997 -4.89599 10,600 189 291 -1024
2017-09-21 13:56:44 GMT 37.27625 -4.89476 10,675 189 294 -832
2017-09-21 13:56:41 GMT 37.27885 -4.89429 10,725 189 295 -832
2017-09-21 13:56:39 GMT 37.28480 -4.89316 10,750 189 296 -1024
2017-09-21 13:56:34 GMT 37.28984 -4.89213 10,850 189 298 -1408
2017-09-21 13:56:31 GMT 37.29245 -4.89166 10,875 189 298 -1536
2017-09-21 13:56:28 GMT 37.29744 -4.89067 10,975 189 298 -2112
2017-09-21 13:56:25 GMT 37.30179 -4.88979 11,075 189 297 -2624
2017-09-21 13:56:22 GMT 37.30614 -4.88897 11,225 190 294 -3264
2017-09-21 13:56:18 GMT 37.31185 -4.88784 11,450 190 290 -3008
2017-09-21 13:56:14 GMT 37.31840 -4.88646 11,675 190 289 -2944
2017-09-21 13:56:11 GMT 37.32010 -4.88611 11,750 190 289 -2880
2017-09-21 13:56:07 GMT 37.32605 -4.88494 11,950 190 290 -2688
2017-09-21 13:56:04 GMT 37.32945 -4.88420 12,050 190 290 -2560
2017-09-21 13:56:02 GMT 37.33342 -4.88342 12,175 190 290 -2560
2017-09-21 13:55:55 GMT 37.34340 -4.88132 12,475 190 292 -2240
2017-09-21 13:55:53 GMT 37.34476 -4.88103 12,525 190 291 -2240
2017-09-21 13:55:51 GMT 37.34760 -4.88050 12,600 190 293 -2240
2017-09-21 13:55:47 GMT 37.35246 -4.87945 12,725 190 295 -2176
2017-09-21 13:55:42 GMT 37.35910 -4.87805 12,900 190 296 -2112
2017-09-21 13:55:40 GMT 37.36082 -4.87769 12,950 190 297 -2048
2017-09-21 13:55:37 GMT 37.36692 -4.87644 13,100 190 299 -2240
2017-09-21 13:55:32 GMT 37.37246 -4.87530 13,225 190 300 -2560
2017-09-21 13:55:30 GMT 37.37567 -4.87459 13,325 190 300 -2752
2017-09-21 13:55:25 GMT 37.38240 -4.87320 13,550 190 300 -2880
2017-09-21 13:55:23 GMT 37.38499 -4.87268 13,650 190 300 -2880
2017-09-21 13:55:21 GMT 37.38936 -4.87172 13,800 190 299 -2880
2017-09-21 13:55:16 GMT 37.39522 -4.87051 14,000 190 299 -2816
2017-09-21 13:55:09 GMT 37.40401 -4.86876 14,275 190 299 -2624
2017-09-21 13:55:04 GMT 37.41129 -4.86730 14,500 190 299 -2496
2017-09-21 13:55:00 GMT 37.41655 -4.86624 14,650 190 302 -1792
2017-09-21 13:54:55 GMT 37.42474 -4.86456 14,775 190 305 -1152
2017-09-21 13:54:52 GMT 37.42813 -4.86390 14,850 190 308 -832
2017-09-21 13:54:49 GMT 37.43207 -4.86309 14,875 190 313 -640
2017-09-21 13:54:46 GMT 37.43759 -4.86199 14,925 190 319 -384
2017-09-21 13:54:40 GMT 37.44814 -4.85987 14,950 189 327 -384
2017-09-21 13:54:35 GMT 37.45340 -4.85882 14,975 189 336 -704
2017-09-21 13:54:31 GMT 37.45802 -4.85793 15,000 189 338 -768
2017-09-21 13:54:29 GMT 37.46226 -4.85709 15,025 189 340 -832
2017-09-21 13:54:25 GMT 37.46828 -4.85596 15,075 189 343 -896
2017-09-21 13:54:21 GMT 37.47400 -4.85485 15,125 189 345 -896
2017-09-21 13:54:19 GMT 37.47771 -4.85409 15,175 189 347 -896
2017-09-21 13:54:09 GMT 37.49373 -4.85099 15,325 189 354 -1344
2017-09-21 13:54:03 GMT 37.50279 -4.84924 15,450 189 356 -1920
2017-09-21 13:54:01 GMT 37.50664 -4.84848 15,550 189 356 -2304
2017-09-21 13:53:59 GMT 37.51310 -4.84724 15,650 189 357 -2304
2017-09-21 13:53:54 GMT 37.51845 -4.84614 15,800 190 357 -2240
2017-09-21 13:53:49 GMT 37.52716 -4.84443 16,000 189 358 -2304
2017-09-21 13:53:43 GMT 37.53656 -4.84258 16,200 189 358 -2368
2017-09-21 13:53:39 GMT 37.54390 -4.84111 16,375 189 358 -2304
2017-09-21 13:53:37 GMT 37.54568 -4.84079 16,425 189 359 -2240
2017-09-21 13:53:32 GMT 37.55551 -4.83882 16,625 189 359 -2240
2017-09-21 13:53:29 GMT 37.55862 -4.83822 16,700 189 360 -2112
2017-09-21 13:53:27 GMT 37.56146 -4.83763 16,750 189 360 -2112
2017-09-21 13:53:24 GMT 37.56854 -4.83625 16,900 190 361 -2112
2017-09-21 13:53:19 GMT 37.57722 -4.83451 17,050 190 362 -2176
2017-09-21 13:53:17 GMT 37.57808 -4.83434 17,100 190 363 -2176
2017-09-21 13:53:13 GMT 37.58511 -4.83291 17,250 190 364 -2112
2017-09-21 13:53:08 GMT 37.59512 -4.83088 17,450 190 365 -2304
2017-09-21 13:53:01 GMT 37.60551 -4.82878 17,700 190 365 -2816
2017-09-21 13:52:59 GMT 37.60904 -4.82808 17,800 190 364 -3136
2017-09-21 13:52:57 GMT 37.61183 -4.82754 17,900 190 364 -3200
2017-09-21 13:52:52 GMT 37.62035 -4.82580 18,150 190 362 -3264
2017-09-21 13:52:47 GMT 37.63046 -4.82382 18,425 190 361 -2752
2017-09-21 13:52:42 GMT 37.63939 -4.82200 18,675 190 362 -2112
2017-09-21 13:52:38 GMT 37.64429 -4.82101 18,750 190 362 -2112
2017-09-21 13:52:36 GMT 37.64616 -4.82066 18,825 190 362 -2112
2017-09-21 13:52:30 GMT 37.65678 -4.81850 19,025 190 363 -2048
2017-09-21 13:52:27 GMT 37.66351 -4.81715 19,175 190 364 -2112
2017-09-21 13:52:18 GMT 37.67705 -4.81434 19,450 190 365 -2304
2017-09-21 13:52:16 GMT 37.68027 -4.81368 19,525 190 365 -2368
2017-09-21 13:52:11 GMT 37.68916 -4.81183 19,725 190 365 -2304
2017-09-21 13:52:08 GMT 37.69418 -4.81084 19,850 190 366 -2240
2017-09-21 13:52:05 GMT 37.69772 -4.81010 19,925 190 366 -2176
2017-09-21 13:52:02 GMT 37.70596 -4.80837 20,100 190 367 -2048
2017-09-21 13:51:56 GMT 37.71458 -4.80664 20,250 190 368 -2048
2017-09-21 13:51:50 GMT 37.72556 -4.80437 20,450 190 369 -2048
2017-09-21 13:51:46 GMT 37.73250 -4.80295 20,600 190 370 -2048
2017-09-21 13:51:40 GMT 37.74088 -4.80132 20,775 189 371 -2048
2017-09-21 13:51:37 GMT 37.74628 -4.80025 20,875 189 371 -2048
2017-09-21 13:51:35 GMT 37.74957 -4.79956 20,925 189 371 -2048
2017-09-21 13:51:28 GMT 37.76088 -4.79734 21,175 190 372 -2112
2017-09-21 13:51:25 GMT 37.76633 -4.79623 21,275 190 373 -2112
2017-09-21 13:51:21 GMT 37.77500 -4.79452 21,450 190 374 -2112
2017-09-21 13:51:16 GMT 37.78157 -4.79319 21,575 190 374 -2112
2017-09-21 13:51:14 GMT 37.78487 -4.79249 21,650 190 375 -2176
2017-09-21 13:51:10 GMT 37.79329 -4.79080 21,825 190 375 -2176
2017-09-21 13:51:04 GMT 37.80321 -4.78885 22,000 190 376 -2176
2017-09-21 13:50:59 GMT 37.81131 -4.78723 22,175 189 377 -2112
2017-09-21 13:50:55 GMT 37.81869 -4.78577 22,325 189 378 -2112
2017-09-21 13:50:53 GMT 37.82127 -4.78526 22,375 189 378 -2112
2017-09-21 13:50:49 GMT 37.82831 -4.78385 22,525 189 379 -2112
2017-09-21 13:50:44 GMT 37.83724 -4.78210 22,700 189 380 -2112
2017-09-21 13:50:42 GMT 37.84090 -4.78139 22,750 189 381 -2112
2017-09-21 13:50:40 GMT 37.84749 -4.78010 22,850 189 381 -2112
2017-09-21 13:50:33 GMT 37.85656 -4.77828 23,075 190 382 -2240
2017-09-21 13:50:28 GMT 37.86587 -4.77643 23,275 190 384 -2304
2017-09-21 13:50:23 GMT 37.87528 -4.77449 23,475 190 385 -2304
2017-09-21 13:50:17 GMT 37.88429 -4.77262 23,650 190 385 -2304
2017-09-21 13:50:14 GMT 37.89139 -4.77116 23,825 190 386 -2304
2017-09-21 13:50:09 GMT 37.90334 -4.76878 24,025 190 386 -2304
2017-09-21 13:50:03 GMT 37.90915 -4.76760 24,175 190 387 -2304
2017-09-21 13:49:53 GMT 37.92653 -4.76407 24,550 190 389 -2240
2017-09-21 13:49:47 GMT 37.93680 -4.76205 24,775 190 390 -2304
2017-09-21 13:49:38 GMT 37.95506 -4.75833 25,125 190 391 -2368
2017-09-21 13:49:36 GMT 37.95655 -4.75798 25,175 190 392 -2304
2017-09-21 13:49:34 GMT 37.96193 -4.75690 25,275 190 391 -2368
2017-09-21 13:49:31 GMT 37.96572 -4.75612 25,375 190 392 -2368
2017-09-21 13:49:25 GMT 37.97722 -4.75380 25,600 190 393 -2368
2017-09-21 13:49:20 GMT 37.98495 -4.75223 25,775 190 393 -2368
2017-09-21 13:49:15 GMT 37.99454 -4.75033 25,975 190 395 -2304
2017-09-21 13:49:10 GMT 38.00487 -4.74824 26,150 190 396 -2368
2017-09-21 13:49:02 GMT 38.02000 -4.74514 26,525 190 398 -2304
2017-09-21 13:48:51 GMT 38.03788 -4.74144 26,900 190 398 -2304
2017-09-21 13:48:45 GMT 38.05105 -4.73875 27,175 190 399 -2368
2017-09-21 13:48:34 GMT 38.06827 -4.73522 27,525 190 401 -2368
2017-09-21 13:48:28 GMT 38.08038 -4.73278 27,800 190 402 -2368
2017-09-21 13:48:18 GMT 38.09882 -4.72896 28,175 190 403 -2304
2017-09-21 13:48:07 GMT 38.12242 -4.72412 28,650 190 405 -2304
2017-09-21 13:47:59 GMT 38.13464 -4.72167 28,900 190 406 -2368
2017-09-21 13:47:56 GMT 38.14174 -4.72018 29,050 190 406 -2368
2017-09-21 13:47:54 GMT 38.14449 -4.71964 29,125 190 407 -2368
2017-09-21 13:47:47 GMT 38.15684 -4.71717 29,375 190 407 -2368
2017-09-21 13:47:43 GMT 38.16435 -4.71559 29,525 190 408 -2368
2017-09-21 13:47:37 GMT 38.17591 -4.71325 29,775 190 409 -2304
2017-09-21 13:47:35 GMT 38.17786 -4.71290 29,800 190 409 -2368
2017-09-21 13:47:30 GMT 38.18862 -4.71069 30,025 190 409 -2368
2017-09-21 13:47:27 GMT 38.19220 -4.70997 30,100 190 410 -2368
2017-09-21 13:47:25 GMT 38.19662 -4.70904 30,200 189 410 -2368
2017-09-21 13:47:15 GMT 38.21512 -4.70530 30,575 190 411 -2368
2017-09-21 13:47:12 GMT 38.22583 -4.70314 30,800 190 412 -2368
2017-09-21 13:47:04 GMT 38.23591 -4.70107 31,000 190 412 -2368
2017-09-21 13:47:01 GMT 38.24555 -4.69910 31,200 190 413 -2368
2017-09-21 13:46:54 GMT 38.25561 -4.69701 31,400 190 413 -2368
2017-09-21 13:46:49 GMT 38.26855 -4.69433 31,675 190 414 -2368
2017-09-21 13:46:45 GMT 38.27460 -4.69313 31,800 190 414 -2368
2017-09-21 13:46:43 GMT 38.27534 -4.69295 31,825 190 414 -2368
2017-09-21 13:46:35 GMT 38.29074 -4.68982 32,125 190 415 -2368
2017-09-21 13:46:33 GMT 38.29518 -4.68888 32,225 190 415 -2368
2017-09-21 13:46:23 GMT 38.31542 -4.68471 32,650 190 416 -2432
2017-09-21 13:46:23 GMT 38.31542 -4.68471 32,650 190 416 -2368
2017-09-21 13:46:21 GMT 38.31784 -4.68424 32,700 190 416 -2432
2017-09-21 13:46:12 GMT 38.33451 -4.68083 33,025 190 417 -2304
2017-09-21 13:46:05 GMT 38.35439 -4.67677 33,425 190 418 -2304
2017-09-21 13:46:02 GMT 38.35439 -4.67677 33,425 190 418 -2304
2017-09-21 13:45:56 GMT 38.36623 -4.67433 33,475 190 418 -2304
2017-09-21 13:45:54 GMT 38.36868 -4.67379 33,725 190 418 -2304
2017-09-21 13:45:52 GMT 38.37360 -4.67281 33,825 190 419 -2304
2017-09-21 13:45:49 GMT 38.37888 -4.67170 33,925 190 419 -2304
2017-09-21 13:45:42 GMT 38.39525 -4.66831 34,250 190 419 -2432
2017-09-21 13:45:41 GMT 38.39355 -4.66866 34,225 190 419 -2368
2017-09-21 13:45:39 GMT 38.40094 -4.66716 34,375 190 419 -2368
2017-09-21 13:45:34 GMT 38.40709 -4.66591 34,500 190 420 -2368
2017-09-21 13:45:30 GMT 38.41649 -4.66394 34,700 190 420 -2368
2017-09-21 13:45:28 GMT 38.41933 -4.66333 34,725 190 420 -2368
2017-09-21 13:45:20 GMT 38.43370 -4.66029 35,050 190 420 -2304
2017-09-21 13:45:10 GMT 38.45490 -4.65594 35,425 189 422 -2176
2017-09-21 13:45:09 GMT 38.45668 -4.65558 35,475 189 422 -2112
2017-09-21 13:45:07 GMT 38.46076 -4.65479 35,550 189 422 -2112
2017-09-21 13:44:59 GMT 38.47933 -4.65112 35,925 189 423 -2304
2017-09-21 13:44:50 GMT 38.49294 -4.64847 36,200 189 422 -2048
2017-09-21 13:44:48 GMT 38.50033 -4.64697 36,325 189 421 -1792
2017-09-21 13:44:45 GMT 38.50278 -4.64650 36,375 189 421 -1664
2017-09-21 13:44:38 GMT 38.51674 -4.64375 36,575 190 420 -1216
2017-09-21 13:44:38 GMT 38.51741 -4.64362 36,550 190 420 -1216
2017-09-21 13:44:35 GMT 38.52496 -4.64209 36,650 190 420 -960
2017-09-21 13:44:27 GMT 38.53684 -4.63963 36,725 190 420 -960
2017-09-21 13:44:27 GMT 38.53684 -4.63963 36,725 190 420 -960
2017-09-21 13:44:21 GMT 38.54993 -4.63689 36,850 190 421 -960
2017-09-21 13:44:19 GMT 38.55286 -4.63629 36,875 190 421 -896
2017-09-21 13:44:17 GMT 38.55693 -4.63539 36,900 190 421 -704
2017-09-21 13:44:17 GMT 38.55693 -4.63539 36,900 190 421 -640
2017-09-21 13:44:14 GMT 38.56307 -4.63414 36,950 190 420 -64
2017-09-21 13:44:08 GMT 38.57332 -4.63196 37,000 190 420 0
2017-09-21 13:44:06 GMT 38.57784 -4.63104 37,000 190 420 -64
2017-09-21 13:44:06 GMT 38.57784 -4.63104 37,000 190 420 -64
2017-09-21 13:44:04 GMT 38.58522 -4.62948 37,000 190 420 -64
2017-09-21 13:43:58 GMT 38.59296 -4.62781 37,000 190 420 0
2017-09-21 13:43:55 GMT 38.59874 -4.62665 37,000 190 420 0
2017-09-21 13:43:54 GMT 38.60032 -4.62628 37,000 190 420 0
2017-09-21 13:43:52 GMT 38.60572 -4.62518 37,000 190 420 0
2017-09-21 13:43:46 GMT 38.61676 -4.62280 37,000 190 420 0
2017-09-21 13:43:42 GMT 38.62495 -4.62106 37,000 190 419 0
2017-09-21 13:43:37 GMT 38.63269 -4.61945 37,000 190 419 0
2017-09-21 13:43:35 GMT 38.63715 -4.61853 37,000 190 419 0
2017-09-21 13:43:30 GMT 38.64496 -4.61688 37,000 190 419 0
2017-09-21 13:43:26 GMT 38.65430 -4.61497 37,000 190 419 0
2017-09-21 13:43:23 GMT 38.66089 -4.61359 37,000 190 419 0
2017-09-21 13:43:21 GMT 38.66739 -4.61223 37,000 190 419 0
2017-09-21 13:43:16 GMT 38.67313 -4.61102 37,000 190 419 0
2017-09-21 13:43:13 GMT 38.67966 -4.60966 37,000 190 419 0
2017-09-21 13:43:12 GMT 38.67966 -4.60966 37,000 190 419 0
2017-09-21 13:43:09 GMT 38.69032 -4.60745 37,000 190 419 0
2017-09-21 13:43:04 GMT 38.69806 -4.60584 37,000 190 419 0
2017-09-21 13:43:04 GMT 38.69806 -4.60584 37,000 190 419 0
2017-09-21 13:43:00 GMT 38.70376 -4.60461 37,000 190 419 0
2017-09-21 13:42:58 GMT 38.71074 -4.60315 37,000 190 419 0
2017-09-21 13:42:55 GMT 38.71466 -4.60236 37,000 190 419 0
2017-09-21 13:42:52 GMT 38.71885 -4.60144 37,000 190 419 0
2017-09-21 13:42:50 GMT 38.72336 -4.60053 37,000 190 419 0
2017-09-21 13:42:45 GMT 38.73272 -4.59857 37,000 190 419 0
2017-09-21 13:42:43 GMT 38.73723 -4.59760 37,000 190 419 0
2017-09-21 13:42:42 GMT 38.74008 -4.59700 37,000 190 419 0
2017-09-21 13:42:35 GMT 38.75230 -4.59449 37,000 190 419 0
2017-09-21 13:42:32 GMT 38.75804 -4.59332 37,000 190 419 0
2017-09-21 13:42:28 GMT 38.76577 -4.59174 37,000 190 419 0
2017-09-21 13:42:24 GMT 38.77238 -4.59039 37,000 190 419 0
2017-09-21 13:42:20 GMT 38.78095 -4.58862 37,000 190 419 0
2017-09-21 13:42:13 GMT 38.79355 -4.58608 37,000 190 419 0
2017-09-21 13:42:10 GMT 38.79968 -4.58482 37,000 190 419 0
2017-09-21 13:42:10 GMT 38.79968 -4.58482 37,000 190 419 0
2017-09-21 13:42:03 GMT 38.81521 -4.58167 37,000 190 419 0
2017-09-21 13:42:00 GMT 38.82051 -4.58058 37,000 190 419 0
2017-09-21 13:41:51 GMT 38.83933 -4.57670 37,000 190 419 0
2017-09-21 13:41:49 GMT 38.83933 -4.57670 37,000 190 419 0
2017-09-21 13:41:42 GMT 38.85722 -4.57300 37,000 190 419 -64
2017-09-21 13:41:35 GMT 38.86862 -4.57061 37,000 190 419 -64
2017-09-21 13:41:32 GMT 38.87155 -4.57001 37,000 190 419 0
2017-09-21 13:41:30 GMT 38.88171 -4.56792 37,000 190 418 0
2017-09-21 13:41:25 GMT 38.88538 -4.56715 37,000 190 418 0
2017-09-21 13:41:22 GMT 38.89069 -4.56601 37,000 190 418 0
2017-09-21 13:41:19 GMT 38.89970 -4.56409 37,000 190 418 0
2017-09-21 13:41:11 GMT 38.91269 -4.56134 37,000 190 418 0
2017-09-21 13:41:08 GMT 38.91879 -4.56000 37,025 190 418 0
2017-09-21 13:41:07 GMT 38.91966 -4.55986 37,000 190 418 0
2017-09-21 13:41:01 GMT 38.93065 -4.55748 37,025 190 418 0
2017-09-21 13:40:57 GMT 38.94205 -4.55509 37,025 190 418 0
2017-09-21 13:40:58 GMT 38.93839 -4.55585 37,025 190 418 0
2017-09-21 13:40:58 GMT 38.93839 -4.55585 37,025 190 418 0
2017-09-21 13:40:57 GMT 38.94205 -4.55509 37,025 190 418 0
2017-09-21 13:40:51 GMT 38.95063 -4.55322 37,025 190 418 0
2017-09-21 13:40:49 GMT 38.95427 -4.55246 37,025 190 418 0
2017-09-21 13:40:47 GMT 38.96455 -4.55029 37,025 190 418 0
2017-09-21 13:40:41 GMT 38.96981 -4.54913 37,025 190 418 64
2017-09-21 13:40:39 GMT 38.97307 -4.54846 37,025 190 418 64
2017-09-21 13:40:36 GMT 38.98531 -4.54584 37,000 190 418 64
2017-09-21 13:40:29 GMT 38.99181 -4.54446 37,000 190 418 64
2017-09-21 13:40:25 GMT 38.99918 -4.54285 37,000 190 418 64
2017-09-21 13:40:24 GMT 39.00123 -4.54242 37,000 190 418 64
2017-09-21 13:40:20 GMT 39.00934 -4.54070 37,000 190 419 64
2017-09-21 13:40:16 GMT 39.01996 -4.53843 37,000 190 419 64
2017-09-21 13:40:16 GMT 39.02106 -4.53819 37,000 190 419 64
2017-09-21 13:40:13 GMT 39.02770 -4.53676 37,000 190 419 64
2017-09-21 13:40:09 GMT 39.02940 -4.53638 37,000 190 419 64
2017-09-21 13:40:05 GMT 39.03954 -4.53418 37,000 190 419 64
2017-09-21 13:40:04 GMT 39.03954 -4.53418 37,000 190 419 64
2017-09-21 13:40:01 GMT 39.04853 -4.53229 36,975 190 419 0
2017-09-21 13:39:58 GMT 39.05058 -4.53186 37,000 190 419 0
2017-09-21 13:39:54 GMT 39.06077 -4.52972 36,975 190 419 0
2017-09-21 13:39:49 GMT 39.06894 -4.52798 36,975 190 419 64
2017-09-21 13:39:44 GMT 39.07911 -4.52588 36,975 190 419 64
2017-09-21 13:39:40 GMT 39.08890 -4.52386 36,975 190 419 0
2017-09-21 13:39:38 GMT 39.08890 -4.52386 36,975 190 419 0
2017-09-21 13:39:34 GMT 39.09956 -4.52171 36,975 189 419 0
2017-09-21 13:39:31 GMT 39.10532 -4.52057 36,975 189 419 -64
2017-09-21 13:39:28 GMT 39.10936 -4.51974 36,975 189 419 -64
2017-09-21 13:39:23 GMT 39.11915 -4.51776 37,000 190 418 -64
2017-09-21 13:39:23 GMT 39.11915 -4.51776 37,000 190 418 -64
2017-09-21 13:39:18 GMT 39.12893 -4.51556 37,000 191 418 0
2017-09-21 13:39:13 GMT 39.13907 -4.51299 37,000 193 416 64
2017-09-21 13:39:12 GMT 39.13907 -4.51299 37,000 193 417 64
2017-09-21 13:39:10 GMT 39.14624 -4.51099 37,000 193 416 64
2017-09-21 13:39:07 GMT 39.15225 -4.50922 36,975 194 416 64
2017-09-21 13:39:01 GMT 39.16063 -4.50659 36,975 195 416 0
2017-09-21 13:39:01 GMT 39.16063 -4.50659 36,975 195 416 0
2017-09-21 13:38:57 GMT 39.16821 -4.50397 36,975 196 416 0
2017-09-21 13:38:55 GMT 39.17250 -4.50244 36,975 197 416 0
2017-09-21 13:38:52 GMT 39.17841 -4.50024 36,975 197 415 0
2017-09-21 13:38:47 GMT 39.18665 -4.49701 36,975 198 415 0
2017-09-21 13:38:44 GMT 39.19252 -4.49457 36,975 199 414 0
2017-09-21 13:38:39 GMT 39.20375 -4.48959 37,000 200 414 0
2017-09-21 13:38:36 GMT 39.20572 -4.48869 37,000 201 415 0
2017-09-21 13:38:33 GMT 39.21378 -4.48487 37,000 202 414 0
2017-09-21 13:38:30 GMT 39.21784 -4.48285 37,000 202 413 0
2017-09-21 13:38:30 GMT 39.21784 -4.48285 37,000 202 414 0
2017-09-21 13:38:26 GMT 39.22403 -4.47968 37,000 203 413 0
2017-09-21 13:38:23 GMT 39.23264 -4.47498 36,975 204 414 0
2017-09-21 13:38:20 GMT 39.23488 -4.47376 36,975 205 413 0
2017-09-21 13:38:16 GMT 39.24202 -4.46964 36,975 206 412 -64
2017-09-21 13:38:13 GMT 39.25052 -4.46454 37,000 207 412 -64
2017-09-21 13:38:09 GMT 39.25374 -4.46248 37,000 207 412 -64
2017-09-21 13:38:07 GMT 39.25873 -4.45932 37,000 208 412 -64
2017-09-21 13:38:05 GMT 39.26038 -4.45824 37,000 208 412 -64
2017-09-21 13:38:01 GMT 39.27044 -4.45142 37,000 209 411 0
2017-09-21 13:37:59 GMT 39.27110 -4.45093 37,000 210 412 0
2017-09-21 13:37:57 GMT 39.27431 -4.44867 37,000 210 411 0
2017-09-21 13:37:55 GMT 39.27752 -4.44641 37,000 210 412 0
2017-09-21 13:37:48 GMT 39.28844 -4.43824 37,000 212 411 0
2017-09-21 13:37:48 GMT 39.28844 -4.43824 37,000 212 411 0
2017-09-21 13:37:46 GMT 39.29187 -4.43549 37,000 212 411 64
2017-09-21 13:37:43 GMT 39.29675 -4.43164 37,000 213 411 0
2017-09-21 13:37:39 GMT 39.30554 -4.42425 37,000 214 411 -64
2017-09-21 13:37:34 GMT 39.31062 -4.41992 37,000 214 411 -64
2017-09-21 13:37:28 GMT 39.32176 -4.41041 37,000 214 411 -64
2017-09-21 13:37:24 GMT 39.32753 -4.40546 37,000 214 411 0
2017-09-21 13:37:18 GMT 39.33939 -4.39531 37,000 214 411 64
2017-09-21 13:37:15 GMT 39.34102 -4.39386 37,000 214 411 64
2017-09-21 13:37:15 GMT 39.34102 -4.39386 37,000 214 411 64
2017-09-21 13:37:13 GMT 39.34405 -4.39125 37,000 214 411 64
2017-09-21 13:37:06 GMT 39.35484 -4.38190 37,000 214 412 0
2017-09-21 13:37:03 GMT 39.36182 -4.37590 37,000 214 411 -64
2017-09-21 13:36:56 GMT 39.37602 -4.36365 37,000 214 412 0
2017-09-21 13:36:55 GMT 39.37537 -4.36420 37,000 214 412 0
2017-09-21 13:36:53 GMT 39.37644 -4.36328 37,000 214 412 0
2017-09-21 13:36:45 GMT 39.38929 -4.35217 37,025 214 412 0
2017-09-21 13:36:42 GMT 39.39302 -4.34894 37,000 214 411 0
2017-09-21 13:36:34 GMT 39.40624 -4.33752 37,000 214 412 64
2017-09-21 13:36:32 GMT 39.40924 -4.33494 37,000 214 412 64
2017-09-21 13:36:25 GMT 39.42174 -4.32414 37,000 214 412 -64
2017-09-21 13:36:23 GMT 39.42311 -4.32300 37,000 214 412 0
2017-09-21 13:36:23 GMT 39.42311 -4.32300 37,000 214 412 0
2017-09-21 13:36:21 GMT 39.42613 -4.32037 37,000 214 412 -64
2017-09-21 13:36:13 GMT 39.44241 -4.30633 37,000 214 412 0
2017-09-21 13:36:11 GMT 39.44241 -4.30633 37,000 214 412 0
2017-09-21 13:36:01 GMT 39.45937 -4.29177 37,000 214 413 64
2017-09-21 13:35:53 GMT 39.47328 -4.27983 37,000 214 413 0
2017-09-21 13:35:53 GMT 39.47328 -4.27983 37,000 214 413 0
2017-09-21 13:35:50 GMT 39.47756 -4.27618 37,000 214 413 0
2017-09-21 13:35:42 GMT 39.48917 -4.26616 37,000 214 413 -64
2017-09-21 13:35:42 GMT 39.48917 -4.26616 37,000 214 413 -64
2017-09-21 13:35:40 GMT 39.49223 -4.26353 37,000 214 413 -64
2017-09-21 13:35:30 GMT 39.51411 -4.24460 37,000 214 412 64
2017-09-21 13:35:21 GMT 39.52208 -4.23774 37,000 214 413 0
2017-09-21 13:35:19 GMT 39.52473 -4.23547 37,000 214 413 0
2017-09-21 13:35:14 GMT 39.53627 -4.22538 37,000 214 413 0
2017-09-21 13:35:09 GMT 39.54166 -4.22070 37,000 214 413 -64
2017-09-21 13:35:07 GMT 39.54707 -4.21600 37,000 214 413 -64
2017-09-21 13:34:58 GMT 39.55790 -4.20654 37,025 214 413 0
2017-09-21 13:34:56 GMT 39.56401 -4.20125 37,025 214 413 0
2017-09-21 13:34:48 GMT 39.57481 -4.19188 37,025 214 412 -64
2017-09-21 13:34:46 GMT 39.58025 -4.18720 37,025 214 412 -64
2017-09-21 13:34:38 GMT 39.59070 -4.17815 37,025 214 412 0
2017-09-21 13:34:35 GMT 39.59850 -4.17139 37,025 214 412 128
2017-09-21 13:34:29 GMT 39.60530 -4.16555 37,025 214 412 128
2017-09-21 13:34:27 GMT 39.60767 -4.16351 37,025 214 412 128
2017-09-21 13:34:23 GMT 39.61782 -4.15472 37,000 214 412 64
2017-09-21 13:34:19 GMT 39.62219 -4.15094 37,000 214 412 0
2017-09-21 13:34:17 GMT 39.62391 -4.14941 37,000 214 412 0
2017-09-21 13:34:12 GMT 39.63234 -4.14215 37,000 214 412 -64
2017-09-21 13:34:05 GMT 39.64188 -4.13385 37,000 214 412 0
2017-09-21 13:34:01 GMT 39.65064 -4.12628 37,000 214 412 0
2017-09-21 13:33:56 GMT 39.65744 -4.12035 37,000 214 412 0
2017-09-21 13:33:50 GMT 39.66760 -4.11157 37,000 214 412 0
2017-09-21 13:33:46 GMT 39.67337 -4.10656 37,000 214 412 0
2017-09-21 13:33:39 GMT 39.68518 -4.09629 37,000 214 412 0
2017-09-21 13:33:35 GMT 39.69182 -4.09050 37,000 214 412 0
2017-09-21 13:33:29 GMT 39.70244 -4.08130 37,000 214 412 0
2017-09-21 13:33:24 GMT 39.70790 -4.07660 37,000 214 412 0
2017-09-21 13:33:18 GMT 39.71965 -4.06632 37,000 214 412 0
2017-09-21 13:33:15 GMT 39.72237 -4.06396 37,000 214 412 0
2017-09-21 13:33:08 GMT 39.73624 -4.05188 37,000 214 412 0
2017-09-21 13:33:04 GMT 39.73929 -4.04924 37,000 214 412 0
2017-09-21 13:32:54 GMT 39.75673 -4.03406 37,000 214 412 0
2017-09-21 13:32:44 GMT 39.77138 -4.02135 37,000 214 412 0
2017-09-21 13:32:33 GMT 39.78894 -4.00598 37,000 215 412 64
2017-09-21 13:32:22 GMT 39.80514 -3.99182 37,000 215 412 64
2017-09-21 13:32:12 GMT 39.82132 -3.97765 37,000 215 412 0
2017-09-21 13:32:02 GMT 39.84375 -3.95800 36,975 214 412 64
2017-09-21 13:31:51 GMT 39.85905 -3.94470 36,975 214 412 64
2017-09-21 13:31:41 GMT 39.87016 -3.93496 36,975 214 411 64
2017-09-21 13:31:31 GMT 39.88701 -3.92027 36,975 214 411 -64
2017-09-21 13:31:21 GMT 39.90280 -3.90653 37,000 214 410 -64
2017-09-21 13:31:15 GMT 39.91859 -3.89276 37,000 214 411 0
2017-09-21 13:31:10 GMT 39.91933 -3.89209 37,000 214 411 0
2017-09-21 13:31:05 GMT 39.93114 -3.88178 37,000 214 411 0
2017-09-21 13:31:00 GMT 39.93507 -3.87830 37,000 215 410 0
2017-09-21 13:30:55 GMT 39.94757 -3.86731 37,000 214 411 0
2017-09-21 13:30:48 GMT 39.95325 -3.86237 37,000 214 411 0
2017-09-21 13:30:40 GMT 39.96896 -3.84859 37,000 214 411 -64
2017-09-21 13:30:32 GMT 39.98415 -3.83527 37,000 214 411 -64
2017-09-21 13:30:29 GMT 39.98415 -3.83527 37,000 214 411 0
2017-09-21 13:30:19 GMT 40.00058 -3.82086 37,000 215 410 0
2017-09-21 13:30:08 GMT 40.01672 -3.80664 37,000 215 410 0
2017-09-21 13:29:58 GMT 40.03317 -3.79211 37,000 215 411 0
2017-09-21 13:29:50 GMT 40.04897 -3.77826 37,000 215 411 -64
2017-09-21 13:29:48 GMT 40.04897 -3.77826 37,000 215 411 -64
2017-09-21 13:29:37 GMT 40.06509 -3.76407 37,025 215 411 64
2017-09-21 13:29:27 GMT 40.08162 -3.74946 37,000 215 411 0
2017-09-21 13:29:17 GMT 40.09735 -3.73560 37,000 215 411 0
2017-09-21 13:29:13 GMT 40.10715 -3.72693 37,000 215 411 0
2017-09-21 13:29:06 GMT 40.11855 -3.71686 37,000 215 411 0
2017-09-21 13:28:56 GMT 40.13068 -3.70614 37,000 215 411 0
2017-09-21 13:28:54 GMT 40.13672 -3.70081 37,000 215 411 0
2017-09-21 13:28:46 GMT 40.14651 -3.69216 37,000 215 412 64
2017-09-21 13:28:42 GMT 40.15489 -3.68475 37,000 215 412 0
2017-09-21 13:28:35 GMT 40.16369 -3.67699 37,000 215 412 0
2017-09-21 13:28:32 GMT 40.17044 -3.67099 37,000 215 412 0
2017-09-21 13:28:25 GMT 40.17952 -3.66296 37,000 215 412 0
2017-09-21 13:28:20 GMT 40.18858 -3.65491 37,000 215 411 0
2017-09-21 13:28:14 GMT 40.19632 -3.64808 37,000 215 411 64
2017-09-21 13:28:08 GMT 40.20945 -3.63647 37,000 215 413 64
2017-09-21 13:28:04 GMT 40.21248 -3.63379 37,000 215 413 0
2017-09-21 13:27:58 GMT 40.22562 -3.62219 37,000 215 413 0
2017-09-21 13:27:54 GMT 40.22868 -3.61950 37,000 215 413 -64
2017-09-21 13:27:49 GMT 40.23878 -3.61057 37,000 215 413 -64
2017-09-21 13:27:44 GMT 40.24484 -3.60516 37,025 215 412 0
2017-09-21 13:27:39 GMT 40.25665 -3.59467 37,000 215 412 0
2017-09-21 13:27:33 GMT 40.26136 -3.59047 37,000 215 412 0
2017-09-21 13:27:22 GMT 40.27853 -3.57524 37,000 215 412 0
2017-09-21 13:27:13 GMT 40.29401 -3.56146 37,000 215 413 0
2017-09-21 13:27:06 GMT 40.30749 -3.54952 37,000 215 413 0
2017-09-21 13:27:02 GMT 40.31021 -3.54712 37,000 215 413 0
2017-09-21 13:26:52 GMT 40.32839 -3.53092 37,000 215 413 0
2017-09-21 13:26:39 GMT 40.34784 -3.51361 37,000 215 413 0
2017-09-21 13:26:31 GMT 40.36000 -3.50277 37,000 215 413 0
2017-09-21 13:26:24 GMT 40.37275 -3.49134 37,000 215 413 64
2017-09-21 13:26:20 GMT 40.37649 -3.48798 37,000 215 413 64
2017-09-21 13:26:15 GMT 40.38593 -3.47961 37,000 215 413 0
2017-09-21 13:26:12 GMT 40.39328 -3.47299 37,000 215 412 0
2017-09-21 13:26:05 GMT 40.40135 -3.46582 37,000 215 413 0
2017-09-21 13:25:59 GMT 40.40941 -3.45862 37,000 215 412 0
2017-09-21 13:25:54 GMT 40.41746 -3.45142 37,000 215 412 0
2017-09-21 13:25:49 GMT 40.42997 -3.44028 37,000 215 412 0
2017-09-21 13:25:45 GMT 40.43360 -3.43703 37,000 215 412 0
2017-09-21 13:25:40 GMT 40.43937 -3.43192 37,000 215 412 0
2017-09-21 13:25:34 GMT 40.45012 -3.42230 37,000 215 412 -64
2017-09-21 13:25:31 GMT 40.45477 -3.41809 37,000 215 412 -64
2017-09-21 13:25:27 GMT 40.46558 -3.40851 37,025 215 411 0
2017-09-21 13:25:24 GMT 40.46626 -3.40790 37,025 215 411 0
2017-09-21 13:25:20 GMT 40.47419 -3.40077 37,000 215 411 64
2017-09-21 13:25:17 GMT 40.48169 -3.39409 37,000 215 412 0
2017-09-21 13:25:14 GMT 40.48266 -3.39322 37,000 215 412 0
2017-09-21 13:25:09 GMT 40.48801 -3.38837 37,000 215 412 0
2017-09-21 13:25:03 GMT 40.49876 -3.37872 37,000 215 412 0
2017-09-21 13:25:00 GMT 40.50413 -3.37393 37,000 215 412 0
2017-09-21 13:24:53 GMT 40.51456 -3.36456 37,000 215 412 0
2017-09-21 13:24:49 GMT 40.52225 -3.35767 37,000 215 413 -64
2017-09-21 13:24:42 GMT 40.53168 -3.34924 37,000 215 413 -64
2017-09-21 13:24:37 GMT 40.53936 -3.34234 37,000 215 413 0
2017-09-21 13:24:35 GMT 40.54211 -3.33991 37,000 215 413 0
2017-09-21 13:24:33 GMT 40.54916 -3.33362 37,000 215 412 0
2017-09-21 13:24:31 GMT 40.54939 -3.33337 37,000 215 412 0
2017-09-21 13:24:27 GMT 40.55519 -3.32823 37,000 215 412 0
2017-09-21 13:24:21 GMT 40.56460 -3.31981 37,000 215 412 64
2017-09-21 13:24:17 GMT 40.57102 -3.31406 37,000 215 412 64
2017-09-21 13:24:15 GMT 40.57462 -3.31085 37,000 215 412 64
2017-09-21 13:24:11 GMT 40.58011 -3.30597 37,000 215 412 0
2017-09-21 13:24:06 GMT 40.58816 -3.29877 37,000 215 413 0
2017-09-21 13:24:01 GMT 40.59654 -3.29126 37,000 215 413 0
2017-09-21 13:23:59 GMT 40.59923 -3.28878 37,000 215 413 0
2017-09-21 13:23:56 GMT 40.60593 -3.28278 37,000 215 412 0
2017-09-21 13:23:50 GMT 40.61306 -3.27642 37,000 215 412 0
2017-09-21 13:23:48 GMT 40.61701 -3.27286 37,000 215 412 0
2017-09-21 13:23:45 GMT 40.62172 -3.26862 37,000 215 412 0
2017-09-21 13:23:38 GMT 40.63348 -3.25800 37,000 215 412 64
2017-09-21 13:23:34 GMT 40.64015 -3.25202 37,000 215 412 0
2017-09-21 13:23:30 GMT 40.64518 -3.24746 37,000 215 412 -64
2017-09-21 13:23:27 GMT 40.65225 -3.24109 37,000 215 412 0
2017-09-21 13:23:25 GMT 40.65326 -3.24023 37,000 215 412 0
2017-09-21 13:23:23 GMT 40.65523 -3.23841 37,000 215 412 64
2017-09-21 13:23:19 GMT 40.66200 -3.23236 37,000 215 412 64
2017-09-21 13:23:13 GMT 40.67032 -3.22480 37,000 215 412 64
2017-09-21 13:23:09 GMT 40.67846 -3.21750 37,000 215 412 64
2017-09-21 13:23:02 GMT 40.68846 -3.20844 36,975 215 412 64
2017-09-21 13:22:59 GMT 40.69386 -3.20355 36,975 215 412 0
2017-09-21 13:22:53 GMT 40.70393 -3.19452 36,975 215 413 -64
2017-09-21 13:22:49 GMT 40.71185 -3.18738 37,000 215 413 -64
2017-09-21 13:22:43 GMT 40.72105 -3.17908 37,000 215 413 0
2017-09-21 13:22:40 GMT 40.72273 -3.17761 37,000 215 413 0
2017-09-21 13:22:38 GMT 40.72711 -3.17368 37,000 215 413 0
2017-09-21 13:22:32 GMT 40.73782 -3.16406 37,000 215 412 0
2017-09-21 13:22:27 GMT 40.74354 -3.15888 37,000 215 412 0
2017-09-21 13:22:20 GMT 40.75433 -3.14917 37,000 215 412 0
2017-09-21 13:22:16 GMT 40.76254 -3.14165 37,000 215 412 0
2017-09-21 13:22:09 GMT 40.77171 -3.13335 37,000 215 412 64
2017-09-21 13:22:06 GMT 40.77708 -3.12854 37,000 215 413 0
2017-09-21 13:22:00 GMT 40.78814 -3.11849 36,975 215 413 0
2017-09-21 13:21:56 GMT 40.79288 -3.11420 37,000 215 414 0
2017-09-21 13:21:49 GMT 40.80428 -3.10388 37,000 215 413 0
2017-09-21 13:21:46 GMT 40.80900 -3.09958 37,000 215 413 0
2017-09-21 13:21:38 GMT 40.82108 -3.08862 37,000 215 414 0
2017-09-21 13:21:35 GMT 40.82580 -3.08435 37,000 215 414 0
2017-09-21 13:21:28 GMT 40.83691 -3.07428 37,000 215 413 0
2017-09-21 13:21:25 GMT 40.84358 -3.06818 37,000 215 413 -64
2017-09-21 13:21:18 GMT 40.85364 -3.05901 37,000 215 413 0
2017-09-21 13:21:16 GMT 40.85606 -3.05682 37,000 215 413 0
2017-09-21 13:21:14 GMT 40.85936 -3.05376 37,000 215 413 0
2017-09-21 13:21:06 GMT 40.87015 -3.04394 37,000 215 414 0
2017-09-21 13:21:04 GMT 40.87705 -3.03760 37,000 215 414 0
2017-09-21 13:20:53 GMT 40.89260 -3.02342 37,025 215 414 0
2017-09-21 13:20:43 GMT 40.90805 -3.00934 37,025 215 414 0
2017-09-21 13:20:35 GMT 40.92221 -2.99646 37,000 215 414 64
2017-09-21 13:20:33 GMT 40.92462 -2.99426 37,000 215 414 64
2017-09-21 13:20:24 GMT 40.93944 -2.98091 37,000 215 415 0
2017-09-21 13:20:21 GMT 40.94558 -2.97536 37,000 215 415 -64
2017-09-21 13:20:12 GMT 40.95703 -2.96500 37,000 215 415 0
2017-09-21 13:20:10 GMT 40.96376 -2.95892 37,000 215 414 0
2017-09-21 13:20:02 GMT 40.98134 -2.94293 37,000 215 415 0
2017-09-21 13:19:56 GMT 40.98371 -2.94084 37,000 215 415 0
2017-09-21 13:19:54 GMT 40.98571 -2.93897 37,000 215 415 0
2017-09-21 13:19:51 GMT 40.99045 -2.93469 37,000 215 415 0
2017-09-21 13:19:48 GMT 40.99516 -2.93042 37,000 215 415 -64
2017-09-21 13:19:45 GMT 40.99888 -2.92698 37,000 215 415 0
2017-09-21 13:19:41 GMT 41.00698 -2.91962 37,000 215 416 0
2017-09-21 13:19:35 GMT 41.01541 -2.91194 37,000 215 416 0
2017-09-21 13:19:30 GMT 41.02318 -2.90485 37,000 215 416 0
2017-09-21 13:19:27 GMT 41.02928 -2.89927 37,025 215 416 0
2017-09-21 13:19:25 GMT 41.03058 -2.89808 37,000 215 416 0
2017-09-21 13:19:20 GMT 41.04039 -2.88910 37,025 215 416 0
2017-09-21 13:19:15 GMT 41.04716 -2.88293 37,025 215 416 0
2017-09-21 13:19:13 GMT 41.04918 -2.88104 37,025 215 416 0
2017-09-21 13:19:08 GMT 41.05758 -2.87336 37,000 215 416 64
2017-09-21 13:19:04 GMT 41.06433 -2.86719 37,000 215 416 0
2017-09-21 13:18:59 GMT 41.07411 -2.85826 37,000 215 416 -64
2017-09-21 13:18:54 GMT 41.08763 -2.84583 37,025 215 416 0
2017-09-21 13:18:46 GMT 41.09271 -2.84119 37,025 215 416 64
2017-09-21 13:18:41 GMT 41.10213 -2.83260 37,025 215 416 64
2017-09-21 13:18:38 GMT 41.10754 -2.82764 37,000 215 416 64
2017-09-21 13:18:33 GMT 41.11588 -2.82001 37,000 215 416 64
2017-09-21 13:18:27 GMT 41.12280 -2.81375 37,000 215 416 0
2017-09-21 13:18:21 GMT 41.13295 -2.80445 37,000 215 416 0
2017-09-21 13:18:11 GMT 41.14984 -2.78906 37,000 215 416 0
2017-09-21 13:18:00 GMT 41.16740 -2.77305 37,000 215 416 0
2017-09-21 13:17:57 GMT 41.16943 -2.77118 37,000 215 416 0
2017-09-21 13:17:49 GMT 41.18468 -2.75732 37,000 215 416 0
2017-09-21 13:17:38 GMT 41.20231 -2.74128 37,000 215 416 0
2017-09-21 13:17:33 GMT 41.20903 -2.73517 37,000 215 416 0
2017-09-21 13:17:28 GMT 41.21926 -2.72586 37,000 215 416 0
2017-09-21 13:17:21 GMT 41.22729 -2.71851 37,000 215 416 0
2017-09-21 13:17:16 GMT 41.23783 -2.70888 36,975 215 416 0
2017-09-21 13:17:12 GMT 41.24244 -2.70463 36,975 215 416 0
2017-09-21 13:17:06 GMT 41.25627 -2.69190 37,000 216 416 -64
2017-09-21 13:17:02 GMT 41.25764 -2.69061 37,000 216 416 -64
2017-09-21 13:16:58 GMT 41.26405 -2.68463 37,000 216 416 -64
2017-09-21 13:16:55 GMT 41.27142 -2.67773 37,000 216 415 0
2017-09-21 13:16:52 GMT 41.27477 -2.67462 37,000 216 415 0
2017-09-21 13:16:47 GMT 41.28232 -2.66748 37,000 216 415 0
2017-09-21 13:16:43 GMT 41.28951 -2.66075 37,000 216 416 0
2017-09-21 13:16:41 GMT 41.29083 -2.65955 37,000 216 416 0
2017-09-21 13:16:32 GMT 41.30750 -2.64453 37,000 213 416 -64
2017-09-21 13:16:28 GMT 41.31097 -2.64159 37,000 213 416 -64
2017-09-21 13:16:24 GMT 41.31889 -2.63507 37,000 212 416 64
2017-09-21 13:16:22 GMT 41.32568 -2.62973 37,000 210 417 64
2017-09-21 13:16:19 GMT 41.32568 -2.62973 37,000 211 417 64
2017-09-21 13:16:15 GMT 41.33382 -2.62361 37,000 210 417 64
2017-09-21 13:16:10 GMT 41.34265 -2.61731 37,000 208 417 0
2017-09-21 13:16:05 GMT 41.35034 -2.61206 37,000 206 418 0
2017-09-21 13:15:59 GMT 41.36031 -2.60557 37,000 206 417 64
2017-09-21 13:15:49 GMT 41.37959 -2.59320 37,000 206 418 -64
2017-09-21 13:15:37 GMT 41.39777 -2.58154 37,000 206 417 0
2017-09-21 13:15:28 GMT 41.41859 -2.56818 37,000 206 418 0
2017-09-21 13:15:26 GMT 41.41933 -2.56774 37,000 206 418 0
2017-09-21 13:15:16 GMT 41.43864 -2.55538 37,000 206 418 -64
2017-09-21 13:15:07 GMT 41.45201 -2.54683 37,000 206 417 0
2017-09-21 13:15:04 GMT 41.45833 -2.54271 37,000 206 417 0
2017-09-21 13:14:55 GMT 41.47504 -2.53197 37,000 206 417 64
2017-09-21 13:14:44 GMT 41.49247 -2.52072 37,000 206 418 0
2017-09-21 13:14:33 GMT 41.51244 -2.50788 37,000 206 418 -64
2017-09-21 13:14:24 GMT 41.52580 -2.49926 37,025 206 417 0
2017-09-21 13:14:21 GMT 41.53139 -2.49571 37,025 206 417 0
2017-09-21 13:14:13 GMT 41.54401 -2.48757 37,025 206 418 64
2017-09-21 13:14:11 GMT 41.54959 -2.48393 37,000 207 418 64
2017-09-21 13:14:04 GMT 41.56183 -2.47598 37,000 206 418 64
2017-09-21 13:14:01 GMT 41.56849 -2.47167 37,000 206 419 0
2017-09-21 13:13:52 GMT 41.58073 -2.46375 37,000 206 419 -64
2017-09-21 13:13:50 GMT 41.58746 -2.45944 37,000 206 418 0
2017-09-21 13:13:41 GMT 41.59894 -2.45200 37,000 206 418 0
2017-09-21 13:13:38 GMT 41.60783 -2.44621 37,025 207 418 0
2017-09-21 13:13:32 GMT 41.61823 -2.43946 37,000 207 418 0
2017-09-21 13:13:28 GMT 41.62752 -2.43341 37,000 207 419 0
2017-09-21 13:13:20 GMT 41.63963 -2.42549 37,000 207 418 0
2017-09-21 13:13:17 GMT 41.64568 -2.42153 37,000 207 418 0
2017-09-21 13:13:10 GMT 41.65387 -2.41616 37,000 207 418 0
2017-09-21 13:13:02 GMT 41.67050 -2.40532 37,000 207 419 0
2017-09-21 13:13:00 GMT 41.67272 -2.40383 37,000 207 419 0
2017-09-21 13:12:58 GMT 41.67462 -2.40264 37,000 207 419 64
2017-09-21 13:12:54 GMT 41.68315 -2.39706 37,000 207 419 0
2017-09-21 13:12:49 GMT 41.69097 -2.39195 37,000 207 419 0
2017-09-21 13:12:46 GMT 41.69502 -2.38934 37,000 207 419 64
2017-09-21 13:12:43 GMT 41.70280 -2.38422 37,000 207 419 64
2017-09-21 13:12:39 GMT 41.70992 -2.37960 37,000 207 419 64
2017-09-21 13:12:35 GMT 41.71471 -2.37650 37,000 207 419 64
2017-09-21 13:12:32 GMT 41.72250 -2.37136 37,000 207 419 0
2017-09-21 13:12:27 GMT 41.72775 -2.36800 37,000 207 419 0
2017-09-21 13:12:22 GMT 41.74146 -2.35900 37,000 207 419 0
2017-09-21 13:12:17 GMT 41.74626 -2.35588 37,000 207 419 0
2017-09-21 13:12:10 GMT 41.75973 -2.34711 37,000 207 419 0
2017-09-21 13:12:06 GMT 41.76521 -2.34352 37,000 207 419 0
2017-09-21 13:11:56 GMT 41.78268 -2.33210 37,000 207 419 0
2017-09-21 13:11:47 GMT 41.80088 -2.32022 37,000 207 419 0
2017-09-21 13:11:45 GMT 41.80202 -2.31949 37,000 207 419 0
2017-09-21 13:11:37 GMT 41.81867 -2.30866 37,000 207 419 0
2017-09-21 13:11:35 GMT 41.81950 -2.30806 37,000 207 419 0
2017-09-21 13:11:26 GMT 41.83768 -2.29627 37,000 207 419 0
2017-09-21 13:11:24 GMT 41.83845 -2.29576 37,000 207 419 0
2017-09-21 13:11:14 GMT 41.85626 -2.28416 37,000 206 419 0
2017-09-21 13:11:03 GMT 41.87448 -2.27236 37,000 206 419 0
2017-09-21 13:10:53 GMT 41.89270 -2.26044 37,000 207 418 0
2017-09-21 13:10:43 GMT 41.91119 -2.24826 37,000 207 419 0
2017-09-21 13:10:32 GMT 41.93088 -2.23534 37,000 207 419 0
2017-09-21 13:10:23 GMT 41.94530 -2.22586 37,000 207 418 0
2017-09-21 13:10:20 GMT 41.94942 -2.22317 37,000 207 418 64
2017-09-21 13:10:12 GMT 41.96347 -2.21393 37,000 207 418 0
2017-09-21 13:10:10 GMT 41.96791 -2.21106 37,000 207 418 0
2017-09-21 13:10:02 GMT 41.98164 -2.20201 37,000 207 418 0
2017-09-21 13:10:00 GMT 41.98681 -2.19867 37,000 206 418 0
2017-09-21 13:09:51 GMT 42.00188 -2.18878 37,000 207 418 64
2017-09-21 13:09:49 GMT 42.00645 -2.18578 37,000 207 418 64
2017-09-21 13:09:41 GMT 42.01796 -2.17823 36,975 207 418 64
2017-09-21 13:09:38 GMT 42.02614 -2.17286 36,975 207 419 0
2017-09-21 13:09:30 GMT 42.03575 -2.16662 37,000 207 419 -64
2017-09-21 13:09:27 GMT 42.04134 -2.16293 37,000 207 419 -64
2017-09-21 13:09:20 GMT 42.05402 -2.15463 37,000 207 418 0
2017-09-21 13:09:17 GMT 42.05915 -2.15128 37,000 207 418 64
2017-09-21 13:09:15 GMT 42.06514 -2.14733 37,000 207 418 64
2017-09-21 13:09:10 GMT 42.07214 -2.14272 36,975 207 419 64
2017-09-21 13:09:07 GMT 42.07703 -2.13952 36,975 207 419 0
2017-09-21 13:09:05 GMT 42.08471 -2.13441 36,975 207 418 -128
2017-09-21 13:08:59 GMT 42.08991 -2.13097 36,975 207 418 -64
2017-09-21 13:08:54 GMT 42.10287 -2.12234 37,000 207 417 -64
2017-09-21 13:08:49 GMT 42.10766 -2.11915 37,000 207 417 -64
2017-09-21 13:08:45 GMT 42.11508 -2.11424 37,000 207 417 0
2017-09-21 13:08:43 GMT 42.12135 -2.11008 37,000 207 417 64
2017-09-21 13:08:39 GMT 42.12573 -2.10714 37,025 207 417 64
2017-09-21 13:08:35 GMT 42.13387 -2.10171 37,000 207 417 64
2017-09-21 13:08:31 GMT 42.14195 -2.09633 37,000 207 417 64
2017-09-21 13:08:28 GMT 42.14346 -2.09532 37,000 207 417 64
2017-09-21 13:08:24 GMT 42.15189 -2.08970 37,000 207 418 0
2017-09-21 13:08:20 GMT 42.16191 -2.08310 37,000 207 418 0
2017-09-21 13:08:17 GMT 42.16338 -2.08216 37,000 207 418 0
2017-09-21 13:08:14 GMT 42.17043 -2.07748 37,000 207 418 -64
2017-09-21 13:08:08 GMT 42.17968 -2.07131 37,000 207 418 -64
2017-09-21 13:08:02 GMT 42.18965 -2.06468 37,000 207 418 0
2017-09-21 13:07:57 GMT 42.19779 -2.05930 37,000 207 418 64
2017-09-21 13:07:53 GMT 42.20840 -2.05227 37,000 207 418 64
2017-09-21 13:07:46 GMT 42.21632 -2.04703 37,000 207 418 64
2017-09-21 13:07:42 GMT 42.22440 -2.04165 37,000 207 418 0
2017-09-21 13:07:35 GMT 42.23552 -2.03428 37,000 207 418 0
2017-09-21 13:07:31 GMT 42.24518 -2.02785 37,000 207 419 0
2017-09-21 13:07:24 GMT 42.25438 -2.02173 37,000 207 419 0
2017-09-21 13:07:20 GMT 42.26324 -2.01586 36,975 207 419 0
2017-09-21 13:07:15 GMT 42.27438 -2.00844 36,975 207 419 0
2017-09-21 13:07:11 GMT 42.28037 -2.00449 36,975 207 419 0
2017-09-21 13:07:04 GMT 42.29329 -1.99589 36,975 207 419 0
2017-09-21 13:07:04 GMT 42.29036 -1.99783 36,975 207 419 0
2017-09-21 13:07:00 GMT 42.29774 -1.99300 37,000 207 419 0
2017-09-21 13:06:54 GMT 42.31152 -1.98386 37,000 207 419 0
2017-09-21 13:06:50 GMT 42.31561 -1.98118 37,000 207 419 0
2017-09-21 13:06:42 GMT 42.33151 -1.97061 37,000 207 419 0
2017-09-21 13:06:39 GMT 42.33377 -1.96917 37,000 207 419 64
2017-09-21 13:06:32 GMT 42.34598 -1.96106 36,975 207 419 0
2017-09-21 13:06:30 GMT 42.35445 -1.95544 36,975 207 419 0
2017-09-21 13:06:27 GMT 42.35445 -1.95544 36,975 207 419 0
2017-09-21 13:06:18 GMT 42.37189 -1.94388 37,000 207 419 -64
2017-09-21 13:06:12 GMT 42.38116 -1.93775 37,000 207 419 -64
2017-09-21 13:06:07 GMT 42.38969 -1.93210 37,000 207 419 -64
2017-09-21 13:06:02 GMT 42.39782 -1.92670 37,000 207 419 0
2017-09-21 13:05:56 GMT 42.40895 -1.91935 37,000 207 419 0
2017-09-21 13:05:51 GMT 42.41775 -1.91349 37,000 207 419 0
2017-09-21 13:05:45 GMT 42.42783 -1.90675 37,000 207 419 0
2017-09-21 13:05:40 GMT 42.43492 -1.90207 37,000 207 419 0
2017-09-21 13:05:35 GMT 42.44563 -1.89495 37,025 207 419 0
2017-09-21 13:05:30 GMT 42.45305 -1.88996 37,025 207 419 0
2017-09-21 13:05:24 GMT 42.46417 -1.88253 37,000 207 419 0
2017-09-21 13:05:20 GMT 42.47086 -1.87809 37,025 207 419 0
2017-09-21 13:05:13 GMT 42.48632 -1.86780 37,025 207 420 0
2017-09-21 13:05:10 GMT 42.48869 -1.86621 37,025 207 420 0
2017-09-21 13:05:03 GMT 42.50126 -1.85777 37,025 207 419 0
2017-09-21 13:04:57 GMT 42.51018 -1.85182 37,025 207 419 0
2017-09-21 13:04:52 GMT 42.52021 -1.84513 37,025 207 419 0
2017-09-21 13:04:49 GMT 42.52510 -1.84181 37,025 207 420 0
2017-09-21 13:04:42 GMT 42.53842 -1.83284 37,025 207 420 0
2017-09-21 13:04:38 GMT 42.54325 -1.82967 37,025 207 420 0
2017-09-21 13:04:31 GMT 42.55629 -1.82092 37,025 207 420 0
2017-09-21 13:04:24 GMT 42.56988 -1.81179 37,025 207 420 0
2017-09-21 13:04:21 GMT 42.57481 -1.80850 37,025 207 420 0
2017-09-21 13:04:17 GMT 42.57967 -1.80519 37,025 207 420 64
2017-09-21 13:04:14 GMT 42.58636 -1.80074 37,025 207 420 0
2017-09-21 13:04:10 GMT 42.59376 -1.79577 37,000 207 421 0
2017-09-21 13:04:06 GMT 42.59944 -1.79205 37,000 207 421 0
2017-09-21 13:04:02 GMT 42.60832 -1.78615 37,025 207 420 0
2017-09-21 13:03:59 GMT 42.61244 -1.78341 37,025 206 421 0
2017-09-21 13:03:56 GMT 42.61656 -1.78066 37,025 206 421 0
2017-09-21 13:03:48 GMT 42.63040 -1.77167 37,025 206 421 0
2017-09-21 13:03:45 GMT 42.63678 -1.76746 37,025 206 421 0
2017-09-21 13:03:38 GMT 42.64916 -1.75944 37,000 206 421 64
2017-09-21 13:03:36 GMT 42.65433 -1.75609 37,025 206 421 64
2017-09-21 13:03:31 GMT 42.66112 -1.75162 37,000 206 421 64
2017-09-21 13:03:29 GMT 42.66595 -1.74851 37,000 206 420 0
2017-09-21 13:03:27 GMT 42.66922 -1.74638 37,000 206 420 64
2017-09-21 13:03:24 GMT 42.67234 -1.74433 37,000 206 421 64
2017-09-21 13:03:20 GMT 42.68189 -1.73801 37,000 206 421 64
2017-09-21 13:03:17 GMT 42.68570 -1.73546 37,000 207 421 0
2017-09-21 13:03:15 GMT 42.69431 -1.72971 37,000 207 421 0
2017-09-21 13:03:15 GMT 42.68907 -1.73322 37,000 207 420 0
2017-09-21 13:03:11 GMT 42.69800 -1.72723 37,000 208 420 -64
2017-09-21 13:03:04 GMT 42.70839 -1.72005 37,000 208 420 -64
2017-09-21 13:02:59 GMT 42.71677 -1.71405 37,000 209 420 -64
2017-09-21 13:02:52 GMT 42.73311 -1.70195 37,000 209 419 64
2017-09-21 13:02:44 GMT 42.74254 -1.69489 37,000 209 419 64
2017-09-21 13:02:38 GMT 42.75232 -1.68755 37,000 209 419 64
2017-09-21 13:02:34 GMT 42.75991 -1.68187 37,000 209 419 0
2017-09-21 13:02:32 GMT 42.76135 -1.68078 37,000 209 419 0
2017-09-21 13:02:29 GMT 42.76753 -1.67616 37,000 209 418 64
2017-09-21 13:02:23 GMT 42.77806 -1.66833 37,000 209 418 0
2017-09-21 13:02:13 GMT 42.79501 -1.65561 37,000 209 418 64
2017-09-21 13:02:02 GMT 42.81386 -1.64156 36,975 209 418 64
2017-09-21 13:01:52 GMT 42.83048 -1.62912 36,975 209 418 -64
2017-09-21 13:01:42 GMT 42.84755 -1.61640 37,000 209 418 -64
2017-09-21 13:01:37 GMT 42.85548 -1.61048 37,000 209 418 0
2017-09-21 13:01:31 GMT 42.86633 -1.60237 37,000 209 418 0
2017-09-21 13:01:20 GMT 42.88401 -1.58916 37,000 209 418 0
2017-09-21 13:01:17 GMT 42.89202 -1.58321 37,000 209 418 0
2017-09-21 13:01:11 GMT 42.90101 -1.57647 37,000 209 418 64
2017-09-21 13:01:10 GMT 42.90175 -1.57590 37,000 209 418 64
2017-09-21 13:01:05 GMT 42.90966 -1.56993 37,000 209 418 64
2017-09-21 13:00:59 GMT 42.91946 -1.56268 37,000 209 418 0
2017-09-21 13:00:50 GMT 42.93462 -1.55130 37,000 209 418 -64
2017-09-21 13:00:47 GMT 42.94076 -1.54665 37,000 209 418 -64
2017-09-21 13:00:44 GMT 42.94510 -1.54339 37,000 209 418 -64
2017-09-21 13:00:39 GMT 42.95595 -1.53521 37,000 210 417 0
2017-09-21 13:00:34 GMT 42.96204 -1.53061 37,000 210 417 0
2017-09-21 13:00:28 GMT 42.97430 -1.52135 37,000 210 417 0
2017-09-21 13:00:20 GMT 42.98579 -1.51260 37,000 210 418 0
2017-09-21 13:00:16 GMT 42.99335 -1.50692 37,000 210 418 -64
2017-09-21 13:00:05 GMT 43.01175 -1.49303 37,025 210 418 -64
2017-09-21 13:00:02 GMT 43.01576 -1.49002 37,025 210 418 0
2017-09-21 12:59:56 GMT 43.02841 -1.48047 37,025 210 418 0
2017-09-21 12:59:53 GMT 43.03442 -1.47589 37,025 210 418 64
2017-09-21 12:59:44 GMT 43.04639 -1.46687 37,000 210 418 0
2017-09-21 12:59:39 GMT 43.05473 -1.46061 37,000 210 418 0
2017-09-21 12:59:34 GMT 43.06416 -1.45352 37,025 210 418 0
2017-09-21 12:59:29 GMT 43.07240 -1.44726 37,025 210 418 0
2017-09-21 12:59:24 GMT 43.08325 -1.43908 37,025 210 418 0
2017-09-21 12:59:22 GMT 43.08507 -1.43770 37,025 210 418 0
2017-09-21 12:59:20 GMT 43.08833 -1.43522 37,025 210 418 0
2017-09-21 12:59:12 GMT 43.10101 -1.42560 37,025 210 418 0
2017-09-21 12:59:10 GMT 43.10490 -1.42267 37,025 210 418 0
2017-09-21 12:59:02 GMT 43.11900 -1.41200 37,025 210 418 64
2017-09-21 12:58:56 GMT 43.12767 -1.40540 37,000 210 418 64
2017-09-21 12:58:51 GMT 43.13568 -1.39938 37,000 210 418 0
2017-09-21 12:58:48 GMT 43.14432 -1.39277 37,000 210 418 0
2017-09-21 12:58:41 GMT 43.15476 -1.38487 37,000 210 418 0
2017-09-21 12:58:30 GMT 43.17210 -1.37176 37,025 210 418 64
2017-09-21 12:58:20 GMT 43.18941 -1.35866 37,000 209 418 64
2017-09-21 12:58:13 GMT 43.20319 -1.34825 37,000 209 418 0
2017-09-21 12:58:10 GMT 43.20786 -1.34474 37,000 209 418 -64
2017-09-21 12:58:04 GMT 43.21691 -1.33791 37,000 209 418 0
2017-09-21 12:57:59 GMT 43.22562 -1.33133 37,000 209 418 0
2017-09-21 12:57:55 GMT 43.23134 -1.32699 37,000 209 418 0
2017-09-21 12:57:52 GMT 43.23642 -1.32315 37,000 209 418 0
2017-09-21 12:57:47 GMT 43.24470 -1.31692 37,000 209 418 0
2017-09-21 12:57:44 GMT 43.25085 -1.31228 37,000 209 418 0
2017-09-21 12:57:38 GMT 43.26137 -1.30437 37,000 209 418 0
2017-09-21 12:57:26 GMT 43.28041 -1.28994 37,000 210 417 64
2017-09-21 12:57:16 GMT 43.29814 -1.27651 37,000 209 418 64
2017-09-21 12:57:11 GMT 43.30747 -1.26943 37,000 209 417 64
2017-09-21 12:57:07 GMT 43.31253 -1.26559 37,000 210 417 0
2017-09-21 12:57:04 GMT 43.31718 -1.26205 37,000 210 417 0
2017-09-21 12:56:55 GMT 43.33455 -1.24884 37,000 210 417 0
2017-09-21 12:56:49 GMT 43.34493 -1.24093 36,975 209 417 0
2017-09-21 12:56:42 GMT 43.35428 -1.23380 37,000 209 417 0
2017-09-21 12:56:40 GMT 43.35922 -1.23008 37,000 209 417 0
2017-09-21 12:56:32 GMT 43.37114 -1.22105 37,000 210 417 0
2017-09-21 12:56:30 GMT 43.37514 -1.21798 36,975 210 416 0
2017-09-21 12:56:22 GMT 43.38950 -1.20703 36,975 210 416 0
2017-09-21 12:56:19 GMT 43.39386 -1.20372 36,975 210 416 0
2017-09-21 12:56:16 GMT 43.39809 -1.20045 36,975 210 416 0
2017-09-21 12:56:11 GMT 43.40639 -1.19419 36,975 210 416 0
2017-09-21 12:56:07 GMT 43.41285 -1.18920 36,975 210 416 0
2017-09-21 12:56:02 GMT 43.42435 -1.18044 36,975 210 416 0
2017-09-21 12:56:00 GMT 43.42579 -1.17940 36,975 210 416 0
2017-09-21 12:55:56 GMT 43.43366 -1.17338 36,975 210 416 0
2017-09-21 12:55:51 GMT 43.44194 -1.16704 37,000 210 416 -64
2017-09-21 12:55:45 GMT 43.45056 -1.16050 37,000 210 416 0
2017-09-21 12:55:39 GMT 43.46056 -1.15284 37,000 210 416 0
2017-09-21 12:55:36 GMT 43.46704 -1.14788 37,000 210 416 0
2017-09-21 12:55:30 GMT 43.47780 -1.13964 37,000 210 416 0
2017-09-21 12:55:23 GMT 43.48747 -1.13225 37,000 210 416 -64
2017-09-21 12:55:19 GMT 43.49576 -1.12590 37,000 210 416 -64
2017-09-21 12:55:13 GMT 43.50403 -1.11952 37,000 210 416 0
2017-09-21 12:55:07 GMT 43.51547 -1.11077 37,000 210 416 0
2017-09-21 12:54:58 GMT 43.53163 -1.09844 37,000 210 416 0
2017-09-21 12:54:49 GMT 43.54841 -1.08555 37,000 210 416 0
2017-09-21 12:54:45 GMT 43.55177 -1.08298 37,000 210 416 0
2017-09-21 12:54:38 GMT 43.56258 -1.07474 37,000 209 417 0
2017-09-21 12:54:36 GMT 43.56689 -1.07143 37,000 209 417 0
2017-09-21 12:54:28 GMT 43.58202 -1.05992 37,000 210 417 0
2017-09-21 12:54:25 GMT 43.58947 -1.05416 37,000 210 417 -64
2017-09-21 12:54:22 GMT 43.59063 -1.05331 37,000 210 418 0
2017-09-21 12:54:15 GMT 43.60323 -1.04364 37,000 210 418 0
2017-09-21 12:54:11 GMT 43.60939 -1.03886 37,000 210 417 0
2017-09-21 12:54:06 GMT 43.61758 -1.03252 37,000 210 417 -64
2017-09-21 12:54:04 GMT 43.62332 -1.02812 37,025 210 417 -64
2017-09-21 12:54:02 GMT 43.62513 -1.02670 37,025 210 417 -64
2017-09-21 12:53:53 GMT 43.63948 -1.01560 37,025 210 417 0
2017-09-21 12:53:51 GMT 43.64369 -1.01228 37,025 210 418 0
2017-09-21 12:53:43 GMT 43.65785 -1.00132 37,025 210 418 0
2017-09-21 12:53:40 GMT 43.66204 -0.99799 37,025 210 418 0
2017-09-21 12:53:37 GMT 43.66530 -0.99544 37,025 210 418 0
2017-09-21 12:53:32 GMT 43.67461 -0.98818 37,025 210 418 0
2017-09-21 12:53:30 GMT 43.67894 -0.98478 37,025 210 418 0
2017-09-21 12:53:24 GMT 43.68722 -0.97836 37,025 210 418 64
2017-09-21 12:53:22 GMT 43.69221 -0.97451 37,025 210 418 64
2017-09-21 12:53:20 GMT 43.69473 -0.97248 37,025 210 418 64
2017-09-21 12:53:14 GMT 43.70510 -0.96444 37,025 210 418 0
2017-09-21 12:53:09 GMT 43.71236 -0.95882 37,025 210 419 0
2017-09-21 12:53:04 GMT 43.72210 -0.95130 37,025 210 419 -64
2017-09-21 12:53:00 GMT 43.72888 -0.94604 37,025 210 419 -64
2017-09-21 12:52:53 GMT 43.73973 -0.93767 37,025 210 418 0
2017-09-21 12:52:49 GMT 43.74770 -0.93155 37,025 210 419 0
2017-09-21 12:52:42 GMT 43.76101 -0.92122 37,025 210 418 64
2017-09-21 12:52:40 GMT 43.76280 -0.91979 37,025 210 418 64
2017-09-21 12:52:38 GMT 43.76564 -0.91761 37,025 210 419 64
2017-09-21 12:52:33 GMT 43.77507 -0.91040 37,025 210 419 64
2017-09-21 12:52:28 GMT 43.78299 -0.90426 37,025 210 419 0
2017-09-21 12:52:22 GMT 43.79311 -0.89647 37,025 210 419 -64
2017-09-21 12:52:18 GMT 43.80212 -0.88951 37,025 210 419 -64
2017-09-21 12:52:12 GMT 43.81004 -0.88338 37,025 210 419 0
2017-09-21 12:52:06 GMT 43.81943 -0.87616 37,025 210 419 64
2017-09-21 12:52:02 GMT 43.82809 -0.86942 37,025 210 419 64
2017-09-21 12:51:56 GMT 43.83637 -0.86306 37,025 210 419 64
2017-09-21 12:51:51 GMT 43.84538 -0.85610 37,025 210 418 0
2017-09-21 12:51:46 GMT 43.85435 -0.84915 37,025 210 418 -64
2017-09-21 12:51:40 GMT 43.86306 -0.84235 37,025 210 418 0
2017-09-21 12:51:38 GMT 43.86836 -0.83815 37,025 210 418 0
2017-09-21 12:51:34 GMT 43.87308 -0.83451 37,025 210 418 0
2017-09-21 12:51:30 GMT 43.88061 -0.82855 37,025 210 417 64
2017-09-21 12:51:25 GMT 43.88954 -0.82156 37,025 210 417 64
2017-09-21 12:51:23 GMT 43.89201 -0.81959 37,025 210 417 64
2017-09-21 12:51:20 GMT 43.89811 -0.81475 37,025 210 417 64
2017-09-21 12:51:18 GMT 43.90137 -0.81220 37,025 210 417 64
2017-09-21 12:51:13 GMT 43.90961 -0.80573 37,000 210 417 64
2017-09-21 12:51:10 GMT 43.91566 -0.80096 37,000 210 417 64
2017-09-21 12:51:08 GMT 43.91817 -0.79893 37,000 210 417 0
2017-09-21 12:51:03 GMT 43.92571 -0.79304 37,000 210 418 0
2017-09-21 12:50:59 GMT 43.93293 -0.78742 37,000 210 417 0
2017-09-21 12:50:57 GMT 43.93607 -0.78495 37,000 210 417 0
2017-09-21 12:50:53 GMT 43.94326 -0.77931 37,000 210 417 0
2017-09-21 12:50:48 GMT 43.95327 -0.77153 37,000 210 416 0
2017-09-21 12:50:46 GMT 43.95509 -0.77009 37,000 210 416 0
2017-09-21 12:50:42 GMT 43.96189 -0.76479 37,000 210 416 64
2017-09-21 12:50:41 GMT 43.96367 -0.76336 37,000 210 416 64
2017-09-21 12:50:37 GMT 43.96980 -0.75857 37,000 210 416 128
2017-09-21 12:50:33 GMT 43.97580 -0.75384 37,000 210 416 64
2017-09-21 12:50:27 GMT 43.98697 -0.74515 36,975 210 416 0
2017-09-21 12:50:18 GMT 44.00198 -0.73340 36,975 210 416 64
2017-09-21 12:50:16 GMT 44.00519 -0.73091 36,975 210 416 64
2017-09-21 12:50:11 GMT 44.01512 -0.72305 36,975 210 414 0
2017-09-21 12:50:08 GMT 44.01761 -0.72117 36,975 210 416 64
2017-09-21 12:50:05 GMT 44.02296 -0.71692 36,975 210 416 64
2017-09-21 12:49:59 GMT 44.03367 -0.70855 36,975 210 415 64
2017-09-21 12:49:56 GMT 44.03938 -0.70408 36,975 210 415 0
2017-09-21 12:49:48 GMT 44.05183 -0.69437 36,975 210 415 0
2017-09-21 12:49:45 GMT 44.05685 -0.69044 36,975 210 415 0
2017-09-21 12:49:39 GMT 44.06721 -0.68243 36,975 210 414 0
2017-09-21 12:49:37 GMT 44.07074 -0.67962 36,975 210 414 0
2017-09-21 12:49:35 GMT 44.07536 -0.67604 36,975 210 414 0
2017-09-21 12:49:32 GMT 44.08036 -0.67213 36,975 210 414 0
2017-09-21 12:49:28 GMT 44.08571 -0.66801 36,975 210 414 0
2017-09-21 12:49:25 GMT 44.08967 -0.66493 36,975 210 414 0
2017-09-21 12:49:23 GMT 44.09246 -0.66271 36,975 210 414 0
2017-09-21 12:49:18 GMT 44.10278 -0.65471 36,975 210 414 0
2017-09-21 12:49:15 GMT 44.10672 -0.65164 36,975 210 413 0
2017-09-21 12:49:12 GMT 44.11267 -0.64702 36,975 210 413 0
2017-09-21 12:49:07 GMT 44.12054 -0.64078 36,975 210 413 0
2017-09-21 12:49:05 GMT 44.12407 -0.63804 36,975 210 413 0
2017-09-21 12:49:03 GMT 44.12801 -0.63497 36,975 210 413 0
2017-09-21 12:48:57 GMT 44.13959 -0.62590 36,975 210 413 64
2017-09-21 12:48:52 GMT 44.14536 -0.62137 36,950 210 413 0
2017-09-21 12:48:49 GMT 44.14998 -0.61772 36,950 210 413 0
2017-09-21 12:48:46 GMT 44.15529 -0.61357 36,950 210 413 0
2017-09-21 12:48:44 GMT 44.15849 -0.61108 36,950 210 413 0
2017-09-21 12:48:42 GMT 44.16380 -0.60693 36,950 210 413 0
2017-09-21 12:48:38 GMT 44.16847 -0.60329 36,950 210 412 0
2017-09-21 12:48:36 GMT 44.17347 -0.59941 36,950 210 412 -64
2017-09-21 12:48:30 GMT 44.18124 -0.59333 36,975 210 412 0
2017-09-21 12:48:28 GMT 44.18445 -0.59084 36,975 210 412 0
2017-09-21 12:48:25 GMT 44.19008 -0.58640 36,950 210 413 64
2017-09-21 12:48:19 GMT 44.20144 -0.57752 36,950 210 412 0
2017-09-21 12:48:14 GMT 44.20848 -0.57194 36,950 210 412 0
2017-09-21 12:48:10 GMT 44.21490 -0.56694 36,950 210 412 0
2017-09-21 12:48:08 GMT 44.21881 -0.56385 36,950 210 412 0
2017-09-21 12:48:03 GMT 44.22551 -0.55856 36,975 210 412 0
2017-09-21 12:47:58 GMT 44.23612 -0.55025 36,975 210 412 0
2017-09-21 12:47:53 GMT 44.24255 -0.54516 36,975 210 412 -64
2017-09-21 12:47:49 GMT 44.24995 -0.53934 36,975 210 412 -64
2017-09-21 12:47:46 GMT 44.25386 -0.53625 36,975 210 412 -64
2017-09-21 12:47:43 GMT 44.26025 -0.53120 36,975 210 413 -64
2017-09-21 12:47:39 GMT 44.26662 -0.52620 36,975 210 413 -64
2017-09-21 12:47:37 GMT 44.27285 -0.52125 36,975 210 412 -64
2017-09-21 12:47:31 GMT 44.27902 -0.51636 37,000 210 412 -64
2017-09-21 12:47:29 GMT 44.28393 -0.51247 37,000 210 413 -64
2017-09-21 12:47:25 GMT 44.28929 -0.50825 37,000 210 413 -64
2017-09-21 12:47:21 GMT 44.29605 -0.50289 37,000 210 413 -64
2017-09-21 12:47:18 GMT 44.30102 -0.49887 37,000 210 413 -64
2017-09-21 12:47:16 GMT 44.30626 -0.49471 37,000 210 414 0
2017-09-21 12:47:10 GMT 44.31373 -0.48883 37,000 210 414 0
2017-09-21 12:47:07 GMT 44.31871 -0.48484 37,000 210 414 0
2017-09-21 12:47:05 GMT 44.32329 -0.48118 37,000 210 414 -64
2017-09-21 12:47:01 GMT 44.33075 -0.47529 37,000 210 415 -64
2017-09-21 12:46:59 GMT 44.33500 -0.47188 37,000 210 415 -64
2017-09-21 12:46:57 GMT 44.33611 -0.47104 37,025 210 415 -64
2017-09-21 12:46:54 GMT 44.34036 -0.46766 37,025 210 415 -64
2017-09-21 12:46:49 GMT 44.34897 -0.46089 37,025 210 415 -64
2017-09-21 12:46:47 GMT 44.35359 -0.45724 37,025 210 416 -64
2017-09-21 12:46:45 GMT 44.35606 -0.45528 37,025 210 416 -64
2017-09-21 12:46:43 GMT 44.36000 -0.45214 37,025 210 417 -64
2017-09-21 12:46:39 GMT 44.36769 -0.44606 37,025 210 416 -64
2017-09-21 12:46:36 GMT 44.37135 -0.44318 37,025 210 416 0
2017-09-21 12:46:33 GMT 44.37639 -0.43918 37,025 210 416 -64
2017-09-21 12:46:28 GMT 44.38463 -0.43269 37,025 210 416 -64
2017-09-21 12:46:26 GMT 44.38957 -0.42879 37,025 210 416 -64
2017-09-21 12:46:24 GMT 44.39447 -0.42494 37,025 210 417 -64
2017-09-21 12:46:18 GMT 44.40213 -0.41889 37,050 210 417 -64
2017-09-21 12:46:16 GMT 44.40627 -0.41560 37,050 210 417 -64
2017-09-21 12:46:14 GMT 44.40748 -0.41460 37,050 210 417 0
2017-09-21 12:46:12 GMT 44.41326 -0.41004 37,050 210 417 0
2017-09-21 12:46:08 GMT 44.42028 -0.40442 37,050 210 417 0
2017-09-21 12:46:07 GMT 44.42130 -0.40362 37,050 210 417 0
2017-09-21 12:46:05 GMT 44.42536 -0.40033 37,050 210 417 0
2017-09-21 12:46:03 GMT 44.42784 -0.39838 37,050 210 417 0
2017-09-21 12:46:01 GMT 44.42932 -0.39718 37,050 210 417 0
2017-09-21 12:45:57 GMT 44.43640 -0.39152 37,050 210 417 0
2017-09-21 12:45:52 GMT 44.44705 -0.38298 37,050 210 418 0
2017-09-21 12:45:47 GMT 44.45389 -0.37746 37,050 210 418 0
2017-09-21 12:45:44 GMT 44.46002 -0.37255 37,050 210 418 64
2017-09-21 12:45:41 GMT 44.46323 -0.37000 37,050 210 418 64
2017-09-21 12:45:39 GMT 44.46611 -0.36765 37,050 210 418 64
2017-09-21 12:45:36 GMT 44.47182 -0.36308 37,050 210 419 64
2017-09-21 12:45:34 GMT 44.47429 -0.36114 37,050 210 419 64
2017-09-21 12:45:32 GMT 44.47969 -0.35685 37,050 210 419 0
2017-09-21 12:45:30 GMT 44.48222 -0.35477 37,050 210 419 0
2017-09-21 12:45:25 GMT 44.48936 -0.34908 37,050 210 419 0
2017-09-21 12:45:23 GMT 44.49550 -0.34417 37,025 210 419 0
2017-09-21 12:45:20 GMT 44.49798 -0.34218 37,050 210 419 0
2017-09-21 12:45:18 GMT 44.50124 -0.33964 37,050 210 419 0
2017-09-21 12:45:16 GMT 44.50664 -0.33528 37,050 210 420 0
2017-09-21 12:45:11 GMT 44.51530 -0.32838 37,050 210 420 0
2017-09-21 12:45:05 GMT 44.52461 -0.32096 37,050 210 420 0
2017-09-21 12:45:02 GMT 44.53143 -0.31553 37,025 210 420 64
2017-09-21 12:45:00 GMT 44.53249 -0.31468 37,025 210 420 0
2017-09-21 12:44:57 GMT 44.53755 -0.31063 37,025 210 420 64
2017-09-21 12:44:55 GMT 44.54219 -0.30690 37,025 210 420 64
2017-09-21 12:44:50 GMT 44.55049 -0.30025 37,025 210 420 64
2017-09-21 12:44:44 GMT 44.55985 -0.29281 37,025 210 420 64
2017-09-21 12:44:41 GMT 44.56692 -0.28712 37,025 210 420 64
2017-09-21 12:44:39 GMT 44.56809 -0.28618 37,025 210 420 64
2017-09-21 12:44:33 GMT 44.57744 -0.27868 37,025 210 419 64
2017-09-21 12:44:30 GMT 44.58316 -0.27414 37,025 210 419 64
2017-09-21 12:44:28 GMT 44.58572 -0.27204 37,025 210 419 64
2017-09-21 12:44:23 GMT 44.59543 -0.26433 37,025 210 419 64
2017-09-21 12:44:19 GMT 44.60257 -0.25857 37,000 210 419 0
2017-09-21 12:44:12 GMT 44.61333 -0.25000 37,000 210 418 0
2017-09-21 12:44:08 GMT 44.62051 -0.24424 37,000 210 418 0
2017-09-21 12:44:03 GMT 44.62912 -0.23741 37,000 210 418 0
2017-09-21 12:43:58 GMT 44.63806 -0.23024 37,000 210 417 64
2017-09-21 12:43:52 GMT 44.64834 -0.22207 37,000 210 417 64
2017-09-21 12:43:50 GMT 44.65062 -0.22026 37,000 210 417 64
2017-09-21 12:43:46 GMT 44.65598 -0.21598 37,000 210 417 64
2017-09-21 12:43:42 GMT 44.66460 -0.20907 37,000 210 417 64
2017-09-21 12:43:37 GMT 44.67451 -0.20117 37,000 210 417 64
2017-09-21 12:43:31 GMT 44.68214 -0.19501 37,000 210 417 0
2017-09-21 12:43:28 GMT 44.68950 -0.18912 37,000 210 417 0
2017-09-21 12:43:25 GMT 44.69133 -0.18762 37,000 210 417 0
2017-09-21 12:43:19 GMT 44.70131 -0.17957 37,000 210 416 64
2017-09-21 12:43:16 GMT 44.70813 -0.17415 37,000 210 416 64
2017-09-21 12:43:09 GMT 44.71880 -0.16558 36,975 210 416 64
2017-09-21 12:43:07 GMT 44.72092 -0.16386 36,975 210 416 64
2017-09-21 12:43:04 GMT 44.72790 -0.15823 36,975 210 416 64
2017-09-21 12:42:58 GMT 44.73759 -0.15046 36,975 210 416 -64
2017-09-21 12:42:55 GMT 44.74438 -0.14497 36,975 210 415 -128
2017-09-21 12:42:48 GMT 44.75453 -0.13679 37,000 210 414 -64
2017-09-21 12:42:46 GMT 44.75853 -0.13360 37,000 210 414 -64
2017-09-21 12:42:44 GMT 44.76068 -0.13184 37,000 210 413 0
2017-09-21 12:42:39 GMT 44.76988 -0.12445 37,000 210 413 64
2017-09-21 12:42:36 GMT 44.77273 -0.12212 37,000 210 413 64
2017-09-21 12:42:33 GMT 44.77799 -0.11791 36,975 210 413 0
2017-09-21 12:42:27 GMT 44.78902 -0.10908 36,975 210 413 -64
2017-09-21 12:42:23 GMT 44.79633 -0.10323 37,000 210 413 -64
2017-09-21 12:42:17 GMT 44.80797 -0.09378 37,000 210 413 -64
2017-09-21 12:42:15 GMT 44.80916 -0.09286 37,000 210 413 -64
2017-09-21 12:42:12 GMT 44.81374 -0.08913 37,000 210 413 -64
2017-09-21 12:42:06 GMT 44.82254 -0.08206 37,000 210 413 -64
2017-09-21 12:42:04 GMT 44.82678 -0.07860 37,000 210 412 -64
2017-09-21 12:42:01 GMT 44.83141 -0.07488 37,025 210 412 0
2017-09-21 12:41:57 GMT 44.83951 -0.06840 37,000 210 412 64
2017-09-21 12:41:54 GMT 44.84340 -0.06526 37,000 210 412 64
2017-09-21 12:41:52 GMT 44.84963 -0.06029 37,000 210 412 64
2017-09-21 12:41:47 GMT 44.85434 -0.05647 37,000 210 413 0
2017-09-21 12:41:45 GMT 44.85820 -0.05332 37,000 210 412 0
2017-09-21 12:41:41 GMT 44.86528 -0.04761 37,000 210 412 0
2017-09-21 12:41:33 GMT 44.87796 -0.03734 37,000 211 412 -64
2017-09-21 12:41:31 GMT 44.88283 -0.03336 37,000 211 412 -64
2017-09-21 12:41:25 GMT 44.89060 -0.02693 37,000 211 412 -64
2017-09-21 12:41:23 GMT 44.89447 -0.02371 37,000 211 411 -64
2017-09-21 12:41:21 GMT 44.89796 -0.02083 37,025 211 411 0
2017-09-21 12:41:19 GMT 44.90201 -0.01748 37,025 211 411 0
2017-09-21 12:41:15 GMT 44.90799 -0.01242 37,025 211 411 64
2017-09-21 12:41:11 GMT 44.91531 -0.00628 37,000 211 411 64
2017-09-21 12:41:09 GMT 44.91637 -0.00536 37,000 211 411 64
2017-09-21 12:41:05 GMT 44.92438 0.00137 37,000 212 410 64
2017-09-21 12:41:03 GMT 44.92841 0.00484 37,000 212 411 0
2017-09-21 12:41:00 GMT 44.93133 0.00732 37,000 212 411 64
2017-09-21 12:40:58 GMT 44.93481 0.01027 37,000 212 411 64
2017-09-21 12:40:54 GMT 44.94383 0.01798 37,000 212 411 64
2017-09-21 12:40:49 GMT 44.95042 0.02354 37,000 212 411 0
2017-09-21 12:40:41 GMT 44.96219 0.03355 37,000 211 410 64
2017-09-21 12:40:38 GMT 44.96811 0.03859 37,000 211 411 64
2017-09-21 12:40:31 GMT 44.98059 0.04878 37,000 210 411 64
2017-09-21 12:40:27 GMT 44.98603 0.05312 37,000 210 410 64
2017-09-21 12:40:21 GMT 44.99600 0.06076 37,000 208 411 64
2017-09-21 12:40:18 GMT 45.00247 0.06553 36,975 207 411 0
2017-09-21 12:40:10 GMT 45.01337 0.07311 36,975 206 412 -64
2017-09-21 12:40:07 GMT 45.02037 0.07782 36,975 206 411 -64
2017-09-21 12:40:01 GMT 45.03170 0.08548 37,000 206 411 -64
2017-09-21 12:39:57 GMT 45.03607 0.08848 37,000 206 411 0
2017-09-21 12:39:54 GMT 45.04125 0.09198 37,000 206 411 0
2017-09-21 12:39:53 GMT 45.04376 0.09365 37,000 206 411 0
2017-09-21 12:39:49 GMT 45.04958 0.09763 37,000 206 411 0
2017-09-21 12:39:45 GMT 45.05800 0.10332 37,000 206 411 64
2017-09-21 12:39:39 GMT 45.06752 0.10980 37,000 206 411 -64
2017-09-21 12:39:36 GMT 45.07360 0.11395 37,000 206 411 -64
2017-09-21 12:39:34 GMT 45.07631 0.11575 37,000 206 411 -64
2017-09-21 12:39:29 GMT 45.08464 0.12144 37,000 206 410 -64
2017-09-21 12:39:27 GMT 45.08867 0.12418 37,000 206 410 0
2017-09-21 12:39:23 GMT 45.09558 0.12889 37,000 206 410 -64
2017-09-21 12:39:16 GMT 45.10913 0.13811 37,000 206 410 0
2017-09-21 12:39:14 GMT 45.11242 0.14034 37,000 206 410 0
2017-09-21 12:39:12 GMT 45.11421 0.14151 37,000 206 410 0
2017-09-21 12:39:08 GMT 45.12076 0.14603 37,000 206 410 0
2017-09-21 12:39:04 GMT 45.12904 0.15160 37,000 206 410 0
2017-09-21 12:39:00 GMT 45.13463 0.15544 37,000 206 410 0
2017-09-21 12:38:58 GMT 45.13934 0.15865 37,000 206 410 0
2017-09-21 12:38:55 GMT 45.14450 0.16212 37,000 206 410 -64
2017-09-21 12:38:50 GMT 45.15139 0.16680 37,000 206 410 0
2017-09-21 12:38:46 GMT 45.15729 0.17081 37,000 206 410 0
2017-09-21 12:38:42 GMT 45.16452 0.17578 37,000 206 410 64
2017-09-21 12:38:40 GMT 45.17066 0.17994 37,000 206 410 64
2017-09-21 12:38:35 GMT 45.17766 0.18468 37,000 206 410 64
2017-09-21 12:38:33 GMT 45.17981 0.18611 37,000 206 410 64
2017-09-21 12:38:29 GMT 45.18791 0.19161 37,000 206 410 0
2017-09-21 12:38:23 GMT 45.19812 0.19847 37,000 206 411 0
2017-09-21 12:38:21 GMT 45.19994 0.19976 37,000 206 411 0
2017-09-21 12:38:19 GMT 45.20503 0.20318 37,000 206 411 0
2017-09-21 12:38:12 GMT 45.21675 0.21109 37,000 206 410 0
2017-09-21 12:38:08 GMT 45.22331 0.21551 37,000 206 410 0
2017-09-21 12:38:04 GMT 45.23241 0.22169 37,000 206 410 0
2017-09-21 12:38:02 GMT 45.23467 0.22321 37,000 206 410 0
2017-09-21 12:37:56 GMT 45.24335 0.22914 37,000 206 410 0
2017-09-21 12:37:54 GMT 45.24737 0.23189 37,000 206 410 -64
2017-09-21 12:37:50 GMT 45.25320 0.23580 37,000 206 410 0
2017-09-21 12:37:43 GMT 45.26674 0.24503 37,000 206 410 0
2017-09-21 12:37:38 GMT 45.27617 0.25144 37,000 206 410 64
2017-09-21 12:37:34 GMT 45.28166 0.25511 37,000 206 410 64
2017-09-21 12:37:32 GMT 45.28491 0.25733 37,000 206 410 64
2017-09-21 12:37:30 GMT 45.28862 0.25981 37,000 206 410 64
2017-09-21 12:37:23 GMT 45.30130 0.26851 37,000 206 410 0
2017-09-21 12:37:14 GMT 45.31595 0.27845 37,000 206 410 0
2017-09-21 12:37:11 GMT 45.31988 0.28113 37,000 206 410 -64
2017-09-21 12:37:04 GMT 45.33234 0.28957 37,000 206 410 -64
2017-09-21 12:37:02 GMT 45.33563 0.29179 37,000 206 410 0
2017-09-21 12:36:55 GMT 45.34941 0.30121 37,000 206 410 0
2017-09-21 12:36:52 GMT 45.35310 0.30373 37,000 206 410 64
2017-09-21 12:36:50 GMT 45.35640 0.30594 37,000 206 410 64
2017-09-21 12:36:42 GMT 45.36948 0.31492 37,000 206 409 64
2017-09-21 12:36:40 GMT 45.37386 0.31788 37,000 206 409 0
2017-09-21 12:36:34 GMT 45.38513 0.32564 37,000 206 410 -64
2017-09-21 12:36:31 GMT 45.39047 0.32926 37,000 206 410 -64
2017-09-21 12:36:28 GMT 45.39354 0.33136 37,000 206 410 -64
2017-09-21 12:36:25 GMT 45.39867 0.33488 37,000 206 410 -64
2017-09-21 12:36:22 GMT 45.40338 0.33809 37,000 206 410 -64
2017-09-21 12:36:18 GMT 45.41135 0.34358 37,000 206 410 0
2017-09-21 12:36:12 GMT 45.42082 0.35012 37,000 206 410 64
2017-09-21 12:36:08 GMT 45.42907 0.35578 37,000 206 410 64
2017-09-21 12:36:02 GMT 45.43894 0.36262 37,000 206 410 64
2017-09-21 12:35:58 GMT 45.44732 0.36838 37,000 206 410 0
2017-09-21 12:35:54 GMT 45.45309 0.37242 37,000 206 410 0
2017-09-21 12:35:51 GMT 45.45639 0.37465 37,000 207 410 -64
2017-09-21 12:35:46 GMT 45.46478 0.38050 37,000 207 410 -64
2017-09-21 12:35:36 GMT 45.48424 0.39397 37,000 206 410 0
2017-09-21 12:35:35 GMT 45.48624 0.39531 37,000 206 410 0
2017-09-21 12:35:33 GMT 45.48801 0.39651 37,000 206 410 64
2017-09-21 12:35:29 GMT 45.49639 0.40234 37,000 206 410 64
2017-09-21 12:35:26 GMT 45.49969 0.40455 37,000 206 410 0
2017-09-21 12:35:26 GMT 45.49860 0.40381 37,000 206 410 0
2017-09-21 12:35:22 GMT 45.50658 0.40931 37,000 206 410 0
2017-09-21 12:35:20 GMT 45.51027 0.41186 37,000 206 410 0
2017-09-21 12:35:16 GMT 45.51714 0.41656 37,000 206 410 0
2017-09-21 12:35:14 GMT 45.52043 0.41885 37,000 206 410 0
2017-09-21 12:35:12 GMT 45.52400 0.42134 37,000 206 410 0
2017-09-21 12:35:10 GMT 45.52772 0.42384 37,000 206 410 0
2017-09-21 12:35:04 GMT 45.53880 0.43155 37,000 206 410 0
2017-09-21 12:34:58 GMT 45.54694 0.43711 37,000 206 410 0
2017-09-21 12:34:54 GMT 45.55420 0.44213 37,000 206 410 0
2017-09-21 12:34:52 GMT 45.55673 0.44387 37,000 206 410 0
2017-09-21 12:34:48 GMT 45.56328 0.44843 37,000 206 409 0
2017-09-21 12:34:45 GMT 45.57059 0.45339 37,000 206 410 0
2017-09-21 12:34:43 GMT 45.57278 0.45490 37,000 206 410 0
2017-09-21 12:34:40 GMT 45.58107 0.46060 37,000 206 410 -64
2017-09-21 12:34:36 GMT 45.58447 0.46290 37,000 206 410 0
2017-09-21 12:34:33 GMT 45.59061 0.46712 37,000 206 410 0
2017-09-21 12:34:31 GMT 45.59354 0.46920 37,000 206 410 -64
2017-09-21 12:34:28 GMT 45.59936 0.47317 37,000 206 410 0
2017-09-21 12:34:23 GMT 45.60667 0.47818 37,000 206 409 0
2017-09-21 12:34:21 GMT 45.61104 0.48113 37,000 206 409 0
2017-09-21 12:34:16 GMT 45.61940 0.48695 37,000 206 409 0
2017-09-21 12:34:12 GMT 45.62553 0.49117 37,000 206 409 0
2017-09-21 12:34:08 GMT 45.63209 0.49569 37,000 206 410 0
2017-09-21 12:34:01 GMT 45.64407 0.50396 37,000 206 410 -64
2017-09-21 12:33:58 GMT 45.64922 0.50750 37,000 206 410 -64
2017-09-21 12:33:55 GMT 45.65392 0.51080 37,000 207 410 -64
2017-09-21 12:33:51 GMT 45.66156 0.51609 37,000 206 410 -64
2017-09-21 12:33:48 GMT 45.66742 0.52013 37,000 206 409 0
2017-09-21 12:33:45 GMT 45.67212 0.52336 37,025 206 409 0
2017-09-21 12:33:39 GMT 45.68266 0.53069 37,025 206 410 0
2017-09-21 12:33:35 GMT 45.68925 0.53517 37,025 206 411 0
2017-09-21 12:33:30 GMT 45.69940 0.54224 37,025 206 410 0
2017-09-21 12:33:25 GMT 45.70523 0.54624 37,025 206 410 0
2017-09-21 12:33:23 GMT 45.70958 0.54925 37,025 206 410 0
2017-09-21 12:33:16 GMT 45.72058 0.55680 37,025 206 410 0
2017-09-21 12:33:14 GMT 45.72487 0.55982 37,025 206 410 0
2017-09-21 12:33:08 GMT 45.73436 0.56634 37,000 206 410 64
2017-09-21 12:33:06 GMT 45.73762 0.56861 37,000 206 410 64
2017-09-21 12:33:04 GMT 45.74242 0.57191 37,000 206 410 64
2017-09-21 12:32:58 GMT 45.75183 0.57846 37,000 207 410 64
2017-09-21 12:32:56 GMT 45.75619 0.58152 37,000 207 410 0
2017-09-21 12:32:53 GMT 45.76053 0.58455 37,000 207 410 0
2017-09-21 12:32:47 GMT 45.77000 0.59118 37,000 207 411 -64
2017-09-21 12:32:39 GMT 45.78487 0.60157 37,000 207 410 -64
2017-09-21 12:32:37 GMT 45.78703 0.60311 37,000 207 410 -64
2017-09-21 12:32:31 GMT 45.79797 0.61068 37,000 207 410 0
2017-09-21 12:32:27 GMT 45.80562 0.61604 37,025 207 410 0
2017-09-21 12:32:21 GMT 45.81546 0.62286 37,025 206 410 0
2017-09-21 12:32:17 GMT 45.82309 0.62814 37,000 207 410 0
2017-09-21 12:32:06 GMT 45.84096 0.64062 37,000 207 410 0
2017-09-21 12:31:56 GMT 45.85982 0.65382 37,025 207 410 0
2017-09-21 12:31:48 GMT 45.87108 0.66166 37,025 207 410 0
2017-09-21 12:31:44 GMT 45.87877 0.66708 37,025 207 410 64
2017-09-21 12:31:38 GMT 45.88784 0.67339 37,000 206 410 64
2017-09-21 12:31:36 GMT 45.89283 0.67683 37,000 206 410 64
2017-09-21 12:31:34 GMT 45.89473 0.67813 37,000 206 410 64
2017-09-21 12:31:29 GMT 45.90312 0.68403 37,000 207 410 0
2017-09-21 12:31:27 GMT 45.90605 0.68603 37,000 207 410 0
2017-09-21 12:31:23 GMT 45.91328 0.69107 37,000 207 410 -64
2017-09-21 12:31:19 GMT 45.92127 0.69667 37,000 207 410 0
2017-09-21 12:31:15 GMT 45.92784 0.70125 37,000 207 410 0
2017-09-21 12:31:12 GMT 45.93221 0.70429 37,000 207 410 0
2017-09-21 12:31:08 GMT 45.93915 0.70915 37,000 207 410 64
2017-09-21 12:31:05 GMT 45.94679 0.71445 37,000 207 410 64
2017-09-21 12:30:57 GMT 45.95769 0.72208 37,000 207 410 0
2017-09-21 12:30:55 GMT 45.96098 0.72436 37,000 207 410 0
2017-09-21 12:30:46 GMT 45.97769 0.73608 37,000 207 410 -64
2017-09-21 12:30:43 GMT 45.98458 0.74089 37,000 207 410 -64
2017-09-21 12:30:38 GMT 45.99152 0.74577 37,000 207 409 0
2017-09-21 12:30:34 GMT 45.99696 0.74961 37,000 207 409 0
2017-09-21 12:30:28 GMT 46.00786 0.75723 37,000 207 409 0
2017-09-21 12:30:25 GMT 46.01221 0.76027 37,000 207 409 0
2017-09-21 12:30:23 GMT 46.01546 0.76254 37,000 207 409 0
2017-09-21 12:30:13 GMT 46.03249 0.77447 36,975 207 409 0
2017-09-21 12:30:04 GMT 46.04814 0.78552 36,975 207 409 0
2017-09-21 12:30:01 GMT 46.05636 0.79129 37,000 207 409 0
2017-09-21 12:29:54 GMT 46.06590 0.79798 36,975 207 409 0
2017-09-21 12:29:41 GMT 46.08732 0.81299 36,975 207 409 0
2017-09-21 12:29:37 GMT 46.09421 0.81786 36,975 207 409 0
2017-09-21 12:29:34 GMT 46.09932 0.82143 36,975 207 410 0
2017-09-21 12:29:29 GMT 46.11017 0.82907 37,000 207 409 0
2017-09-21 12:29:25 GMT 46.11704 0.83389 37,000 207 410 0
2017-09-21 12:29:18 GMT 46.12651 0.84059 36,975 207 410 0
2017-09-21 12:29:14 GMT 46.13303 0.84519 37,000 207 410 0
2017-09-21 12:29:11 GMT 46.13913 0.84952 37,000 207 410 0
2017-09-21 12:29:04 GMT 46.15109 0.85794 37,000 207 409 0
2017-09-21 12:28:59 GMT 46.15979 0.86410 37,000 207 409 0
2017-09-21 12:28:55 GMT 46.16524 0.86792 37,000 207 409 0
2017-09-21 12:28:47 GMT 46.17977 0.87822 36,975 207 410 0
2017-09-21 12:28:36 GMT 46.19756 0.89078 37,000 207 410 -128
2017-09-21 12:28:28 GMT 46.21171 0.90081 37,000 207 410 -64
2017-09-21 12:28:25 GMT 46.21715 0.90472 37,000 207 410 0
2017-09-21 12:28:15 GMT 46.23345 0.91633 37,000 207 410 0
2017-09-21 12:28:12 GMT 46.23820 0.91976 37,000 207 410 0
2017-09-21 12:28:09 GMT 46.24397 0.92386 37,000 207 410 0
2017-09-21 12:28:05 GMT 46.25118 0.92903 37,000 207 410 0
2017-09-21 12:28:03 GMT 46.25449 0.93137 37,000 207 411 0
2017-09-21 12:27:53 GMT 46.27088 0.94297 37,000 207 411 -64
2017-09-21 12:27:49 GMT 46.27697 0.94736 37,025 207 411 0
2017-09-21 12:27:44 GMT 46.28787 0.95512 37,000 207 411 0
2017-09-21 12:27:42 GMT 46.28931 0.95615 37,000 207 411 64
2017-09-21 12:27:35 GMT 46.30206 0.96519 37,000 207 411 64
2017-09-21 12:27:32 GMT 46.30719 0.96879 37,000 207 411 0
2017-09-21 12:27:25 GMT 46.32064 0.97833 37,000 207 411 64
2017-09-21 12:27:22 GMT 46.32390 0.98066 37,000 207 411 64
2017-09-21 12:27:12 GMT 46.34170 0.99332 37,000 207 412 64
2017-09-21 12:27:00 GMT 46.36366 1.00889 37,000 207 411 -64
2017-09-21 12:26:57 GMT 46.36688 1.01114 37,000 207 412 0
2017-09-21 12:26:52 GMT 46.37494 1.01684 37,000 207 412 0
2017-09-21 12:26:51 GMT 46.37743 1.01864 37,000 207 411 64
2017-09-21 12:26:50 GMT 46.37929 1.01999 37,000 207 411 64
2017-09-21 12:26:44 GMT 46.38982 1.02743 37,000 207 411 64
2017-09-21 12:26:40 GMT 46.39494 1.03111 37,000 207 411 0
2017-09-21 12:26:39 GMT 46.39677 1.03238 36,975 207 411 0
2017-09-21 12:26:31 GMT 46.41239 1.04356 36,975 207 411 0
2017-09-21 12:26:24 GMT 46.42254 1.05077 37,000 207 412 0
2017-09-21 12:26:21 GMT 46.42909 1.05549 37,000 207 412 0
2017-09-21 12:26:20 GMT 46.43935 1.06273 36,975 207 412 0
2017-09-21 12:26:18 GMT 46.43239 1.05777 37,000 207 412 0
2017-09-21 12:26:13 GMT 46.44223 1.06478 36,975 207 412 0
2017-09-21 12:26:09 GMT 46.44951 1.06996 37,000 207 412 0
2017-09-21 12:25:58 GMT 46.47031 1.08476 37,000 207 412 0
2017-09-21 12:25:53 GMT 46.47688 1.08946 37,000 207 412 0
2017-09-21 12:25:51 GMT 46.48013 1.09180 37,000 207 412 0
2017-09-21 12:25:44 GMT 46.49185 1.10011 37,000 207 412 -64
2017-09-21 12:25:34 GMT 46.51076 1.11367 37,000 207 412 0
2017-09-21 12:25:27 GMT 46.51951 1.11992 37,000 207 412 -64
2017-09-21 12:25:25 GMT 46.52312 1.12255 37,000 207 412 -64
2017-09-21 12:25:17 GMT 46.53809 1.13331 37,025 207 413 0
2017-09-21 12:25:15 GMT 46.54028 1.13487 37,000 207 413 0
2017-09-21 12:25:10 GMT 46.54944 1.14141 37,000 207 413 0
2017-09-21 12:25:01 GMT 46.56509 1.15276 37,025 207 413 0
2017-09-21 12:24:52 GMT 46.58110 1.16428 37,000 207 413 64
2017-09-21 12:24:50 GMT 46.58296 1.16558 37,000 207 413 0
2017-09-21 12:24:45 GMT 46.59209 1.17217 37,000 207 414 0
2017-09-21 12:24:40 GMT 46.60126 1.17882 37,000 207 414 0
2017-09-21 12:24:29 GMT 46.61989 1.19222 37,025 207 414 -64
2017-09-21 12:24:24 GMT 46.62868 1.19852 37,025 207 414 -64
2017-09-21 12:24:21 GMT 46.63339 1.20193 37,025 207 414 0
2017-09-21 12:24:19 GMT 46.63855 1.20561 37,025 207 414 0
2017-09-21 12:24:08 GMT 46.65610 1.21828 37,025 207 414 0
2017-09-21 12:24:04 GMT 46.66192 1.22250 37,025 207 414 0
2017-09-21 12:23:57 GMT 46.67365 1.23095 37,025 207 415 0
2017-09-21 12:23:54 GMT 46.68027 1.23563 37,025 207 415 0
2017-09-21 12:23:50 GMT 46.68608 1.23988 37,025 207 415 0
2017-09-21 12:23:45 GMT 46.69562 1.24674 37,025 207 414 64
2017-09-21 12:23:36 GMT 46.71199 1.25840 37,025 207 414 64
2017-09-21 12:23:34 GMT 46.71354 1.25958 37,025 207 414 64
2017-09-21 12:23:27 GMT 46.72862 1.27036 37,025 207 414 64
2017-09-21 12:23:20 GMT 46.73850 1.27743 37,000 207 415 0
2017-09-21 12:23:16 GMT 46.74687 1.28346 37,000 207 415 0
2017-09-21 12:23:14 GMT 46.74836 1.28458 37,000 207 414 0
2017-09-21 12:23:07 GMT 46.76079 1.29350 37,000 207 414 0
2017-09-21 12:23:05 GMT 46.76335 1.29532 37,025 207 413 0
2017-09-21 12:23:03 GMT 46.76738 1.29826 37,000 207 413 0
2017-09-21 12:22:57 GMT 46.77754 1.30570 37,000 207 414 0
2017-09-21 12:22:51 GMT 46.78780 1.31320 37,000 207 414 0
2017-09-21 12:22:48 GMT 46.79459 1.31815 37,000 207 414 0
2017-09-21 12:22:45 GMT 46.79942 1.32171 37,000 207 413 0
2017-09-21 12:22:42 GMT 46.80236 1.32385 37,000 207 413 0
2017-09-21 12:22:33 GMT 46.81842 1.33551 37,000 207 413 64
2017-09-21 12:22:23 GMT 46.83550 1.34797 37,000 207 413 0
2017-09-21 12:22:14 GMT 46.85157 1.35963 37,000 207 412 0
2017-09-21 12:22:12 GMT 46.85669 1.36331 37,000 207 412 0
2017-09-21 12:22:08 GMT 46.86176 1.36704 37,000 207 412 0
2017-09-21 12:22:02 GMT 46.87228 1.37470 37,000 207 412 0
2017-09-21 12:22:00 GMT 46.87372 1.37576 37,000 207 412 0
2017-09-21 12:21:55 GMT 46.88393 1.38318 37,000 207 412 0
2017-09-21 12:21:53 GMT 46.88644 1.38505 37,000 207 412 64
2017-09-21 12:21:53 GMT 46.88754 1.38586 37,000 207 412 64
2017-09-21 12:21:51 GMT 46.89049 1.38794 37,000 207 412 64
2017-09-21 12:21:50 GMT 46.89226 1.38929 37,000 207 412 64
2017-09-21 12:21:45 GMT 46.90064 1.39533 37,000 207 411 -128
2017-09-21 12:21:41 GMT 46.90683 1.39984 37,000 207 411 64
2017-09-21 12:21:39 GMT 46.91153 1.40329 36,975 207 411 -128
2017-09-21 12:21:30 GMT 46.92824 1.41538 37,000 207 411 -128
2017-09-21 12:21:27 GMT 46.93190 1.41806 37,000 207 410 -128
2017-09-21 12:21:22 GMT 46.93986 1.42383 37,025 207 410 64
2017-09-21 12:21:20 GMT 46.94239 1.42562 37,025 207 410 64
2017-09-21 12:21:16 GMT 46.94965 1.43090 37,000 207 410 128
2017-09-21 12:21:11 GMT 46.95836 1.43722 37,000 207 410 0
2017-09-21 12:21:09 GMT 46.96161 1.43955 37,000 207 410 -64
2017-09-21 12:21:05 GMT 46.97028 1.44590 37,000 207 410 -64
2017-09-21 12:20:59 GMT 46.97824 1.45167 37,025 207 410 -64
2017-09-21 12:20:55 GMT 46.98688 1.45802 37,025 207 410 0
2017-09-21 12:20:51 GMT 46.99342 1.46283 37,025 207 410 64
2017-09-21 12:20:49 GMT 46.99489 1.46393 37,000 207 410 0
2017-09-21 12:20:42 GMT 47.00716 1.47286 37,000 207 410 64
2017-09-21 12:20:39 GMT 47.01292 1.47710 37,000 207 410 128
2017-09-21 12:20:37 GMT 47.01618 1.47949 37,000 207 410 64
2017-09-21 12:20:35 GMT 47.01984 1.48212 37,000 207 410 64
2017-09-21 12:20:29 GMT 47.02921 1.48900 36,975 207 411 64
2017-09-21 12:20:27 GMT 47.03322 1.49196 36,975 207 411 128
2017-09-21 12:20:18 GMT 47.04811 1.50287 36,975 207 411 448
2017-09-21 12:20:14 GMT 47.05463 1.50767 36,950 207 411 576
2017-09-21 12:20:08 GMT 47.06552 1.51570 36,850 207 411 832
2017-09-21 12:20:06 GMT 47.06877 1.51811 36,825 207 411 896
2017-09-21 12:20:01 GMT 47.07921 1.52580 36,750 207 411 832
2017-09-21 12:19:58 GMT 47.08214 1.52795 36,725 207 411 896
2017-09-21 12:19:56 GMT 47.08507 1.53005 36,700 207 411 896
2017-09-21 12:19:52 GMT 47.09327 1.53611 36,650 207 411 1088
2017-09-21 12:19:47 GMT 47.10095 1.54179 36,550 207 411 1088
2017-09-21 12:19:43 GMT 47.10750 1.54660 36,500 207 412 1280
2017-09-21 12:19:38 GMT 47.11839 1.55463 36,350 207 413 1344
2017-09-21 12:19:34 GMT 47.12353 1.55837 36,275 207 414 1344
2017-09-21 12:19:27 GMT 47.13521 1.56703 36,125 207 415 1152
2017-09-21 12:19:27 GMT 47.13521 1.56703 36,125 207 415 1216
2017-09-21 12:19:23 GMT 47.14136 1.57154 36,050 207 415 1088
2017-09-21 12:19:17 GMT 47.15453 1.58126 35,925 207 415 832
2017-09-21 12:19:09 GMT 47.16664 1.59007 35,825 207 415 896
2017-09-21 12:19:07 GMT 47.17031 1.59281 35,800 207 415 960
2017-09-21 12:19:05 GMT 47.17319 1.59494 35,775 207 415 960
2017-09-21 12:19:01 GMT 47.17836 1.59872 35,725 207 414 1024
2017-09-21 12:18:55 GMT 47.19040 1.60751 35,600 207 414 1216
2017-09-21 12:18:56 GMT 47.19040 1.60751 35,600 207 414 1152
2017-09-21 12:18:55 GMT 47.19040 1.60751 35,600 207 414 1216
2017-09-21 12:18:51 GMT 47.19699 1.61231 35,525 207 415 1280
2017-09-21 12:18:44 GMT 47.20797 1.62041 35,400 207 415 1344
2017-09-21 12:18:44 GMT 47.20797 1.62041 35,400 207 416 1344
2017-09-21 12:18:40 GMT 47.21603 1.62625 35,300 207 416 1344
2017-09-21 12:18:36 GMT 47.22375 1.63189 35,175 207 417 1344
2017-09-21 12:18:33 GMT 47.22748 1.63463 35,150 207 417 1280
2017-09-21 12:18:33 GMT 47.22707 1.63435 35,150 207 417 1280
2017-09-21 12:18:28 GMT 47.23558 1.64056 35,050 207 418 1152
2017-09-21 12:18:25 GMT 47.24186 1.64513 34,975 207 418 1152
2017-09-21 12:18:23 GMT 47.24551 1.64781 34,925 207 418 1152
2017-09-21 12:18:23 GMT 47.24442 1.64703 34,950 207 418 1152
2017-09-21 12:18:19 GMT 47.25252 1.65296 34,850 207 418 1216
2017-09-21 12:18:16 GMT 47.25797 1.65703 34,825 207 418 1216
2017-09-21 12:18:13 GMT 47.26286 1.66065 34,750 207 418 1344
2017-09-21 12:18:12 GMT 47.26428 1.66175 34,725 207 418 1344
2017-09-21 12:18:06 GMT 47.27496 1.66978 34,575 208 419 1600
2017-09-21 12:18:04 GMT 47.27788 1.67191 34,525 208 419 1664
2017-09-21 12:18:02 GMT 47.28120 1.67443 34,475 208 420 1600
2017-09-21 12:18:02 GMT 47.28337 1.67610 34,450 208 420 1664
2017-09-21 12:17:56 GMT 47.29079 1.68168 34,325 207 421 1472
2017-09-21 12:17:53 GMT 47.29601 1.68558 34,250 207 422 1344
2017-09-21 12:17:51 GMT 47.30086 1.68901 34,200 206 422 1344
2017-09-21 12:17:51 GMT 47.29935 1.68798 34,225 206 422 1344
2017-09-21 12:17:46 GMT 47.30918 1.69457 34,100 201 424 1152
2017-09-21 12:17:44 GMT 47.31448 1.69774 34,050 202 423 1152
2017-09-21 12:17:41 GMT 47.31849 1.69999 34,000 201 423 1152
2017-09-21 12:17:39 GMT 47.32127 1.70151 33,975 201 423 1152
2017-09-21 12:17:33 GMT 47.33313 1.70741 33,850 198 424 1280
2017-09-21 12:17:30 GMT 47.33869 1.70999 33,775 198 424 1280
2017-09-21 12:17:25 GMT 47.34824 1.71443 33,675 198 424 1280
2017-09-21 12:17:22 GMT 47.35387 1.71703 33,600 198 424 1280
2017-09-21 12:17:20 GMT 47.35780 1.71888 33,550 198 424 1280
2017-09-21 12:17:14 GMT 47.36858 1.72387 33,425 198 424 1280
2017-09-21 12:17:12 GMT 47.37264 1.72575 33,375 198 424 1280
2017-09-21 12:17:09 GMT 47.37936 1.72890 33,325 198 425 1280
2017-09-21 12:17:07 GMT 47.38417 1.73112 33,250 198 425 1280
2017-09-21 12:17:05 GMT 47.38618 1.73206 33,225 198 425 1280
2017-09-21 12:17:03 GMT 47.39018 1.73387 33,200 198 425 1280
2017-09-21 12:17:01 GMT 47.39378 1.73556 33,150 198 425 1280
2017-09-21 12:16:59 GMT 47.39735 1.73721 33,100 198 425 1280
2017-09-21 12:16:56 GMT 47.40262 1.73962 33,050 198 425 1280
2017-09-21 12:16:51 GMT 47.41099 1.74353 32,950 198 425 1280
2017-09-21 12:16:48 GMT 47.41777 1.74662 32,875 198 425 1280
2017-09-21 12:16:47 GMT 47.42016 1.74774 32,850 198 425 1280
2017-09-21 12:16:44 GMT 47.42616 1.75056 32,775 198 425 1280
2017-09-21 12:16:42 GMT 47.42854 1.75161 32,750 198 425 1280
2017-09-21 12:16:40 GMT 47.43403 1.75422 32,725 198 425 1472
2017-09-21 12:16:37 GMT 47.43778 1.75596 32,650 198 425 1536
2017-09-21 12:16:31 GMT 47.44855 1.76098 32,500 198 425 1536
2017-09-21 12:16:30 GMT 47.45059 1.76193 32,500 198 425 1536
2017-09-21 12:16:27 GMT 47.45737 1.76502 32,400 198 426 1536
2017-09-21 12:16:20 GMT 47.46899 1.77049 32,250 198 426 1536
2017-09-21 12:16:16 GMT 47.47783 1.77457 32,125 198 427 1664
2017-09-21 12:16:16 GMT 47.47783 1.77457 32,125 198 427 1664
2017-09-21 12:16:12 GMT 47.48506 1.77800 32,000 198 428 1728
2017-09-21 12:16:09 GMT 47.49073 1.78063 31,925 198 428 1664
2017-09-21 12:16:05 GMT 47.49832 1.78415 31,800 198 429 1664
2017-09-21 12:16:01 GMT 47.50561 1.78754 31,700 198 429 1536
2017-09-21 12:15:59 GMT 47.50968 1.78943 31,650 198 429 1472
2017-09-21 12:15:55 GMT 47.51894 1.79380 31,525 198 430 1472
2017-09-21 12:15:53 GMT 47.52099 1.79472 31,500 198 430 1408
2017-09-21 12:15:49 GMT 47.52745 1.79771 31,425 198 430 1408
2017-09-21 12:15:46 GMT 47.53596 1.80169 31,325 198 430 1344
2017-09-21 12:15:42 GMT 47.54245 1.80472 31,250 198 430 1280
2017-09-21 12:15:40 GMT 47.54489 1.80581 31,200 198 430 1088
2017-09-21 12:15:38 GMT 47.54929 1.80788 31,175 198 430 1088
2017-09-21 12:15:36 GMT 47.55446 1.81027 31,125 198 429 1024
2017-09-21 12:15:33 GMT 47.56070 1.81317 31,050 198 429 1024
2017-09-21 12:15:28 GMT 47.56750 1.81634 31,000 198 428 1024
2017-09-21 12:15:24 GMT 47.57560 1.82007 30,925 198 428 1088
2017-09-21 12:15:22 GMT 47.57960 1.82197 30,900 198 427 1152
2017-09-21 12:15:17 GMT 47.58971 1.82668 30,775 198 426 1088
2017-09-21 12:15:14 GMT 47.59648 1.82984 30,700 198 427 1472
2017-09-21 12:15:10 GMT 47.60175 1.83231 30,625 198 427 1664
2017-09-21 12:15:08 GMT 47.60536 1.83403 30,575 198 427 1536
2017-09-21 12:15:05 GMT 47.61095 1.83664 30,500 198 427 1536
2017-09-21 12:15:03 GMT 47.61621 1.83911 30,425 198 427 1664
2017-09-21 12:14:59 GMT 47.62505 1.84323 30,325 198 428 1536
2017-09-21 12:14:57 GMT 47.62708 1.84415 30,275 198 428 1408
2017-09-21 12:14:53 GMT 47.63631 1.84852 30,150 198 427 1216
2017-09-21 12:14:50 GMT 47.63993 1.85021 30,125 198 427 1152
2017-09-21 12:14:48 GMT 47.64400 1.85209 30,075 198 427 1152
2017-09-21 12:14:43 GMT 47.65320 1.85641 30,000 198 427 1152
2017-09-21 12:14:39 GMT 47.66190 1.86049 29,925 198 426 1088
2017-09-21 12:14:36 GMT 47.66569 1.86225 29,875 198 426 1088
2017-09-21 12:14:34 GMT 47.67084 1.86472 29,825 198 426 1024
2017-09-21 12:14:32 GMT 47.67475 1.86655 29,800 198 425 1024
2017-09-21 12:14:30 GMT 47.67685 1.86754 29,775 198 425 960
2017-09-21 12:14:28 GMT 47.68201 1.86993 29,725 198 423 896
2017-09-21 12:14:26 GMT 47.68762 1.87255 29,675 198 423 832
2017-09-21 12:14:17 GMT 47.70154 1.87907 29,600 198 413 1344
2017-09-21 12:14:17 GMT 47.70392 1.88017 29,575 198 418 640
2017-09-21 12:14:15 GMT 47.70547 1.88093 29,575 198 420 576
2017-09-21 12:14:13 GMT 47.70939 1.88275 29,550 198 419 576
2017-09-21 12:14:05 GMT 47.72633 1.89071 29,450 198 415 1024
2017-09-21 12:13:58 GMT 47.73756 1.89597 29,325 198 414 1280
2017-09-21 12:13:56 GMT 47.74109 1.89761 29,300 198 413 1344
2017-09-21 12:13:53 GMT 47.74654 1.90015 29,225 198 413 1344
2017-09-21 12:13:49 GMT 47.75273 1.90310 29,150 198 412 1408
2017-09-21 12:13:46 GMT 47.75899 1.90599 29,075 198 413 1472
2017-09-21 12:13:46 GMT 47.75899 1.90599 29,075 198 413 1472
2017-09-21 12:13:44 GMT 47.76251 1.90764 29,025 198 412 1280
2017-09-21 12:13:42 GMT 47.76750 1.90997 28,950 198 412 1408
2017-09-21 12:13:40 GMT 47.77102 1.91162 28,925 198 411 1088
2017-09-21 12:13:35 GMT 47.77977 1.91571 28,850 198 411 1088
2017-09-21 12:13:35 GMT 47.77977 1.91571 28,850 198 411 1088
2017-09-21 12:13:32 GMT 47.78378 1.91761 28,775 198 410 1280
2017-09-21 12:13:26 GMT 47.79497 1.92288 28,650 198 409 1408
2017-09-21 12:13:24 GMT 47.79844 1.92451 28,625 198 409 1408
2017-09-21 12:13:19 GMT 47.80915 1.92958 28,475 198 408 1216
2017-09-21 12:13:15 GMT 47.81487 1.93233 28,425 198 408 1216
2017-09-21 12:13:13 GMT 47.81832 1.93395 28,375 198 407 1216
2017-09-21 12:13:10 GMT 47.82558 1.93740 28,300 198 406 1216
2017-09-21 12:13:07 GMT 47.82907 1.93902 28,250 198 415 2432
2017-09-21 12:13:05 GMT 47.83470 1.94170 28,200 198 405 1344
2017-09-21 12:13:03 GMT 47.83699 1.94275 28,175 198 404 1472
2017-09-21 12:12:58 GMT 47.84610 1.94712 28,050 198 404 1472
2017-09-21 12:12:54 GMT 47.85223 1.95000 27,975 198 403 1472
2017-09-21 12:12:51 GMT 47.85942 1.95337 27,875 198 403 1408
2017-09-21 12:12:46 GMT 47.86543 1.95627 27,775 198 401 1408
2017-09-21 12:12:43 GMT 47.87334 1.96000 27,675 198 400 1280
2017-09-21 12:12:36 GMT 47.88466 1.96536 27,550 198 399 1280
2017-09-21 12:12:34 GMT 47.88693 1.96642 27,500 198 399 1280
2017-09-21 12:12:29 GMT 47.89713 1.97127 27,400 198 398 1280
2017-09-21 12:12:25 GMT 47.90346 1.97423 27,325 198 397 1344
2017-09-21 12:12:22 GMT 47.90835 1.97655 27,250 198 396 1408
2017-09-21 12:12:19 GMT 47.91464 1.97958 27,175 198 396 1536
2017-09-21 12:12:14 GMT 47.92320 1.98360 27,050 198 395 1664
2017-09-21 12:12:12 GMT 47.92616 1.98502 27,000 198 395 1664
2017-09-21 12:12:09 GMT 47.93358 1.98853 26,875 198 394 1728
2017-09-21 12:12:01 GMT 47.94658 1.99470 26,650 198 394 2496
2017-09-21 12:11:57 GMT 47.95139 1.99697 26,525 198 395 2816
2017-09-21 12:11:52 GMT 47.96170 2.00191 26,275 198 397 3328
2017-09-21 12:11:52 GMT 47.96240 2.00219 26,275 198 397 3328
2017-09-21 12:11:47 GMT 47.97006 2.00583 25,950 198 401 3904
2017-09-21 12:11:44 GMT 47.97418 2.00782 25,800 198 407 3904
2017-09-21 12:11:42 GMT 47.97871 2.00995 25,625 198 405 3904
2017-09-21 12:11:37 GMT 47.99048 2.01551 25,275 198 410 3712
2017-09-21 12:11:32 GMT 47.99713 2.01874 25,000 198 413 3136
2017-09-21 12:11:26 GMT 48.00811 2.02395 24,725 198 416 2240
2017-09-21 12:11:21 GMT 48.01703 2.02821 24,550 198 417 1856
2017-09-21 12:11:18 GMT 48.02254 2.03085 24,475 198 416 1728
2017-09-21 12:11:16 GMT 48.02760 2.03329 24,400 198 415 1664
2017-09-21 12:11:16 GMT 48.02760 2.03329 24,400 198 416 1792
2017-09-21 12:11:11 GMT 48.03535 2.03705 24,275 198 416 1664
2017-09-21 12:11:04 GMT 48.04944 2.04387 24,050 198 414 1792
2017-09-21 12:11:02 GMT 48.05178 2.04501 24,025 198 414 1792
2017-09-21 12:11:01 GMT 48.05374 2.04593 24,000 198 414 1792
2017-09-21 12:11:00 GMT 48.05447 2.04634 23,975 199 413 1856
2017-09-21 12:10:55 GMT 48.06615 2.05197 23,775 199 413 1856
2017-09-21 12:10:52 GMT 48.06889 2.05335 23,750 199 413 1856
2017-09-21 12:10:50 GMT 48.07310 2.05536 23,675 199 413 1856
2017-09-21 12:10:48 GMT 48.07704 2.05726 23,600 199 413 1856
2017-09-21 12:10:44 GMT 48.08437 2.06083 23,475 198 412 1856
2017-09-21 12:10:41 GMT 48.08862 2.06289 23,400 198 412 1856
2017-09-21 12:10:39 GMT 48.09467 2.06577 23,325 198 412 1856
2017-09-21 12:10:36 GMT 48.09865 2.06770 23,250 198 412 1856
2017-09-21 12:10:34 GMT 48.10331 2.07001 23,175 198 410 1792
2017-09-21 12:10:29 GMT 48.11179 2.07408 23,025 198 410 1792
2017-09-21 12:10:22 GMT 48.12488 2.08026 22,825 198 408 1728
2017-09-21 12:10:20 GMT 48.12753 2.08157 22,775 198 408 1792
2017-09-21 12:10:16 GMT 48.13557 2.08529 22,675 198 408 1792
2017-09-21 12:10:13 GMT 48.14218 2.08836 22,550 198 408 1920
2017-09-21 12:10:09 GMT 48.14873 2.09138 22,425 198 406 2048
2017-09-21 12:10:02 GMT 48.16062 2.09680 22,200 198 406 2112
2017-09-21 12:09:59 GMT 48.16438 2.09853 22,125 200 406 1984
2017-09-21 12:09:57 GMT 48.16825 2.10041 22,075 200 406 1984
2017-09-21 12:09:55 GMT 48.17393 2.10338 21,950 201 405 1984
2017-09-21 12:09:52 GMT 48.18082 2.10754 21,850 204 404 1984
2017-09-21 12:09:49 GMT 48.18347 2.10930 21,775 205 404 1984
2017-09-21 12:09:46 GMT 48.18887 2.11318 21,675 208 403 1920
2017-09-21 12:09:40 GMT 48.19693 2.11957 21,525 211 401 1856
2017-09-21 12:09:38 GMT 48.20075 2.12289 21,450 212 401 1856
2017-09-21 12:09:36 GMT 48.20340 2.12535 21,425 213 399 1856
2017-09-21 12:09:36 GMT 48.20340 2.12535 21,425 212 401 1792
2017-09-21 12:09:33 GMT 48.20815 2.12973 21,325 213 398 1984
2017-09-21 12:09:31 GMT 48.21442 2.13571 21,200 213 398 1920
2017-09-21 12:09:27 GMT 48.22011 2.14111 21,100 213 398 1984
2017-09-21 12:09:25 GMT 48.22277 2.14371 21,025 213 398 1984
2017-09-21 12:09:22 GMT 48.22574 2.14653 20,975 213 397 1984
2017-09-21 12:09:20 GMT 48.23126 2.15184 20,875 213 397 1920
2017-09-21 12:09:17 GMT 48.23268 2.15318 20,825 213 396 1856
2017-09-21 12:09:09 GMT 48.24613 2.16604 20,575 213 395 1792
2017-09-21 12:09:07 GMT 48.24916 2.16893 20,500 213 394 1792
2017-09-21 12:09:04 GMT 48.25401 2.17360 20,425 213 393 1856
2017-09-21 12:08:59 GMT 48.26285 2.18201 20,250 213 392 2112
2017-09-21 12:08:54 GMT 48.26876 2.18772 20,100 213 391 2240
2017-09-21 12:08:50 GMT 48.27457 2.19325 19,975 213 391 2304
2017-09-21 12:08:46 GMT 48.28175 2.20016 19,775 213 390 2304
2017-09-21 12:08:44 GMT 48.28496 2.20325 19,700 213 390 2240
2017-09-21 12:08:41 GMT 48.28821 2.20635 19,625 213 390 2240
2017-09-21 12:08:36 GMT 48.29567 2.21346 19,450 213 389 2240
2017-09-21 12:08:34 GMT 48.29956 2.21720 19,350 213 389 2112
2017-09-21 12:08:31 GMT 48.30498 2.22242 19,275 213 389 2048
2017-09-21 12:08:27 GMT 48.31119 2.22839 19,100 213 388 1792
2017-09-21 12:08:25 GMT 48.31508 2.23210 19,050 213 385 1728
2017-09-21 12:08:23 GMT 48.31573 2.23275 19,025 213 387 1728
2017-09-21 12:08:16 GMT 48.32881 2.24533 18,775 213 383 1728
2017-09-21 12:08:14 GMT 48.32977 2.24621 18,750 213 382 1728
2017-09-21 12:08:11 GMT 48.33356 2.24988 18,700 213 380 2048
2017-09-21 12:08:09 GMT 48.33737 2.25353 18,625 213 380 2048
2017-09-21 12:08:04 GMT 48.34401 2.25994 18,475 213 380 2048
2017-09-21 12:08:01 GMT 48.35005 2.26572 18,350 213 379 2112
2017-09-21 12:07:55 GMT 48.35880 2.27417 18,125 213 377 2112
2017-09-21 12:07:52 GMT 48.36227 2.27755 18,050 213 376 2048
2017-09-21 12:07:50 GMT 48.36540 2.28053 17,975 213 373 2048
2017-09-21 12:07:41 GMT 48.37848 2.29311 17,700 213 371 2304
2017-09-21 12:07:38 GMT 48.38309 2.29759 17,575 213 371 2304
2017-09-21 12:07:34 GMT 48.39049 2.30467 17,400 213 371 2176
2017-09-21 12:07:31 GMT 48.39389 2.30800 17,300 213 369 2048
2017-09-21 12:07:27 GMT 48.39850 2.31241 17,200 213 369 1984
2017-09-21 12:07:23 GMT 48.40462 2.31833 17,050 213 368 1920
2017-09-21 12:07:21 GMT 48.40736 2.32100 17,000 213 367 1920
2017-09-21 12:07:19 GMT 48.40984 2.32333 16,950 213 366 1920
2017-09-21 12:07:14 GMT 48.41771 2.33100 16,775 213 363 2112
2017-09-21 12:07:12 GMT 48.42159 2.33474 16,725 213 363 2176
2017-09-21 12:07:10 GMT 48.42284 2.33593 16,650 213 362 2176
2017-09-21 12:07:08 GMT 48.42613 2.33917 16,575 213 362 2368
2017-09-21 12:07:04 GMT 48.43126 2.34410 16,425 213 361 2496
2017-09-21 12:07:02 GMT 48.43634 2.34896 16,275 213 361 2560
2017-09-21 12:07:00 GMT 48.43723 2.34985 16,275 213 360 2560
2017-09-21 12:06:57 GMT 48.44142 2.35389 16,150 213 360 2624
2017-09-21 12:06:57 GMT 48.44054 2.35303 16,150 213 360 2560
2017-09-21 12:06:52 GMT 48.44801 2.36023 15,925 213 360 2688
2017-09-21 12:06:49 GMT 48.45369 2.36572 15,775 213 358 2432
2017-09-21 12:06:48 GMT 48.45515 2.36712 15,725 213 359 2496
2017-09-21 12:06:48 GMT 48.45515 2.36712 15,725 213 358 2368
2017-09-21 12:06:45 GMT 48.45846 2.37030 15,625 213 358 2432
2017-09-21 12:06:40 GMT 48.46500 2.37664 15,450 213 357 2496
2017-09-21 12:06:38 GMT 48.46944 2.38086 15,325 213 356 2560
2017-09-21 12:06:33 GMT 48.47447 2.38577 15,175 213 355 2688
2017-09-21 12:06:28 GMT 48.48066 2.39177 14,975 213 355 2688
2017-09-21 12:06:27 GMT 48.48303 2.39403 14,900 213 354 2816
2017-09-21 12:06:26 GMT 48.48358 2.39460 14,900 213 354 2816
2017-09-21 12:06:24 GMT 48.48909 2.39993 14,750 213 354 2880
2017-09-21 12:06:19 GMT 48.49416 2.40481 14,525 213 354 3008
2017-09-21 12:06:16 GMT 48.49831 2.40883 14,375 213 354 3008
2017-09-21 12:06:16 GMT 48.49831 2.40883 14,375 213 354 3008
2017-09-21 12:06:16 GMT 48.49951 2.41002 14,350 213 354 3008
2017-09-21 12:06:12 GMT 48.50385 2.41425 14,200 213 354 3008
2017-09-21 12:06:08 GMT 48.50827 2.41851 14,025 213 353 2944
2017-09-21 12:06:06 GMT 48.51352 2.42361 13,850 213 353 2752
2017-09-21 12:06:05 GMT 48.51414 2.42422 13,825 213 353 2880
2017-09-21 12:06:01 GMT 48.51791 2.42791 13,700 213 353 2560
2017-09-21 12:05:58 GMT 48.52267 2.43249 13,550 213 352 2432
2017-09-21 12:05:56 GMT 48.52643 2.43615 13,450 213 351 2176
2017-09-21 12:05:52 GMT 48.53248 2.44207 13,325 213 350 2048
2017-09-21 12:05:47 GMT 48.53920 2.44854 13,150 213 346 1728
2017-09-21 12:05:45 GMT 48.54057 2.44995 13,125 213 344 1536
2017-09-21 12:05:43 GMT 48.54373 2.45298 13,075 213 342 1408
2017-09-21 12:05:37 GMT 48.55197 2.46101 12,925 213 335 1664
2017-09-21 12:05:34 GMT 48.55449 2.46347 12,875 213 335 1728
2017-09-21 12:05:32 GMT 48.55836 2.46715 12,800 213 331 2496
2017-09-21 12:05:27 GMT 48.56328 2.47199 12,675 214 330 2688
2017-09-21 12:05:25 GMT 48.56690 2.47552 12,550 213 329 2944
2017-09-21 12:05:23 GMT 48.56905 2.47763 12,475 213 328 3072
2017-09-21 12:05:21 GMT 48.57126 2.47973 12,375 213 328 3136
2017-09-21 12:05:17 GMT 48.57638 2.48479 12,175 213 328 3136
2017-09-21 12:05:13 GMT 48.58187 2.49014 11,950 213 327 3008
2017-09-21 12:05:11 GMT 48.58592 2.49411 11,800 213 327 3008
2017-09-21 12:05:10 GMT 48.58592 2.49411 11,800 213 327 2944
2017-09-21 12:05:04 GMT 48.59349 2.50150 11,525 214 326 2752
2017-09-21 12:05:02 GMT 48.59647 2.50439 11,425 213 325 2496
2017-09-21 12:05:00 GMT 48.59812 2.50597 11,375 213 325 2368
2017-09-21 12:04:56 GMT 48.60445 2.51218 11,225 213 320 1664
2017-09-21 12:04:53 GMT 48.60612 2.51384 11,150 213 314 1280
2017-09-21 12:04:51 GMT 48.61013 2.51775 11,050 213 315 1344
2017-09-21 12:04:49 GMT 48.61194 2.51953 11,025 213 316 1408
2017-09-21 12:04:46 GMT 48.61537 2.52284 10,975 213 312 1216
2017-09-21 12:04:44 GMT 48.61972 2.52707 10,900 213 307 1280
2017-09-21 12:04:41 GMT 48.62155 2.52883 10,875 213 305 1344
2017-09-21 12:04:38 GMT 48.62460 2.53177 10,800 213 304 1344
2017-09-21 12:04:34 GMT 48.62986 2.53690 10,725 213 300 1408
2017-09-21 12:04:31 GMT 48.63446 2.54129 10,650 213 293 1408
2017-09-21 12:04:29 GMT 48.63698 2.54376 10,575 213 289 1472
2017-09-21 12:04:27 GMT 48.63820 2.54493 10,550 213 288 1472
2017-09-21 12:04:25 GMT 48.64014 2.54679 10,500 213 285 1728
2017-09-21 12:04:20 GMT 48.64583 2.55230 10,375 213 281 2304
2017-09-21 12:04:20 GMT 48.64583 2.55230 10,375 213 280 2688
2017-09-21 12:04:18 GMT 48.64886 2.55519 10,250 213 278 3008
2017-09-21 12:04:15 GMT 48.65202 2.55830 10,175 213 277 3008
2017-09-21 12:04:11 GMT 48.65714 2.56328 9,900 213 277 3008
2017-09-21 12:04:07 GMT 48.66019 2.56615 9,750 213 276 3072
2017-09-21 12:04:05 GMT 48.66175 2.56769 9,675 213 276 3136
2017-09-21 12:04:00 GMT 48.66878 2.57456 9,400 214 274 3136
2017-09-21 12:03:59 GMT 48.66943 2.57524 9,375 214 274 3136
2017-09-21 12:03:55 GMT 48.67288 2.57861 9,175 214 272 2880
2017-09-21 12:03:49 GMT 48.67916 2.58489 8,900 214 271 2624
2017-09-21 12:03:49 GMT 48.67916 2.58489 8,900 214 271 2624
2017-09-21 12:03:47 GMT 48.68121 2.58699 8,800 214 271 2624
2017-09-21 12:03:44 GMT 48.68382 2.58959 8,700 214 269 2496
2017-09-21 12:03:39 GMT 48.68976 2.59559 8,475 213 264 1984
2017-09-21 12:03:37 GMT 48.69155 2.59733 8,425 213 264 1920
2017-09-21 12:03:34 GMT 48.69466 2.60024 8,325 210 260 1600
2017-09-21 12:03:30 GMT 48.69942 2.60390 8,225 201 255 1408
2017-09-21 12:03:28 GMT 48.70129 2.60489 8,200 196 252 1536
2017-09-21 12:03:26 GMT 48.70390 2.60594 8,125 192 249 1664
2017-09-21 12:03:24 GMT 48.70560 2.60651 8,100 187 247 1728
2017-09-21 12:03:23 GMT 48.70660 2.60672 8,075 184 246 1792
2017-09-21 12:03:18 GMT 48.71357 2.60701 7,875 173 240 2624
2017-09-21 12:03:18 GMT 48.71357 2.60701 7,875 175 241 2432
2017-09-21 12:03:13 GMT 48.71808 2.60629 7,700 171 239 3264
2017-09-21 12:03:09 GMT 48.72299 2.60517 7,450 170 239 3584
2017-09-21 12:03:07 GMT 48.72482 2.60467 7,375 169 239 3520
2017-09-21 12:03:07 GMT 48.72482 2.60467 7,375 170 239 3584
2017-09-21 12:03:04 GMT 48.72908 2.60355 7,125 166 240 3264
2017-09-21 12:03:02 GMT 48.73018 2.60318 7,075 164 241 3136
2017-09-21 12:02:59 GMT 48.73343 2.60179 6,925 158 242 3072
2017-09-21 12:02:57 GMT 48.73647 2.59993 6,775 151 242 3136
2017-09-21 12:02:56 GMT 48.73647 2.59993 6,775 151 242 3136
2017-09-21 12:02:55 GMT 48.73810 2.59862 6,750 151 242 3136
2017-09-21 12:02:52 GMT 48.74085 2.59617 6,550 144 242 3136
2017-09-21 12:02:49 GMT 48.74313 2.59362 6,400 135 243 3200
2017-09-21 12:02:46 GMT 48.74579 2.58989 6,250 129 243 3136
2017-09-21 12:02:45 GMT 48.74579 2.58989 6,250 129 243 3136
2017-09-21 12:02:45 GMT 48.74643 2.58876 6,200 129 243 3136
2017-09-21 12:02:43 GMT 48.74766 2.58658 6,125 124 244 3136
2017-09-21 12:02:40 GMT 48.74936 2.58298 5,975 115 244 3200
2017-09-21 12:02:38 GMT 48.75055 2.57982 5,875 115 244 3200
2017-09-21 12:02:35 GMT 48.75211 2.57411 5,700 107 246 3200
2017-09-21 12:02:35 GMT 48.75211 2.57411 5,700 107 246 3200
2017-09-21 12:02:33 GMT 48.75275 2.57094 5,575 102 246 3072
2017-09-21 12:02:29 GMT 48.75362 2.56404 5,375 97 247 2880
2017-09-21 12:02:27 GMT 48.75384 2.56073 5,300 93 246 2752
2017-09-21 12:02:25 GMT 48.75398 2.55665 5,200 91 245 2560
2017-09-21 12:02:23 GMT 48.75403 2.55305 5,100 91 244 2496
2017-09-21 12:02:18 GMT 48.75416 2.54543 4,925 90 240 2432
2017-09-21 12:02:14 GMT 48.75420 2.54008 4,800 90 238 2624
2017-09-21 12:02:12 GMT 48.75425 2.53582 4,700 90 236 2816
2017-09-21 12:02:07 GMT 48.75435 2.52615 4,450 90 234 2944
2017-09-21 12:02:04 GMT 48.75444 2.52115 4,250 90 231 3136
2017-09-21 12:02:01 GMT 48.75444 2.51876 4,175 90 231 3200
2017-09-21 12:01:57 GMT 48.75449 2.51221 3,950 90 228 3072
2017-09-21 12:01:55 GMT 48.75453 2.50813 3,825 90 229 3072
2017-09-21 12:01:51 GMT 48.75453 2.50156 3,625 89 228 3136
2017-09-21 12:01:49 GMT 48.75453 2.49715 3,500 89 227 3264
2017-09-21 12:01:44 GMT 48.75449 2.48953 3,275 89 226 3456
2017-09-21 12:01:41 GMT 48.75444 2.48601 3,100 89 226 3712
2017-09-21 12:01:38 GMT 48.75439 2.48067 2,900 89 226 3648
2017-09-21 12:01:35 GMT 48.75439 2.47561 2,700 89 226 3328
2017-09-21 12:01:33 GMT 48.75435 2.47157 2,525 89 225 3264
2017-09-21 12:01:31 GMT 48.75435 2.46983 2,475 90 224 3136
2017-09-21 12:01:26 GMT 48.75435 2.46311 2,250 90 223 2944
2017-09-21 12:01:24 GMT 48.75435 2.45883 2,125 90 223 2496
2017-09-21 12:01:20 GMT 48.75440 2.45347 1,975 91 222 1728
2017-09-21 12:01:17 GMT 48.75444 2.44822 1,900 90 222 896
2017-09-21 12:01:15 GMT 48.75449 2.44561 1,875 90 224 256
2017-09-21 12:01:12 GMT 48.75449 2.44023 1,850 90 225 256
2017-09-21 12:01:10 GMT 48.75453 2.43720 1,850 90 225 320
2017-09-21 12:01:08 GMT 48.75453 2.43318 1,825 89 224 192
2017-09-21 12:01:04 GMT 48.75449 2.42784 1,825 86 224 384
2017-09-21 12:01:01 GMT 48.75416 2.42184 1,800 79 225 -64
2017-09-21 12:00:57 GMT 48.75314 2.41468 1,800 72 223 0
2017-09-21 12:00:54 GMT 48.75262 2.41201 1,825 68 218 -64
2017-09-21 12:00:52 GMT 48.75183 2.40904 1,825 65 213 -128
2017-09-21 12:00:50 GMT 48.75114 2.40664 1,825 63 208 -64
2017-09-21 12:00:44 GMT 48.74826 2.39805 1,825 62 192 640
2017-09-21 12:00:39 GMT 48.74652 2.39307 1,775 62 183 704
2017-09-21 12:00:35 GMT 48.74515 2.38896 1,725 62 172 1344
2017-09-21 12:00:28 GMT 48.74271 2.38186 1,575 62 166 1472
We lost coverage of the aircraft here for a total of 99 minutes
2017-09-21 10:21:55 GMT 48.69855 2.25642 1,100 61 136 -896
2017-09-21 10:21:50 GMT 48.69717 2.25262 1,150 61 141 -640
2017-09-21 10:21:45 GMT 48.69569 2.24858 1,200 61 135 -576
2017-09-21 10:21:35 GMT 48.69229 2.23890 1,325 61 138 -960
2017-09-21 10:21:19 GMT 48.68747 2.22537 1,525 61 147 -896
2017-09-21 10:21:15 GMT 48.68646 2.22241 1,575 61 151 -640
2017-09-21 10:21:07 GMT 48.68391 2.21526 1,675 61 156 -1024
2017-09-21 10:21:04 GMT 48.68276 2.21198 1,725 61 155 -960
2017-09-21 10:20:53 GMT 48.67856 2.20016 1,925 61 159 -960
2017-09-21 10:20:43 GMT 48.67535 2.19119 2,050 62 166 -768
2017-09-21 10:20:32 GMT 48.67139 2.18014 2,200 61 170 -960
2017-09-21 10:20:25 GMT 48.66843 2.17177 2,325 61 171 -960
2017-09-21 10:20:23 GMT 48.66776 2.17002 2,375 61 173 -896
2017-09-21 10:20:12 GMT 48.66362 2.15838 2,525 61 178 -832
2017-09-21 10:20:07 GMT 48.66161 2.15267 2,600 61 184 -960
2017-09-21 10:20:03 GMT 48.65984 2.14761 2,675 62 184 -1024
2017-09-21 10:20:01 GMT 48.65941 2.14642 2,675 61 184 -960
2017-09-21 10:19:51 GMT 48.65520 2.13473 2,800 61 189 -256
2017-09-21 10:19:41 GMT 48.65077 2.12246 2,850 61 201 -128
2017-09-21 10:19:30 GMT 48.64604 2.10930 2,850 62 199 192
2017-09-21 10:19:26 GMT 48.64430 2.10430 2,850 61 204 64
2017-09-21 10:19:20 GMT 48.64188 2.09740 2,850 61 204 64
2017-09-21 10:19:18 GMT 48.64094 2.09470 2,850 61 204 128
2017-09-21 10:19:09 GMT 48.63661 2.08249 2,825 61 210 128
2017-09-21 10:19:06 GMT 48.63542 2.07916 2,800 61 220 64
2017-09-21 10:19:00 GMT 48.63247 2.07078 2,800 62 226 -128
2017-09-21 10:18:58 GMT 48.63145 2.06781 2,800 62 227 -64
2017-09-21 10:18:49 GMT 48.62689 2.05488 2,825 61 231 64
2017-09-21 10:18:38 GMT 48.62125 2.03948 2,825 60 232 0
2017-09-21 10:18:27 GMT 48.61562 2.02430 2,825 61 233 -320
2017-09-21 10:18:17 GMT 48.61073 2.01057 2,900 61 230 -384
2017-09-21 10:18:08 GMT 48.60519 1.99503 2,875 62 231 256
2017-09-21 10:18:02 GMT 48.60301 1.98881 2,850 62 232 128
2017-09-21 10:17:56 GMT 48.60007 1.98058 2,850 61 232 0
2017-09-21 10:17:47 GMT 48.59504 1.96662 2,850 62 231 -64
2017-09-21 10:17:36 GMT 48.58983 1.95152 2,850 62 225 64
2017-09-21 10:17:26 GMT 48.58522 1.93808 2,825 61 228 -64
2017-09-21 10:17:23 GMT 48.58299 1.93186 2,825 61 228 -64
2017-09-21 10:17:13 GMT 48.57825 1.91937 2,850 59 230 0
2017-09-21 10:17:05 GMT 48.57376 1.90859 2,850 53 236 64
2017-09-21 10:17:03 GMT 48.57248 1.90570 2,825 53 236 64
2017-09-21 10:16:53 GMT 48.56552 1.89282 2,825 46 242 -64
2017-09-21 10:16:44 GMT 48.55774 1.88310 2,850 31 257 -128
2017-09-21 10:16:32 GMT 48.54401 1.87007 2,850 45 277 -576
2017-09-21 10:16:22 GMT 48.53625 1.85727 2,950 56 283 -1024
2017-09-21 10:16:12 GMT 48.53046 1.83704 3,225 76 289 -1920
2017-09-21 10:16:03 GMT 48.52927 1.82127 3,525 103 286 -2944
2017-09-21 10:15:58 GMT 48.52996 1.81108 3,750 105 285 -2944
2017-09-21 10:15:52 GMT 48.53220 1.79922 4,050 112 284 -3328
2017-09-21 10:15:42 GMT 48.53909 1.78166 4,625 132 281 -1792
2017-09-21 10:15:31 GMT 48.54849 1.76725 4,875 137 289 -1216
2017-09-21 10:15:28 GMT 48.55165 1.76281 4,950 137 289 -1216
2017-09-21 10:15:20 GMT 48.56027 1.75087 5,125 137 301 -1728
2017-09-21 10:15:12 GMT 48.56776 1.74047 5,375 137 307 -2432
2017-09-21 10:15:10 GMT 48.56995 1.73743 5,450 137 307 -2624
2017-09-21 10:15:02 GMT 48.57761 1.72676 5,800 137 309 -3008
2017-09-21 10:14:59 GMT 48.58182 1.72077 6,000 136 309 -3520
2017-09-21 10:14:53 GMT 48.58773 1.71220 6,350 135 306 -3968
2017-09-21 10:14:50 GMT 48.59183 1.70621 6,600 135 306 -3584
2017-09-21 10:14:39 GMT 48.60146 1.69070 6,925 128 317 -1088
2017-09-21 10:14:30 GMT 48.60882 1.67382 7,050 118 331 -704
2017-09-21 10:14:28 GMT 48.60970 1.67112 7,050 112 340 -1024
2017-09-21 10:14:22 GMT 48.61354 1.65478 7,175 93 363 -2112
2017-09-21 10:14:18 GMT 48.61478 1.64605 7,275 97 359 -1792
2017-09-21 10:14:13 GMT 48.61565 1.63217 7,450 41 395 -4864
2017-09-21 10:14:11 GMT 48.61567 1.62829 7,500 90 367 -2304
2017-09-21 10:14:07 GMT 48.61519 1.61689 7,650 82 375 -2816
2017-09-21 10:13:58 GMT 48.61153 1.59252 8,175 69 386 -3840
2017-09-21 10:13:53 GMT 48.60805 1.57971 8,500 46 394 -4928
2017-09-21 10:13:46 GMT 48.60333 1.56700 8,900 56 392 -4672
2017-09-21 10:13:43 GMT 48.59956 1.55897 9,175 46 394 -4928
2017-09-21 10:13:37 GMT 48.59212 1.54611 9,675 42 395 -4864
2017-09-21 10:13:32 GMT 48.58548 1.53703 10,050 39 395 -4864
2017-09-21 10:13:29 GMT 48.58178 1.53274 10,250 30 397 -4736
2017-09-21 10:13:26 GMT 48.57754 1.52840 10,500 32 397 -4864
2017-09-21 10:13:23 GMT 48.57051 1.52204 10,825 29 398 -4672
2017-09-21 10:13:21 GMT 48.56909 1.52083 10,900 29 399 -4672
2017-09-21 10:13:15 GMT 48.55948 1.51279 11,325 28 399 -4672
2017-09-21 10:13:11 GMT 48.55324 1.50766 11,650 28 401 -4608
2017-09-21 10:13:09 GMT 48.54771 1.50301 11,900 29 416 -2560
2017-09-21 10:13:04 GMT 48.54176 1.49808 12,150 29 404 -4160
2017-09-21 10:13:01 GMT 48.53728 1.49428 12,325 29 405 -3904
2017-09-21 10:12:54 GMT 48.52460 1.48365 12,775 29 412 -3136
2017-09-21 10:12:51 GMT 48.52071 1.48034 12,900 29 416 -2560
2017-09-21 10:12:48 GMT 48.51497 1.47556 13,050 29 418 -2304
2017-09-21 10:12:45 GMT 48.50878 1.47043 13,175 28 424 -2240
2017-09-21 10:12:41 GMT 48.50368 1.46618 13,275 28 426 -2240
2017-09-21 10:12:37 GMT 48.49519 1.45916 13,450 28 428 -2176
2017-09-21 10:12:34 GMT 48.49151 1.45612 13,525 28 430 -2112
2017-09-21 10:12:30 GMT 48.48216 1.44836 13,725 28 431 -2304
2017-09-21 10:12:24 GMT 48.47246 1.44026 13,950 28 435 -2944
2017-09-21 10:12:20 GMT 48.46610 1.43505 14,100 28 435 -2944
2017-09-21 10:12:13 GMT 48.45483 1.42569 14,425 28 435 -3264
2017-09-21 10:12:11 GMT 48.44994 1.42172 14,550 28 435 -3136
2017-09-21 10:12:05 GMT 48.43821 1.41210 14,875 28 436 -2752
2017-09-21 10:12:02 GMT 48.43523 1.40965 14,950 28 437 -2688
2017-09-21 10:12:00 GMT 48.43222 1.40710 15,025 28 437 -2752
2017-09-21 10:11:57 GMT 48.42536 1.40155 15,200 28 438 -2816
2017-09-21 10:11:52 GMT 48.41775 1.39533 15,400 28 439 -2816
2017-09-21 10:11:50 GMT 48.41359 1.39195 15,500 28 440 -2688
2017-09-21 10:11:43 GMT 48.39920 1.38016 15,800 28 442 -2816
2017-09-21 10:11:40 GMT 48.39638 1.37794 15,925 28 442 -2880
2017-09-21 10:11:38 GMT 48.39134 1.37378 16,050 28 443 -2944
2017-09-21 10:11:30 GMT 48.37601 1.36132 16,450 28 445 -2880
2017-09-21 10:11:21 GMT 48.36095 1.34892 16,850 29 448 -3136
2017-09-21 10:11:19 GMT 48.35747 1.34604 16,950 28 447 -3200
2017-09-21 10:11:14 GMT 48.34897 1.33903 17,200 29 448 -3008
2017-09-21 10:11:11 GMT 48.34213 1.33332 17,325 29 449 -2944
2017-09-21 10:11:09 GMT 48.33891 1.33065 17,475 29 449 -2880
2017-09-21 10:11:07 GMT 48.33426 1.32674 17,575 29 450 -2752
2017-09-21 10:11:02 GMT 48.32693 1.32054 17,775 29 452 -2752
2017-09-21 10:11:00 GMT 48.32185 1.31625 17,875 29 452 -2752
2017-09-21 10:10:58 GMT 48.31796 1.31301 17,975 29 453 -2752
2017-09-21 10:10:55 GMT 48.31265 1.30843 18,050 29 456 -3200
2017-09-21 10:10:52 GMT 48.30945 1.30575 18,175 29 454 -2880
2017-09-21 10:10:50 GMT 48.30242 1.29971 18,375 29 456 -3072
2017-09-21 10:10:48 GMT 48.30121 1.29871 18,400 29 456 -3200
2017-09-21 10:10:46 GMT 48.29571 1.29407 18,550 29 456 -3264
2017-09-21 10:10:43 GMT 48.29301 1.29176 18,625 29 458 -3328
2017-09-21 10:10:41 GMT 48.28789 1.28735 18,775 29 458 -3328
2017-09-21 10:10:39 GMT 48.28198 1.28236 18,950 29 457 -3264
2017-09-21 10:10:37 GMT 48.28123 1.28171 18,975 29 458 -3328
2017-09-21 10:10:35 GMT 48.27653 1.27767 19,100 29 458 -3456
2017-09-21 10:10:33 GMT 48.27416 1.27568 19,175 29 458 -3456
2017-09-21 10:10:29 GMT 48.26624 1.26899 19,400 29 459 -3648
2017-09-21 10:10:24 GMT 48.25679 1.26097 19,725 29 458 -4288
2017-09-21 10:10:18 GMT 48.24541 1.25131 20,150 29 455 -4288
2017-09-21 10:10:16 GMT 48.24269 1.24904 20,250 29 455 -4352
2017-09-21 10:10:12 GMT 48.23598 1.24336 20,500 29 454 -3840
2017-09-21 10:10:06 GMT 48.22425 1.23343 20,850 29 456 -3136
2017-09-21 10:10:02 GMT 48.21757 1.22786 21,050 29 456 -3584
2017-09-21 10:09:56 GMT 48.20590 1.21793 21,425 29 455 -3904
2017-09-21 10:09:52 GMT 48.19805 1.21131 21,700 29 454 -4288
2017-09-21 10:09:46 GMT 48.18790 1.20271 22,100 29 450 -4800
2017-09-21 10:09:41 GMT 48.17826 1.19462 22,525 29 448 -4800
2017-09-21 10:09:37 GMT 48.17104 1.18840 22,825 29 444 -4672
2017-09-21 10:09:35 GMT 48.16617 1.18427 22,975 29 443 -4608
2017-09-21 10:09:30 GMT 48.15811 1.17725 23,375 30 441 -4480
2017-09-21 10:09:26 GMT 48.15070 1.17068 23,700 31 437 -4288
2017-09-21 10:09:21 GMT 48.14260 1.16321 24,025 33 435 -4160
2017-09-21 10:09:15 GMT 48.13311 1.15321 24,425 39 432 -4288
2017-09-21 10:09:08 GMT 48.12231 1.13894 24,950 46 428 -4288
2017-09-21 10:09:05 GMT 48.11825 1.13251 25,150 49 426 -4160
2017-09-21 10:09:03 GMT 48.11508 1.12692 25,275 51 425 -3968
2017-09-21 10:09:03 GMT 48.11551 1.12779 25,300 65 429 -320
2017-09-21 10:09:00 GMT 48.11262 1.12237 25,450 54 423 -3392
2017-09-21 10:08:57 GMT 48.10922 1.11532 25,625 56 422 -2752
2017-09-21 10:08:55 GMT 48.10555 1.10694 25,775 58 422 -2304
2017-09-21 10:08:52 GMT 48.10410 1.10323 25,825 62 423 -1152
2017-09-21 10:08:50 GMT 48.10185 1.09719 25,900 62 423 -1152
2017-09-21 10:08:44 GMT 48.09647 1.08103 25,975 65 429 -320
2017-09-21 10:08:41 GMT 48.09451 1.07469 25,975 66 433 -64
2017-09-21 10:08:39 GMT 48.09270 1.06883 26,000 66 433 -64
2017-09-21 10:08:36 GMT 48.09032 1.06067 26,000 67 436 -64
2017-09-21 10:08:34 GMT 48.08841 1.05356 26,000 69 439 -64
2017-09-21 10:08:31 GMT 48.08597 1.04336 26,000 73 445 -64
2017-09-21 10:08:29 GMT 48.08497 1.03884 26,000 72 444 -64
2017-09-21 10:08:26 GMT 48.08340 1.03134 26,000 76 450 -128
2017-09-21 10:08:24 GMT 48.08181 1.02236 26,000 77 451 -192
2017-09-21 10:08:18 GMT 48.07974 1.00813 26,000 80 455 -384
2017-09-21 10:08:12 GMT 48.07773 0.98678 26,050 85 463 -960
2017-09-21 10:08:07 GMT 48.07690 0.97188 26,125 86 468 -1408
2017-09-21 10:08:03 GMT 48.07641 0.95954 26,200 86 469 -1472
2017-09-21 10:07:58 GMT 48.07571 0.94297 26,300 86 472 -1920
2017-09-21 10:07:56 GMT 48.07549 0.93810 26,375 86 473 -1984
2017-09-21 10:07:53 GMT 48.07496 0.92560 26,500 86 475 -2304
2017-09-21 10:07:47 GMT 48.07416 0.90527 26,750 86 477 -2944
2017-09-21 10:07:43 GMT 48.07356 0.88976 27,000 86 478 -3584
2017-09-21 10:07:40 GMT 48.07324 0.88145 27,125 86 477 -3840
2017-09-21 10:07:37 GMT 48.07291 0.87299 27,300 86 477 -3904
2017-09-21 10:07:33 GMT 48.07245 0.86024 27,550 86 476 -3968
2017-09-21 10:07:31 GMT 48.07221 0.85327 27,675 86 475 -3968
2017-09-21 10:07:29 GMT 48.07201 0.84766 27,800 86 474 -3904
2017-09-21 10:07:27 GMT 48.07166 0.83862 27,975 86 474 -3904
2017-09-21 10:07:22 GMT 48.07114 0.82398 28,250 86 474 -3648
2017-09-21 10:07:20 GMT 48.07086 0.81771 28,375 86 474 -3520
2017-09-21 10:07:16 GMT 48.07040 0.80517 28,575 86 475 -2496
2017-09-21 10:07:12 GMT 48.06965 0.78588 28,775 86 478 -2816
2017-09-21 10:07:10 GMT 48.06963 0.78566 28,800 86 477 -2688
2017-09-21 10:07:05 GMT 48.06898 0.77028 29,025 86 479 -2944
2017-09-21 10:07:00 GMT 48.06825 0.75469 29,275 85 479 -2944
2017-09-21 10:06:56 GMT 48.06761 0.74137 29,450 85 480 -2880
2017-09-21 10:06:53 GMT 48.06714 0.73151 29,600 85 480 -2816
2017-09-21 10:06:51 GMT 48.06670 0.72235 29,700 85 481 -2752
2017-09-21 10:06:49 GMT 48.06647 0.71748 29,775 85 481 -2752
2017-09-21 10:06:46 GMT 48.06601 0.70821 29,900 85 483 -3392
2017-09-21 10:06:44 GMT 48.06569 0.70182 30,000 85 483 -2752
2017-09-21 10:06:40 GMT 48.06500 0.68843 30,175 85 483 -3136
2017-09-21 10:06:40 GMT 48.06467 0.68150 30,225 85 483 -3456
2017-09-21 10:06:34 GMT 48.06390 0.66721 30,525 85 483 -3520
2017-09-21 10:06:29 GMT 48.06304 0.65016 30,825 85 482 -3648
2017-09-21 10:06:25 GMT 48.06239 0.63678 31,075 85 481 -3648
2017-09-21 10:06:23 GMT 48.06193 0.62780 31,175 85 481 -3520
2017-09-21 10:06:19 GMT 48.06151 0.61840 31,400 86 481 -3392
2017-09-21 10:06:17 GMT 48.06114 0.60932 31,550 87 480 -3328
2017-09-21 10:06:15 GMT 48.06090 0.60298 31,650 87 480 -3328
2017-09-21 10:06:13 GMT 48.06072 0.59650 31,775 88 479 -3392
2017-09-21 10:06:10 GMT 48.06061 0.58605 31,925 91 478 -3456
2017-09-21 10:06:06 GMT 48.06074 0.57328 32,175 93 475 -3584
2017-09-21 10:06:04 GMT 48.06118 0.56291 32,350 94 474 -3712
2017-09-21 10:06:02 GMT 48.06118 0.56213 32,375 95 474 -3776
2017-09-21 10:06:00 GMT 48.06175 0.55316 32,525 96 473 -3904
2017-09-21 10:06:00 GMT 48.06175 0.55316 32,525 97 472 -3968
2017-09-21 10:05:58 GMT 48.06235 0.54629 32,675 98 471 -4160
2017-09-21 10:05:54 GMT 48.06351 0.53460 32,925 102 465 -4160
2017-09-21 10:05:52 GMT 48.06418 0.52913 33,050 102 465 -4160
2017-09-21 10:05:49 GMT 48.06551 0.51981 33,275 103 464 -4160
2017-09-21 10:05:47 GMT 48.06677 0.51185 33,425 104 463 -4160
2017-09-21 10:05:43 GMT 48.06900 0.50009 33,725 106 459 -4352
2017-09-21 10:05:41 GMT 48.06979 0.49622 33,800 108 457 -4480
2017-09-21 10:05:38 GMT 48.07231 0.48537 34,075 110 452 -4608
2017-09-21 10:05:33 GMT 48.07561 0.47298 34,450 113 448 -4928
2017-09-21 10:05:31 GMT 48.07827 0.46396 34,700 116 442 -5248
2017-09-21 10:05:28 GMT 48.08017 0.45812 34,875 117 438 -5248
2017-09-21 10:05:26 GMT 48.08194 0.45298 35,075 118 436 -5248
2017-09-21 10:05:23 GMT 48.08487 0.44502 35,325 120 431 -4992
2017-09-21 10:05:20 GMT 48.08790 0.43748 35,600 122 428 -4864
2017-09-21 10:05:18 GMT 48.09018 0.43213 35,750 124 424 -4544
2017-09-21 10:05:16 GMT 48.09228 0.42748 35,900 125 421 -4352
2017-09-21 10:05:13 GMT 48.09693 0.41797 36,200 128 416 -3840
2017-09-21 10:05:10 GMT 48.09922 0.41368 36,350 129 414 -3712
2017-09-21 10:05:08 GMT 48.10154 0.40945 36,475 131 410 -3264
2017-09-21 10:05:05 GMT 48.10748 0.39956 36,725 133 407 -2624
2017-09-21 10:05:03 GMT 48.10936 0.39668 36,750 133 407 -2624
2017-09-21 10:05:01 GMT 48.11060 0.39489 36,825 135 404 -1984
2017-09-21 10:04:59 GMT 48.11462 0.38910 36,925 138 401 -1024
2017-09-21 10:04:57 GMT 48.11609 0.38720 36,950 141 399 -320
2017-09-21 10:04:54 GMT 48.12151 0.38037 37,000 162 387 64
2017-09-21 10:04:49 GMT 48.12747 0.37354 37,000 145 396 0
2017-09-21 10:04:46 GMT 48.13297 0.36804 37,000 148 395 0
2017-09-21 10:04:43 GMT 48.13696 0.36447 37,000 162 387 64
2017-09-21 10:04:41 GMT 48.14335 0.35931 37,025 158 389 128
2017-09-21 10:04:38 GMT 48.14452 0.35843 37,000 154 391 64
2017-09-21 10:04:36 GMT 48.14831 0.35575 37,000 156 390 64
2017-09-21 10:04:34 GMT 48.15257 0.35307 37,000 159 388 128
2017-09-21 10:04:31 GMT 48.15764 0.35022 37,000 161 388 128
2017-09-21 10:04:29 GMT 48.16054 0.34882 37,000 163 387 64
2017-09-21 10:04:27 GMT 48.16420 0.34720 37,000 165 386 64
2017-09-21 10:04:23 GMT 48.17084 0.34466 37,000 170 385 -64
2017-09-21 10:04:21 GMT 48.17455 0.34360 37,000 172 383 -128
2017-09-21 10:04:18 GMT 48.18137 0.34206 37,000 173 383 -128
2017-09-21 10:04:14 GMT 48.18692 0.34115 37,000 174 382 -64
2017-09-21 10:04:11 GMT 48.19255 0.34036 37,000 174 382 0
2017-09-21 10:04:07 GMT 48.19860 0.33956 37,000 174 382 0
2017-09-21 10:04:05 GMT 48.20457 0.33874 37,000 174 382 0
2017-09-21 10:04:02 GMT 48.20760 0.33832 37,000 174 382 0
2017-09-21 10:04:00 GMT 48.21057 0.33790 37,000 174 382 0
2017-09-21 10:03:58 GMT 48.21584 0.33720 37,000 174 382 0
2017-09-21 10:03:56 GMT 48.21808 0.33684 37,000 174 382 0
2017-09-21 10:03:50 GMT 48.22856 0.33544 37,000 174 382 0
2017-09-21 10:03:46 GMT 48.23575 0.33445 37,000 174 382 0
2017-09-21 10:03:43 GMT 48.24206 0.33360 37,000 174 382 0
2017-09-21 10:03:40 GMT 48.24618 0.33304 37,000 174 381 0
2017-09-21 10:03:36 GMT 48.25447 0.33191 37,000 174 381 0
2017-09-21 10:03:30 GMT 48.26454 0.33050 37,000 174 381 0
2017-09-21 10:03:26 GMT 48.27136 0.32959 37,000 174 381 0
2017-09-21 10:03:24 GMT 48.27397 0.32923 37,000 174 381 0
2017-09-21 10:03:21 GMT 48.27992 0.32846 37,000 174 381 0
2017-09-21 10:03:19 GMT 48.28296 0.32807 37,000 174 381 0
2017-09-21 10:03:16 GMT 48.28889 0.32727 37,000 174 381 0
2017-09-21 10:03:14 GMT 48.29227 0.32677 37,000 174 381 0
2017-09-21 10:03:08 GMT 48.30204 0.32554 37,000 174 381 0
2017-09-21 10:03:06 GMT 48.31055 0.32438 37,000 175 381 0
2017-09-21 10:03:03 GMT 48.31396 0.32395 37,000 175 381 0
2017-09-21 10:02:59 GMT 48.31889 0.32330 37,000 175 381 64
2017-09-21 10:02:55 GMT 48.32561 0.32241 37,000 175 381 0
2017-09-21 10:02:53 GMT 48.32788 0.32214 37,000 175 381 0
2017-09-21 10:02:51 GMT 48.33416 0.32128 37,000 174 381 0
2017-09-21 10:02:47 GMT 48.33943 0.32058 37,000 174 381 0
2017-09-21 10:02:44 GMT 48.34428 0.31994 37,000 174 381 0
2017-09-21 10:02:41 GMT 48.34920 0.31925 37,000 174 381 0
2017-09-21 10:02:37 GMT 48.35774 0.31811 37,000 174 381 -64
2017-09-21 10:02:34 GMT 48.36269 0.31748 37,000 174 381 -64
2017-09-21 10:02:31 GMT 48.36717 0.31687 37,000 174 381 -64
2017-09-21 10:02:28 GMT 48.37312 0.31600 37,000 174 381 -64
2017-09-21 10:02:23 GMT 48.38239 0.31477 37,000 174 381 -64
2017-09-21 10:02:21 GMT 48.38658 0.31417 37,000 174 381 0
2017-09-21 10:02:16 GMT 48.39408 0.31318 37,000 174 380 0
2017-09-21 10:02:14 GMT 48.39702 0.31283 37,000 174 380 64
2017-09-21 10:02:12 GMT 48.40041 0.31234 37,000 174 380 0
2017-09-21 10:02:09 GMT 48.40641 0.31152 37,000 174 380 64
2017-09-21 10:02:06 GMT 48.41088 0.31094 37,000 174 380 64
2017-09-21 10:02:02 GMT 48.41763 0.31000 37,000 174 381 0
2017-09-21 10:02:02 GMT 48.41763 0.31000 37,000 174 381 0
2017-09-21 10:01:59 GMT 48.42322 0.30928 37,000 174 381 0
2017-09-21 10:01:55 GMT 48.43034 0.30827 37,000 174 381 -64
2017-09-21 10:01:52 GMT 48.43593 0.30754 37,000 174 381 0
2017-09-21 10:01:50 GMT 48.44007 0.30697 37,000 174 381 0
2017-09-21 10:01:48 GMT 48.44230 0.30668 37,000 174 381 64
2017-09-21 10:01:45 GMT 48.44829 0.30586 37,000 174 381 64
2017-09-21 10:01:41 GMT 48.45506 0.30494 37,000 174 382 64
2017-09-21 10:01:39 GMT 48.45990 0.30429 37,000 174 382 0
2017-09-21 10:01:35 GMT 48.46692 0.30332 37,000 174 382 0
2017-09-21 10:01:33 GMT 48.46819 0.30314 37,000 174 381 64
2017-09-21 10:01:31 GMT 48.47305 0.30255 37,000 174 382 0
2017-09-21 10:01:29 GMT 48.47644 0.30205 37,000 174 382 0
2017-09-21 10:01:24 GMT 48.48430 0.30104 37,000 174 381 64
2017-09-21 10:01:20 GMT 48.49104 0.30015 37,000 174 381 64
2017-09-21 10:01:16 GMT 48.49814 0.29917 37,000 175 380 64
2017-09-21 10:01:14 GMT 48.50259 0.29858 37,000 175 380 64
2017-09-21 10:01:12 GMT 48.50784 0.29790 37,000 175 380 0
2017-09-21 10:01:10 GMT 48.51009 0.29762 37,000 175 380 0
2017-09-21 10:01:06 GMT 48.51718 0.29663 37,000 175 380 0
2017-09-21 10:01:04 GMT 48.51984 0.29628 37,000 175 379 -64
2017-09-21 10:01:02 GMT 48.52277 0.29593 37,000 175 379 -64
2017-09-21 10:01:00 GMT 48.52913 0.29508 37,000 174 379 -64
2017-09-21 10:00:55 GMT 48.53546 0.29425 37,000 174 378 -64
2017-09-21 10:00:52 GMT 48.53993 0.29360 37,000 174 378 -64
2017-09-21 10:00:50 GMT 48.54663 0.29273 37,000 174 378 -64
2017-09-21 10:00:46 GMT 48.55183 0.29205 37,000 174 378 -64
2017-09-21 10:00:43 GMT 48.55701 0.29135 37,000 174 378 0
2017-09-21 10:00:40 GMT 48.56222 0.29063 37,000 175 379 0
2017-09-21 10:00:38 GMT 48.56515 0.29029 37,000 174 378 0
2017-09-21 10:00:35 GMT 48.57111 0.28948 37,000 175 379 0
2017-09-21 10:00:32 GMT 48.57521 0.28890 37,000 174 380 0
2017-09-21 10:00:30 GMT 48.57857 0.28846 37,000 174 381 -64
2017-09-21 10:00:28 GMT 48.58415 0.28776 37,000 174 382 -64
2017-09-21 10:00:22 GMT 48.59248 0.28663 37,000 174 384 -192
2017-09-21 10:00:20 GMT 48.59660 0.28607 37,000 174 385 -192
2017-09-21 10:00:18 GMT 48.60156 0.28536 37,025 174 386 -256
2017-09-21 10:00:14 GMT 48.60840 0.28442 37,025 174 388 -256
2017-09-21 10:00:12 GMT 48.61024 0.28417 37,025 174 389 -256
2017-09-21 10:00:09 GMT 48.61562 0.28348 37,050 174 392 0
2017-09-21 10:00:07 GMT 48.62022 0.28283 37,050 174 391 -128
2017-09-21 10:00:02 GMT 48.62979 0.28142 37,050 174 393 192
2017-09-21 09:59:59 GMT 48.63560 0.28064 37,050 174 395 320
2017-09-21 09:59:56 GMT 48.63908 0.28015 37,025 174 396 384
2017-09-21 09:59:52 GMT 48.64810 0.27888 36,975 174 401 320
2017-09-21 09:59:48 GMT 48.65561 0.27784 36,950 174 404 128
2017-09-21 09:59:46 GMT 48.65877 0.27740 36,925 174 407 0
2017-09-21 09:59:44 GMT 48.66510 0.27654 36,950 174 411 64
2017-09-21 09:59:41 GMT 48.66762 0.27618 36,975 174 410 0
2017-09-21 09:59:38 GMT 48.67328 0.27536 37,000 174 411 64
2017-09-21 09:59:36 GMT 48.67851 0.27466 37,000 174 411 64
2017-09-21 09:59:31 GMT 48.68661 0.27350 37,000 174 411 0
2017-09-21 09:59:29 GMT 48.69062 0.27300 37,000 174 411 0
2017-09-21 09:59:27 GMT 48.69575 0.27226 37,000 174 411 0
2017-09-21 09:59:25 GMT 48.69788 0.27198 37,000 174 411 0
2017-09-21 09:59:21 GMT 48.70944 0.27036 37,000 174 409 64
2017-09-21 09:59:18 GMT 48.71118 0.27015 37,000 174 410 0
2017-09-21 09:59:16 GMT 48.71480 0.26966 37,000 174 410 0
2017-09-21 09:59:14 GMT 48.72093 0.26881 37,000 174 410 64
2017-09-21 09:59:10 GMT 48.72697 0.26797 37,000 174 410 64
2017-09-21 09:59:10 GMT 48.72613 0.26808 37,000 174 410 64
2017-09-21 09:59:06 GMT 48.73380 0.26705 37,000 174 410 64
2017-09-21 09:59:04 GMT 48.73860 0.26642 37,000 174 410 64
2017-09-21 09:59:01 GMT 48.74501 0.26557 36,975 174 410 128
2017-09-21 09:58:59 GMT 48.74862 0.26504 36,975 174 409 128
2017-09-21 09:58:57 GMT 48.75069 0.26480 36,975 174 409 128
2017-09-21 09:58:55 GMT 48.75579 0.26411 36,975 174 409 64
2017-09-21 09:58:53 GMT 48.76156 0.26331 36,975 174 409 64
2017-09-21 09:58:48 GMT 48.77000 0.26219 36,975 174 409 0
2017-09-21 09:58:45 GMT 48.77399 0.26163 36,975 174 409 0
2017-09-21 09:58:43 GMT 48.77925 0.26092 36,975 174 409 0
2017-09-21 09:58:38 GMT 48.78847 0.25970 36,975 174 409 0
2017-09-21 09:58:35 GMT 48.79331 0.25905 36,975 174 409 0
2017-09-21 09:58:32 GMT 48.79999 0.25811 36,975 174 409 0
2017-09-21 09:58:30 GMT 48.80378 0.25760 36,975 174 409 0
2017-09-21 09:58:29 GMT 48.80378 0.25760 36,975 174 409 0
2017-09-21 09:58:27 GMT 48.80777 0.25705 36,975 174 409 0
2017-09-21 09:58:23 GMT 48.81686 0.25579 36,975 174 409 64
2017-09-21 09:58:21 GMT 48.81863 0.25558 36,975 174 409 128
2017-09-21 09:58:19 GMT 48.82268 0.25500 36,975 174 409 128
2017-09-21 09:58:17 GMT 48.82632 0.25449 36,975 174 409 64
2017-09-21 09:58:14 GMT 48.83354 0.25346 36,950 174 409 64
2017-09-21 09:58:12 GMT 48.83832 0.25276 36,950 174 409 0
2017-09-21 09:58:08 GMT 48.84270 0.25218 36,950 174 409 64
2017-09-21 09:58:06 GMT 48.84754 0.25153 36,950 174 409 0
2017-09-21 09:58:01 GMT 48.85680 0.25022 36,950 174 409 0
2017-09-21 09:57:58 GMT 48.86124 0.24959 36,950 174 409 -64
2017-09-21 09:57:56 GMT 48.86682 0.24886 36,950 174 409 -64
2017-09-21 09:57:53 GMT 48.87282 0.24799 36,950 174 409 -64
2017-09-21 09:57:51 GMT 48.87636 0.24755 36,950 174 409 -64
2017-09-21 09:57:49 GMT 48.87887 0.24719 36,950 174 408 0
2017-09-21 09:57:46 GMT 48.88692 0.24607 36,975 174 408 64
2017-09-21 09:57:44 GMT 48.88967 0.24568 36,950 174 410 -64
2017-09-21 09:57:41 GMT 48.89330 0.24524 36,950 174 408 64
2017-09-21 09:57:38 GMT 48.89896 0.24445 36,950 174 408 64
2017-09-21 09:57:34 GMT 48.90779 0.24318 36,950 174 408 64
2017-09-21 09:57:31 GMT 48.91374 0.24242 36,950 174 408 64
2017-09-21 09:57:29 GMT 48.91737 0.24192 36,950 174 408 0
2017-09-21 09:57:27 GMT 48.92263 0.24119 36,950 174 408 0
2017-09-21 09:57:24 GMT 48.92622 0.24069 36,950 174 409 -64
2017-09-21 09:57:20 GMT 48.93385 0.23968 36,950 174 409 -64
2017-09-21 09:57:18 GMT 48.93781 0.23910 36,950 174 409 -64
2017-09-21 09:57:18 GMT 48.93781 0.23910 36,950 174 409 -64
2017-09-21 09:57:16 GMT 48.94144 0.23859 36,950 174 409 -64
2017-09-21 09:57:14 GMT 48.94469 0.23818 36,950 174 409 -64
2017-09-21 09:57:11 GMT 48.95108 0.23729 36,950 174 409 -64
2017-09-21 09:57:09 GMT 48.95475 0.23678 36,975 174 409 -64
2017-09-21 09:57:08 GMT 48.95590 0.23656 36,975 174 409 -64
2017-09-21 09:57:03 GMT 48.96741 0.23498 36,975 174 409 -64
2017-09-21 09:56:58 GMT 48.97563 0.23381 36,975 174 409 0
2017-09-21 09:56:56 GMT 48.98119 0.23303 36,975 174 410 -128
2017-09-21 09:56:52 GMT 48.98650 0.23230 36,975 174 409 0
2017-09-21 09:56:48 GMT 48.99371 0.23128 36,975 174 410 -128
2017-09-21 09:56:45 GMT 49.00014 0.23035 36,975 174 410 -64
2017-09-21 09:56:41 GMT 49.00619 0.22948 36,975 174 410 -128
2017-09-21 09:56:39 GMT 49.01141 0.22876 37,000 174 410 -128
2017-09-21 09:56:37 GMT 49.01500 0.22825 37,000 174 410 -128
2017-09-21 09:56:34 GMT 49.02067 0.22746 37,000 174 410 -64
2017-09-21 09:56:32 GMT 49.02635 0.22670 37,000 174 411 64
2017-09-21 09:56:27 GMT 49.03363 0.22564 37,000 174 410 -64
2017-09-21 09:56:24 GMT 49.04123 0.22452 37,025 174 411 64
2017-09-21 09:56:23 GMT 49.04330 0.22428 37,025 174 411 64
2017-09-21 09:56:20 GMT 49.04767 0.22363 37,000 174 410 0
2017-09-21 09:56:18 GMT 49.05093 0.22320 37,000 174 411 64
2017-09-21 09:56:15 GMT 49.05661 0.22240 37,000 174 411 64
2017-09-21 09:56:13 GMT 49.05977 0.22197 37,000 174 411 64
2017-09-21 09:56:11 GMT 49.06426 0.22135 37,000 174 412 64
2017-09-21 09:56:07 GMT 49.07071 0.22050 37,000 174 412 64
2017-09-21 09:56:05 GMT 49.07565 0.21980 37,000 174 412 0
2017-09-21 09:56:00 GMT 49.08696 0.21825 37,000 174 412 0
2017-09-21 09:55:56 GMT 49.09180 0.21763 37,000 174 412 0
2017-09-21 09:55:54 GMT 49.09622 0.21698 37,000 174 412 0
2017-09-21 09:55:50 GMT 49.10435 0.21592 37,000 174 411 -64
2017-09-21 09:55:48 GMT 49.10797 0.21543 37,000 174 411 -64
2017-09-21 09:55:45 GMT 49.11324 0.21466 37,000 174 411 0
2017-09-21 09:55:43 GMT 49.11731 0.21409 37,000 174 411 0
2017-09-21 09:55:41 GMT 49.12093 0.21360 37,000 174 411 0
2017-09-21 09:55:37 GMT 49.12775 0.21268 37,000 174 411 0
2017-09-21 09:55:36 GMT 49.13223 0.21205 37,000 174 410 0
2017-09-21 09:55:35 GMT 49.13223 0.21205 37,000 174 410 0
2017-09-21 09:55:35 GMT 49.13223 0.21205 37,000 174 410 0
2017-09-21 09:55:33 GMT 49.13631 0.21149 37,000 174 410 0
2017-09-21 09:55:30 GMT 49.14226 0.21064 37,000 174 410 0
2017-09-21 09:55:27 GMT 49.14912 0.20966 37,000 174 410 0
2017-09-21 09:55:25 GMT 49.15074 0.20939 37,000 174 410 64
2017-09-21 09:55:23 GMT 49.15553 0.20874 37,000 174 410 64
2017-09-21 09:55:20 GMT 49.16279 0.20773 37,000 174 410 0
2017-09-21 09:55:16 GMT 49.16726 0.20708 37,000 174 410 0
2017-09-21 09:55:14 GMT 49.17247 0.20635 37,000 174 410 0
2017-09-21 09:55:12 GMT 49.17609 0.20578 37,000 174 410 0
2017-09-21 09:55:10 GMT 49.17969 0.20527 37,000 174 410 0
2017-09-21 09:55:08 GMT 49.18378 0.20473 37,000 174 410 0
2017-09-21 09:55:04 GMT 49.19226 0.20354 37,000 174 411 -64
2017-09-21 09:55:02 GMT 49.19504 0.20311 37,000 174 411 -64
2017-09-21 09:54:59 GMT 49.20073 0.20231 37,000 174 411 -64
2017-09-21 09:54:56 GMT 49.20634 0.20156 37,000 174 411 -64
2017-09-21 09:54:53 GMT 49.21161 0.20078 37,025 174 411 -64
2017-09-21 09:54:51 GMT 49.21527 0.20029 37,025 174 411 64
2017-09-21 09:54:47 GMT 49.22252 0.19927 37,025 174 411 64
2017-09-21 09:54:44 GMT 49.22813 0.19846 37,025 174 411 64
2017-09-21 09:54:41 GMT 49.23340 0.19775 37,025 174 411 128
2017-09-21 09:54:38 GMT 49.23903 0.19698 37,000 174 412 64
2017-09-21 09:54:36 GMT 49.24265 0.19649 37,000 174 411 64
2017-09-21 09:54:34 GMT 49.24631 0.19592 37,000 174 412 64
2017-09-21 09:54:31 GMT 49.25400 0.19487 37,000 174 412 64
2017-09-21 09:54:28 GMT 49.25844 0.19430 37,000 174 412 64
2017-09-21 09:54:25 GMT 49.26335 0.19363 37,000 175 413 256
2017-09-21 09:54:23 GMT 49.26898 0.19291 36,975 175 413 128
2017-09-21 09:54:20 GMT 49.27387 0.19226 36,975 175 413 192
2017-09-21 09:54:16 GMT 49.28357 0.19099 36,975 175 413 448
2017-09-21 09:54:15 GMT 49.28565 0.19074 36,975 175 413 384
2017-09-21 09:54:13 GMT 49.28928 0.19031 36,950 175 413 448
2017-09-21 09:54:11 GMT 49.29291 0.18987 36,950 175 412 576
2017-09-21 09:54:04 GMT 49.30385 0.18843 36,875 175 412 640
2017-09-21 09:54:04 GMT 49.30385 0.18843 36,875 175 412 704
2017-09-21 09:54:00 GMT 49.31305 0.18726 36,850 175 412 704
2017-09-21 09:54:00 GMT 49.31305 0.18726 36,850 175 412 768
2017-09-21 09:53:58 GMT 49.31479 0.18698 36,825 175 412 768
2017-09-21 09:53:55 GMT 49.32042 0.18626 36,775 174 412 832
2017-09-21 09:53:51 GMT 49.32935 0.18508 36,725 174 412 832
2017-09-21 09:53:49 GMT 49.33379 0.18444 36,700 174 412 832
2017-09-21 09:53:49 GMT 49.33379 0.18444 36,700 174 412 832
2017-09-21 09:53:49 GMT 49.33257 0.18467 36,700 174 412 832
2017-09-21 09:53:45 GMT 49.33983 0.18360 36,650 174 412 704
2017-09-21 09:53:43 GMT 49.34349 0.18310 36,625 174 413 704
2017-09-21 09:53:40 GMT 49.35123 0.18198 36,575 174 413 704
2017-09-21 09:53:39 GMT 49.35196 0.18184 36,575 174 413 640
2017-09-21 09:53:35 GMT 49.36041 0.18055 36,525 174 413 640
2017-09-21 09:53:32 GMT 49.36409 0.17994 36,500 174 413 576
2017-09-21 09:53:30 GMT 49.36775 0.17930 36,500 173 411 576
2017-09-21 09:53:28 GMT 49.37409 0.17824 36,475 173 411 512
2017-09-21 09:53:28 GMT 49.37409 0.17824 36,475 173 411 512
2017-09-21 09:53:27 GMT 49.37544 0.17804 36,450 173 411 576
2017-09-21 09:53:24 GMT 49.38029 0.17716 36,425 173 411 640
2017-09-21 09:53:21 GMT 49.38634 0.17607 36,400 173 411 960
2017-09-21 09:53:19 GMT 49.39073 0.17536 36,375 173 411 960
2017-09-21 09:53:18 GMT 49.39073 0.17536 36,375 173 411 1024
2017-09-21 09:53:14 GMT 49.39961 0.17395 36,275 175 411 1088
2017-09-21 09:53:10 GMT 49.40643 0.17332 36,200 186 409 1408
2017-09-21 09:53:08 GMT 49.41092 0.17318 36,150 181 410 1408
2017-09-21 09:53:08 GMT 49.41092 0.17318 36,150 181 410 1408
2017-09-21 09:53:06 GMT 49.41495 0.17332 36,100 186 409 1408
2017-09-21 09:53:04 GMT 49.42021 0.17367 36,050 186 409 1408
2017-09-21 09:53:00 GMT 49.42782 0.17489 35,950 192 410 1088
2017-09-21 09:52:58 GMT 49.42983 0.17535 35,925 198 409 896
2017-09-21 09:52:56 GMT 49.43447 0.17660 35,900 197 408 1088
2017-09-21 09:52:51 GMT 49.44173 0.17903 35,800 196 409 896
2017-09-21 09:52:49 GMT 49.44594 0.18077 35,775 198 409 768
2017-09-21 09:52:47 GMT 49.45053 0.18283 35,750 197 409 832
2017-09-21 09:52:46 GMT 49.45061 0.18286 35,725 198 409 768
2017-09-21 09:52:43 GMT 49.45752 0.18612 35,675 197 408 1088
2017-09-21 09:52:38 GMT 49.46722 0.19067 35,625 197 408 1152
2017-09-21 09:52:36 GMT 49.46837 0.19125 35,600 197 408 1088
2017-09-21 09:52:36 GMT 49.46837 0.19125 35,600 198 409 1024
2017-09-21 09:52:33 GMT 49.47414 0.19392 35,550 197 409 1152
2017-09-21 09:52:30 GMT 49.47958 0.19649 35,475 197 408 1152
2017-09-21 09:52:28 GMT 49.48340 0.19827 35,450 197 408 1088
2017-09-21 09:52:25 GMT 49.48952 0.20115 35,375 197 408 1088
2017-09-21 09:52:23 GMT 49.49300 0.20274 35,350 198 409 1152
2017-09-21 09:52:21 GMT 49.49725 0.20476 35,300 198 409 1152
2017-09-21 09:52:18 GMT 49.50380 0.20780 35,225 198 409 1152
2017-09-21 09:52:18 GMT 49.50307 0.20744 35,250 198 409 1152
2017-09-21 09:52:16 GMT 49.50870 0.21011 35,200 198 410 1152
2017-09-21 09:52:15 GMT 49.50842 0.20997 35,175 198 409 1152
2017-09-21 09:52:11 GMT 49.51534 0.21322 35,100 198 410 1152
2017-09-21 09:52:09 GMT 49.52106 0.21597 35,075 198 410 1152
2017-09-21 09:52:07 GMT 49.52157 0.21616 35,050 198 410 1088
2017-09-21 09:52:04 GMT 49.52774 0.21915 34,975 198 410 1088
2017-09-21 09:51:59 GMT 49.53800 0.22396 34,900 198 411 1216
2017-09-21 09:51:56 GMT 49.54166 0.22573 34,825 198 411 1216
2017-09-21 09:51:54 GMT 49.54514 0.22732 34,800 198 411 1216
2017-09-21 09:51:50 GMT 49.55211 0.23064 34,725 198 411 1216
2017-09-21 09:51:46 GMT 49.56068 0.23472 34,625 198 412 1216
2017-09-21 09:51:44 GMT 49.56258 0.23563 34,600 198 412 1216
2017-09-21 09:51:42 GMT 49.56642 0.23744 34,550 198 412 1152
2017-09-21 09:51:40 GMT 49.57106 0.23970 34,500 198 412 1024
2017-09-21 09:51:38 GMT 49.57503 0.24156 34,475 198 412 1152
2017-09-21 09:51:34 GMT 49.58200 0.24489 34,400 198 412 960
2017-09-21 09:51:32 GMT 49.58549 0.24652 34,350 198 412 960
2017-09-21 09:51:29 GMT 49.58977 0.24860 34,325 198 412 1024
2017-09-21 09:51:26 GMT 49.59833 0.25269 34,250 198 414 960
2017-09-21 09:51:24 GMT 49.59906 0.25305 34,225 198 414 1024
2017-09-21 09:51:21 GMT 49.60728 0.25699 34,175 198 414 960
2017-09-21 09:51:18 GMT 49.61229 0.25941 34,125 198 414 960
2017-09-21 09:51:16 GMT 49.61499 0.26071 34,100 198 414 960
2017-09-21 09:51:14 GMT 49.61929 0.26280 34,050 198 414 960
2017-09-21 09:51:12 GMT 49.62085 0.26353 34,050 198 414 960
2017-09-21 09:51:08 GMT 49.63055 0.26822 33,950 198 414 960
2017-09-21 09:51:06 GMT 49.63446 0.27013 33,925 198 414 960
2017-09-21 09:51:03 GMT 49.63916 0.27242 33,875 198 414 960
2017-09-21 09:51:00 GMT 49.64536 0.27540 33,825 198 414 960
2017-09-21 09:50:58 GMT 49.65006 0.27762 33,775 198 414 1024
2017-09-21 09:50:54 GMT 49.65471 0.27985 33,725 198 414 1024
2017-09-21 09:50:52 GMT 49.65858 0.28178 33,700 198 415 1024
2017-09-21 09:50:50 GMT 49.66211 0.28342 33,675 198 415 1024
2017-09-21 09:50:46 GMT 49.66914 0.28680 33,600 198 415 1024
2017-09-21 09:50:43 GMT 49.67464 0.28950 33,550 198 416 1024
2017-09-21 09:50:41 GMT 49.67817 0.29121 33,525 198 416 1024
2017-09-21 09:50:39 GMT 49.68366 0.29388 33,475 198 416 1024
2017-09-21 09:50:35 GMT 49.69223 0.29804 33,400 198 417 960
2017-09-21 09:50:31 GMT 49.69731 0.30057 33,350 198 417 960
2017-09-21 09:50:28 GMT 49.70247 0.30309 33,300 198 418 960
2017-09-21 09:50:24 GMT 49.71030 0.30689 33,250 198 418 960
2017-09-21 09:50:24 GMT 49.71030 0.30689 33,250 198 418 1024
2017-09-21 09:50:19 GMT 49.71854 0.31080 33,175 196 419 704
2017-09-21 09:50:16 GMT 49.72528 0.31393 33,125 185 420 -64
2017-09-21 09:50:12 GMT 49.73090 0.31622 33,075 190 418 320
2017-09-21 09:50:10 GMT 49.73767 0.31868 33,050 190 418 320
2017-09-21 09:50:07 GMT 49.74252 0.32012 33,025 183 420 -64
2017-09-21 09:50:03 GMT 49.74989 0.32193 33,000 182 421 -64
2017-09-21 09:50:01 GMT 49.75319 0.32251 33,000 185 420 -64
2017-09-21 09:49:59 GMT 49.75815 0.32328 33,000 185 420 -64
2017-09-21 09:49:56 GMT 49.76183 0.32365 33,000 181 421 0
2017-09-21 09:49:54 GMT 49.76559 0.32395 33,000 183 420 -64
2017-09-21 09:49:52 GMT 49.76970 0.32417 33,000 181 421 0
2017-09-21 09:49:49 GMT 49.77718 0.32431 33,000 181 421 0
2017-09-21 09:49:46 GMT 49.78088 0.32439 33,000 181 421 0
2017-09-21 09:49:43 GMT 49.78793 0.32460 33,000 181 421 0
2017-09-21 09:49:39 GMT 49.79750 0.32482 33,000 181 420 0
2017-09-21 09:49:36 GMT 49.80442 0.32499 33,000 181 420 0
2017-09-21 09:49:33 GMT 49.80698 0.32499 33,000 181 420 0
2017-09-21 09:49:30 GMT 49.81318 0.32514 33,000 181 420 0
2017-09-21 09:49:28 GMT 49.81815 0.32532 33,000 181 420 0
2017-09-21 09:49:25 GMT 49.82314 0.32540 33,000 181 420 0
2017-09-21 09:49:22 GMT 49.82932 0.32554 33,000 181 420 0
2017-09-21 09:49:18 GMT 49.83636 0.32573 33,000 181 420 0
2017-09-21 09:49:15 GMT 49.84172 0.32583 33,000 181 420 0
2017-09-21 09:49:11 GMT 49.84918 0.32605 33,000 181 420 0
2017-09-21 09:49:09 GMT 49.85498 0.32618 33,000 181 420 0
2017-09-21 09:49:06 GMT 49.86205 0.32632 33,000 181 420 0
2017-09-21 09:49:06 GMT 49.85957 0.32627 33,000 181 420 0
2017-09-21 09:49:01 GMT 49.86904 0.32655 33,000 181 420 0
2017-09-21 09:48:59 GMT 49.87444 0.32670 33,000 181 420 0
2017-09-21 09:48:57 GMT 49.87734 0.32677 33,000 181 420 0
2017-09-21 09:48:55 GMT 49.88226 0.32684 33,000 181 420 0
2017-09-21 09:48:51 GMT 49.88845 0.32707 33,000 181 420 -64
2017-09-21 09:48:49 GMT 49.89505 0.32721 33,000 181 419 -64
2017-09-21 09:48:47 GMT 49.89823 0.32729 33,000 181 419 0
2017-09-21 09:48:45 GMT 49.90172 0.32736 33,000 181 419 0
2017-09-21 09:48:45 GMT 49.90251 0.32736 33,000 181 419 64
2017-09-21 09:48:42 GMT 49.90870 0.32759 33,000 181 419 64
2017-09-21 09:48:39 GMT 49.91203 0.32764 33,000 181 419 64
2017-09-21 09:48:37 GMT 49.91489 0.32773 33,000 181 419 64
2017-09-21 09:48:37 GMT 49.91611 0.32771 33,000 181 419 0
2017-09-21 09:48:35 GMT 49.92104 0.32788 33,000 181 419 0
2017-09-21 09:48:32 GMT 49.92769 0.32800 33,000 181 419 0
2017-09-21 09:48:30 GMT 49.92847 0.32800 33,000 181 419 0
2017-09-21 09:48:28 GMT 49.93218 0.32814 33,000 181 419 0
2017-09-21 09:48:25 GMT 49.94241 0.32833 33,000 181 419 0
2017-09-21 09:48:23 GMT 49.94380 0.32836 33,000 181 419 0
2017-09-21 09:48:23 GMT 49.94380 0.32836 33,000 181 419 0
2017-09-21 09:48:21 GMT 49.94790 0.32848 33,000 181 419 0
2017-09-21 09:48:18 GMT 49.95493 0.32862 33,000 181 418 128
2017-09-21 09:48:16 GMT 49.95694 0.32872 33,000 181 419 0
2017-09-21 09:48:13 GMT 49.96481 0.32887 33,000 181 419 64
2017-09-21 09:48:10 GMT 49.96805 0.32900 33,000 181 419 64
2017-09-21 09:48:04 GMT 49.98006 0.32923 33,000 181 419 128
2017-09-21 09:48:01 GMT 49.98421 0.32937 33,000 181 419 192
2017-09-21 09:47:59 GMT 49.99036 0.32952 33,000 181 419 192
2017-09-21 09:47:56 GMT 49.99576 0.32966 32,975 181 419 192
2017-09-21 09:47:54 GMT 49.99901 0.32974 32,975 181 419 256
2017-09-21 09:47:52 GMT 50.00278 0.32981 32,975 181 420 320
2017-09-21 09:47:50 GMT 50.00729 0.32995 32,950 181 420 512
2017-09-21 09:47:47 GMT 50.01512 0.33017 32,950 181 420 640
2017-09-21 09:47:46 GMT 50.01512 0.33017 32,950 181 420 640
2017-09-21 09:47:44 GMT 50.02162 0.33031 32,900 181 419 960
2017-09-21 09:47:40 GMT 50.02759 0.33041 32,850 181 419 1152
2017-09-21 09:47:38 GMT 50.03046 0.33053 32,825 181 419 1152
2017-09-21 09:47:34 GMT 50.03742 0.33067 32,750 181 419 1088
2017-09-21 09:47:32 GMT 50.04161 0.33078 32,725 181 419 1152
2017-09-21 09:47:30 GMT 50.04487 0.33085 32,675 181 419 1152
2017-09-21 09:47:28 GMT 50.04854 0.33093 32,650 181 419 1280
2017-09-21 09:47:26 GMT 50.05236 0.33100 32,600 181 419 1408
2017-09-21 09:47:24 GMT 50.05720 0.33115 32,550 181 422 832
2017-09-21 09:47:22 GMT 50.06580 0.33132 32,475 181 419 1408
2017-09-21 09:47:18 GMT 50.06923 0.33140 32,425 181 419 1536
2017-09-21 09:47:15 GMT 50.07454 0.33154 32,350 181 420 1600
2017-09-21 09:47:13 GMT 50.08038 0.33167 32,275 181 420 1536
2017-09-21 09:47:11 GMT 50.08246 0.33169 32,250 181 420 1664
2017-09-21 09:47:09 GMT 50.08868 0.33183 32,175 181 420 1728
2017-09-21 09:47:06 GMT 50.09152 0.33190 32,125 181 420 1728
2017-09-21 09:47:03 GMT 50.09812 0.33204 32,025 181 421 1728
2017-09-21 09:47:01 GMT 50.10310 0.33212 31,950 181 421 1728
2017-09-21 09:46:59 GMT 50.10608 0.33219 31,900 181 423 1920
2017-09-21 09:46:57 GMT 50.10897 0.33226 31,875 181 422 1856
2017-09-21 09:46:55 GMT 50.11395 0.33241 31,800 181 422 1856
2017-09-21 09:46:53 GMT 50.11767 0.33248 31,725 181 422 1856
2017-09-21 09:46:51 GMT 50.12144 0.33256 31,675 181 424 1856
2017-09-21 09:46:49 GMT 50.12480 0.33263 31,625 181 425 1728
2017-09-21 09:46:46 GMT 50.13103 0.33278 31,525 181 425 1728
2017-09-21 09:46:41 GMT 50.13986 0.33299 31,375 182 426 1024
2017-09-21 09:46:39 GMT 50.14568 0.33313 31,325 181 426 1280
2017-09-21 09:46:36 GMT 50.15156 0.33330 31,250 181 426 1280
2017-09-21 09:46:33 GMT 50.15696 0.33345 31,175 181 426 1216
2017-09-21 09:46:30 GMT 50.16329 0.33360 31,125 181 423 704
2017-09-21 09:46:28 GMT 50.16627 0.33367 31,100 182 426 1088
2017-09-21 09:46:24 GMT 50.17383 0.33385 31,025 182 425 1152
2017-09-21 09:46:20 GMT 50.18175 0.33407 30,950 182 425 1088
2017-09-21 09:46:18 GMT 50.18676 0.33427 30,900 182 425 1024
2017-09-21 09:46:14 GMT 50.19347 0.33443 30,850 181 425 896
2017-09-21 09:46:11 GMT 50.19933 0.33456 30,800 181 424 768
2017-09-21 09:46:08 GMT 50.20920 0.33486 30,750 181 423 704
2017-09-21 09:46:06 GMT 50.21096 0.33486 30,725 181 422 832
2017-09-21 09:46:03 GMT 50.21681 0.33501 30,700 181 422 896
2017-09-21 09:46:00 GMT 50.22251 0.33516 30,675 181 421 1024
2017-09-21 09:45:57 GMT 50.22679 0.33531 30,625 181 421 1088
2017-09-21 09:45:55 GMT 50.23135 0.33538 30,575 181 420 1216
2017-09-21 09:45:53 GMT 50.23709 0.33559 30,525 181 420 1216
2017-09-21 09:45:50 GMT 50.24043 0.33568 30,475 181 420 1216
2017-09-21 09:45:48 GMT 50.24579 0.33581 30,425 181 420 1216
2017-09-21 09:45:46 GMT 50.24751 0.33582 30,400 181 419 1152
2017-09-21 09:45:44 GMT 50.25247 0.33595 30,350 181 420 1216
2017-09-21 09:45:42 GMT 50.25696 0.33605 30,325 181 419 1216
2017-09-21 09:45:40 GMT 50.26112 0.33617 30,275 181 418 1344
2017-09-21 09:45:38 GMT 50.26399 0.33620 30,250 181 419 1216
2017-09-21 09:45:38 GMT 50.26315 0.33620 30,250 181 419 1216
2017-09-21 09:45:36 GMT 50.26648 0.33624 30,225 181 419 1280
2017-09-21 09:45:34 GMT 50.27227 0.33642 30,150 181 419 1344
2017-09-21 09:45:32 GMT 50.27431 0.33646 30,125 181 418 1344
2017-09-21 09:45:30 GMT 50.28131 0.33660 30,050 181 418 1408
2017-09-21 09:45:28 GMT 50.28303 0.33664 30,025 181 418 1344
2017-09-21 09:45:26 GMT 50.28712 0.33672 29,975 181 418 1344
2017-09-21 09:45:24 GMT 50.29159 0.33686 29,925 181 418 1344
2017-09-21 09:45:22 GMT 50.29615 0.33694 29,875 181 418 1408
2017-09-21 09:45:21 GMT 50.29825 0.33704 29,850 181 418 1408
2017-09-21 09:45:19 GMT 50.30221 0.33709 29,825 181 418 1408
2017-09-21 09:45:17 GMT 50.30521 0.33718 29,775 181 418 1280
2017-09-21 09:45:16 GMT 50.30521 0.33718 29,775 181 418 1344
2017-09-21 09:45:14 GMT 50.31012 0.33731 29,725 181 418 1280
2017-09-21 09:45:11 GMT 50.31752 0.33747 29,625 181 417 1280
2017-09-21 09:45:11 GMT 50.31752 0.33747 29,625 181 417 1280
2017-09-21 09:45:07 GMT 50.32492 0.33761 29,550 181 417 1280
2017-09-21 09:45:05 GMT 50.32828 0.33768 29,500 181 417 1280
2017-09-21 09:45:03 GMT 50.33242 0.33776 29,475 181 417 1216
2017-09-21 09:45:01 GMT 50.33652 0.33790 29,425 181 417 1152
2017-09-21 09:44:59 GMT 50.33810 0.33790 29,400 181 416 1152
2017-09-21 09:44:57 GMT 50.34341 0.33805 29,350 181 416 1152
2017-09-21 09:44:55 GMT 50.34586 0.33812 29,325 181 416 1152
2017-09-21 09:44:55 GMT 50.34586 0.33812 29,325 181 416 1152
2017-09-21 09:44:53 GMT 50.35126 0.33819 29,275 181 415 1216
2017-09-21 09:44:49 GMT 50.35986 0.33841 29,200 181 415 1152
2017-09-21 09:44:47 GMT 50.36268 0.33850 29,175 181 414 1152
2017-09-21 09:44:45 GMT 50.36842 0.33862 29,125 181 414 1088
2017-09-21 09:44:43 GMT 50.37003 0.33865 29,100 181 414 960
2017-09-21 09:44:41 GMT 50.37329 0.33872 29,075 181 414 960
2017-09-21 09:44:38 GMT 50.38148 0.33894 29,000 181 412 512
2017-09-21 09:44:36 GMT 50.38553 0.33909 28,975 181 412 448
2017-09-21 09:44:34 GMT 50.38628 0.33909 28,975 181 412 448
2017-09-21 09:44:34 GMT 50.38628 0.33909 28,975 181 412 448
2017-09-21 09:44:32 GMT 50.39424 0.33931 28,950 181 411 640
2017-09-21 09:44:32 GMT 50.39355 0.33928 28,950 181 408 1408
2017-09-21 09:44:32 GMT 50.39350 0.33924 28,950 181 411 576
2017-09-21 09:44:29 GMT 50.39644 0.33935 28,950 181 411 704
2017-09-21 09:44:27 GMT 50.40206 0.33954 28,900 181 410 1024
2017-09-21 09:44:24 GMT 50.40579 0.33961 28,875 181 410 1152
2017-09-21 09:44:22 GMT 50.41053 0.33976 28,825 181 410 1280
2017-09-21 09:44:18 GMT 50.41947 0.33998 28,725 181 409 1408
2017-09-21 09:44:15 GMT 50.42432 0.34007 28,675 181 409 1408
2017-09-21 09:44:13 GMT 50.42674 0.34014 28,625 181 409 1408
2017-09-21 09:44:11 GMT 50.42999 0.34020 28,600 181 409 1408
2017-09-21 09:44:08 GMT 50.43782 0.34043 28,525 181 408 1408
2017-09-21 09:44:06 GMT 50.44158 0.34050 28,450 181 408 1408
2017-09-21 09:44:04 GMT 50.44279 0.34058 28,425 181 408 1408
2017-09-21 09:44:02 GMT 50.44922 0.34072 28,375 181 408 1408
2017-09-21 09:43:59 GMT 50.45569 0.34087 28,275 181 407 1408
2017-09-21 09:43:56 GMT 50.46126 0.34101 28,200 181 407 1408
2017-09-21 09:43:54 GMT 50.46721 0.34115 28,175 181 407 1408
2017-09-21 09:43:51 GMT 50.46770 0.34110 28,125 181 407 1408
2017-09-21 09:43:48 GMT 50.47613 0.34132 28,050 181 406 1280
2017-09-21 09:43:46 GMT 50.47852 0.34137 28,000 181 406 1216
2017-09-21 09:43:44 GMT 50.48371 0.34147 27,950 181 405 1216
2017-09-21 09:43:41 GMT 50.48689 0.34159 27,925 181 405 1216
2017-09-21 09:43:38 GMT 50.49247 0.34169 27,850 181 404 1216
2017-09-21 09:43:35 GMT 50.49922 0.34184 27,800 181 403 1280
2017-09-21 09:43:33 GMT 50.50200 0.34188 27,750 181 403 1280
2017-09-21 09:43:31 GMT 50.50639 0.34195 27,700 181 403 1280
2017-09-21 09:43:27 GMT 50.51458 0.34214 27,650 181 402 1152
2017-09-21 09:43:25 GMT 50.51669 0.34217 27,600 181 401 1152
2017-09-21 09:43:23 GMT 50.52221 0.34228 27,550 181 399 1216
2017-09-21 09:43:21 GMT 50.52300 0.34236 27,525 181 401 1152
2017-09-21 09:43:19 GMT 50.52813 0.34243 27,475 181 400 1152
2017-09-21 09:43:16 GMT 50.53445 0.34260 27,425 181 399 1216
2017-09-21 09:43:14 GMT 50.53798 0.34267 27,375 181 398 1280
2017-09-21 09:43:14 GMT 50.53876 0.34267 27,375 181 398 1344
2017-09-21 09:43:14 GMT 50.53876 0.34267 27,375 181 398 1408
2017-09-21 09:43:12 GMT 50.54269 0.34274 27,325 181 398 1408
2017-09-21 09:43:09 GMT 50.54544 0.34282 27,300 181 398 1472
2017-09-21 09:43:04 GMT 50.55638 0.34311 27,125 181 397 1664
2017-09-21 09:43:02 GMT 50.56032 0.34318 27,075 181 397 1664
2017-09-21 09:43:00 GMT 50.56504 0.34332 27,000 181 397 1600
2017-09-21 09:42:59 GMT 50.56504 0.34332 27,000 181 397 1600
2017-09-21 09:42:59 GMT 50.56504 0.34332 27,000 181 397 1600
2017-09-21 09:42:55 GMT 50.57361 0.34354 26,900 181 396 1472
2017-09-21 09:42:53 GMT 50.57794 0.34361 26,850 181 396 1472
2017-09-21 09:42:51 GMT 50.57867 0.34361 26,825 181 396 1472
2017-09-21 09:42:49 GMT 50.58334 0.34377 26,775 182 396 1408
2017-09-21 09:42:45 GMT 50.59035 0.34397 26,675 182 395 1280
2017-09-21 09:42:43 GMT 50.59387 0.34405 26,625 182 395 1280
2017-09-21 09:42:41 GMT 50.59895 0.34419 26,575 182 394 1280
2017-09-21 09:42:39 GMT 50.60280 0.34429 26,525 182 393 1344
2017-09-21 09:42:37 GMT 50.60477 0.34434 26,500 182 393 1408
2017-09-21 09:42:33 GMT 50.61406 0.34455 26,400 182 392 1472
2017-09-21 09:42:31 GMT 50.61597 0.34466 26,375 182 392 1472
2017-09-21 09:42:29 GMT 50.62100 0.34481 26,300 182 392 1536
2017-09-21 09:42:28 GMT 50.62216 0.34484 26,275 182 391 1536
2017-09-21 09:42:27 GMT 50.62216 0.34484 26,275 182 391 1536
2017-09-21 09:42:24 GMT 50.63091 0.34503 26,200 182 391 1600
2017-09-21 09:42:22 GMT 50.63180 0.34503 26,150 182 390 1600
2017-09-21 09:42:20 GMT 50.63676 0.34520 26,075 182 390 1728
2017-09-21 09:42:19 GMT 50.63676 0.34520 26,075 182 390 1664
2017-09-21 09:42:17 GMT 50.64102 0.34535 26,025 182 390 1664
2017-09-21 09:42:13 GMT 50.64907 0.34555 25,900 182 389 1792
2017-09-21 09:42:11 GMT 50.65056 0.34562 25,850 182 389 1792
2017-09-21 09:42:09 GMT 50.65595 0.34571 25,775 182 389 1792
2017-09-21 09:42:07 GMT 50.65979 0.34585 25,725 182 389 1728
2017-09-21 09:42:06 GMT 50.66136 0.34592 25,675 182 389 1728
2017-09-21 09:42:06 GMT 50.66249 0.34592 25,675 182 389 1728
2017-09-21 09:42:01 GMT 50.67090 0.34614 25,550 182 388 1664
2017-09-21 09:41:59 GMT 50.67514 0.34630 25,475 182 388 1664
2017-09-21 09:41:58 GMT 50.67398 0.34622 25,500 182 388 1664
2017-09-21 09:41:58 GMT 50.67583 0.34630 25,475 182 388 1664
2017-09-21 09:41:56 GMT 50.67970 0.34637 25,400 182 388 1664
2017-09-21 09:41:56 GMT 50.67970 0.34637 25,400 182 387 1664
2017-09-21 09:41:55 GMT 50.67970 0.34637 25,400 182 388 1664
2017-09-21 09:41:53 GMT 50.68352 0.34653 25,350 182 387 1664
2017-09-21 09:41:51 GMT 50.68808 0.34660 25,275 182 387 1664
2017-09-21 09:41:49 GMT 50.69232 0.34676 25,225 182 387 1664
2017-09-21 09:41:47 GMT 50.69687 0.34689 25,150 182 386 1600
2017-09-21 09:41:45 GMT 50.69874 0.34691 25,125 182 386 1600
2017-09-21 09:41:44 GMT 50.69953 0.34691 25,125 182 386 1600
2017-09-21 09:41:41 GMT 50.70602 0.34711 25,025 182 385 1664
2017-09-21 09:41:39 GMT 50.71129 0.34726 24,950 181 385 1792
2017-09-21 09:41:37 GMT 50.71243 0.34733 24,925 182 385 1792
2017-09-21 09:41:35 GMT 50.71623 0.34741 24,850 181 385 1792
2017-09-21 09:41:33 GMT 50.71967 0.34748 24,800 181 384 1792
2017-09-21 09:41:31 GMT 50.72341 0.34760 24,750 181 384 1792
2017-09-21 09:41:29 GMT 50.72685 0.34770 24,675 181 384 1728
2017-09-21 09:41:27 GMT 50.73216 0.34782 24,600 181 384 1664
2017-09-21 09:41:25 GMT 50.73441 0.34785 24,575 181 383 1600
2017-09-21 09:41:22 GMT 50.73975 0.34798 24,475 181 383 1600
2017-09-21 09:41:20 GMT 50.74497 0.34805 24,425 181 383 1600
2017-09-21 09:41:18 GMT 50.74538 0.34805 24,400 181 381 1664
2017-09-21 09:41:16 GMT 50.75060 0.34821 24,325 181 381 1664
2017-09-21 09:41:15 GMT 50.75285 0.34822 24,300 181 381 1664
2017-09-21 09:41:14 GMT 50.75510 0.34830 24,250 181 381 1728
2017-09-21 09:41:12 GMT 50.75588 0.34830 24,250 181 381 1664
2017-09-21 09:41:10 GMT 50.76228 0.34843 24,150 181 380 1728
2017-09-21 09:41:08 GMT 50.76411 0.34844 24,125 181 380 1792
2017-09-21 09:41:06 GMT 50.76671 0.34851 24,075 181 380 1792
2017-09-21 09:41:04 GMT 50.77308 0.34859 23,975 181 380 1856
2017-09-21 09:41:04 GMT 50.77010 0.34859 24,000 181 380 1920
2017-09-21 09:41:02 GMT 50.77455 0.34867 23,925 181 379 1920
2017-09-21 09:40:59 GMT 50.77913 0.34866 23,850 181 379 1792
2017-09-21 09:40:57 GMT 50.78472 0.34874 23,750 181 379 1856
2017-09-21 09:40:54 GMT 50.79035 0.34882 23,675 181 379 1856
2017-09-21 09:40:52 GMT 50.79213 0.34882 23,625 181 378 1728
2017-09-21 09:40:51 GMT 50.79473 0.34882 23,600 181 378 1728
2017-09-21 09:40:50 GMT 50.79584 0.34889 23,575 181 378 1728
2017-09-21 09:40:48 GMT 50.79808 0.34889 23,525 181 378 1728
2017-09-21 09:40:46 GMT 50.80153 0.34889 23,475 181 377 1792
2017-09-21 09:40:44 GMT 50.80711 0.34889 23,400 181 377 1792
2017-09-21 09:40:44 GMT 50.80669 0.34889 23,400 181 377 1792
2017-09-21 09:40:42 GMT 50.80925 0.34889 23,350 181 377 1856
2017-09-21 09:40:40 GMT 50.81265 0.34889 23,300 181 376 1856
2017-09-21 09:40:38 GMT 50.81703 0.34897 23,225 181 376 1856
2017-09-21 09:40:36 GMT 50.82038 0.34897 23,175 181 376 1856
2017-09-21 09:40:34 GMT 50.82481 0.34904 23,075 182 375 1792
2017-09-21 09:40:32 GMT 50.82592 0.34904 23,075 183 374 1792
2017-09-21 09:40:29 GMT 50.83220 0.34935 22,950 186 373 1728
2017-09-21 09:40:27 GMT 50.83521 0.34963 22,925 187 373 1792
2017-09-21 09:40:26 GMT 50.83589 0.34978 22,900 188 372 1792
2017-09-21 09:40:24 GMT 50.84065 0.35060 22,825 190 371 1728
2017-09-21 09:40:23 GMT 50.84427 0.35156 22,775 192 371 1728
2017-09-21 09:40:22 GMT 50.84500 0.35178 22,750 192 371 1728
2017-09-21 09:40:20 GMT 50.84747 0.35268 22,700 195 370 1728
2017-09-21 09:40:18 GMT 50.85064 0.35393 22,650 197 369 1728
2017-09-21 09:40:16 GMT 50.85590 0.35637 22,575 200 367 1728
2017-09-21 09:40:14 GMT 50.85692 0.35690 22,550 200 367 1728
2017-09-21 09:40:14 GMT 50.85692 0.35690 22,550 202 366 1856
2017-09-21 09:40:14 GMT 50.85692 0.35690 22,550 200 367 1728
2017-09-21 09:40:12 GMT 50.86134 0.35950 22,475 202 366 1856
2017-09-21 09:40:12 GMT 50.86171 0.35973 22,450 202 366 1856
2017-09-21 09:40:10 GMT 50.86505 0.36181 22,400 202 366 1920
2017-09-21 09:40:08 GMT 50.86605 0.36247 22,375 202 366 1984
2017-09-21 09:40:06 GMT 50.87145 0.36591 22,250 202 366 2048
2017-09-21 09:40:04 GMT 50.87210 0.36629 22,250 202 366 2112
2017-09-21 09:40:02 GMT 50.87540 0.36835 22,175 202 366 2112
2017-09-21 09:39:59 GMT 50.88202 0.37254 22,075 202 366 2112
2017-09-21 09:39:59 GMT 50.88202 0.37254 22,075 202 366 2112
2017-09-21 09:39:57 GMT 50.88411 0.37392 22,000 202 365 1984
2017-09-21 09:39:54 GMT 50.88885 0.37688 21,900 202 364 1984
2017-09-21 09:39:52 GMT 50.89044 0.37788 21,850 202 365 1984
2017-09-21 09:39:50 GMT 50.89645 0.38170 21,725 202 363 1984
2017-09-21 09:39:48 GMT 50.89784 0.38261 21,700 202 363 1984
2017-09-21 09:39:46 GMT 50.90149 0.38489 21,625 202 363 1984
2017-09-21 09:39:44 GMT 50.90447 0.38675 21,575 202 363 1920
2017-09-21 09:39:42 GMT 50.90684 0.38831 21,525 202 363 1920
2017-09-21 09:39:42 GMT 50.90749 0.38868 21,500 202 363 1920
2017-09-21 09:39:40 GMT 50.91083 0.39083 21,450 202 363 1920
2017-09-21 09:39:40 GMT 50.91184 0.39142 21,425 202 363 1920
2017-09-21 09:39:38 GMT 50.91344 0.39246 21,375 202 363 1984
2017-09-21 09:39:36 GMT 50.91614 0.39414 21,325 202 362 1984
2017-09-21 09:39:34 GMT 50.91977 0.39650 21,250 202 362 2048
2017-09-21 09:39:32 GMT 50.92310 0.39855 21,175 203 361 2048
2017-09-21 09:39:28 GMT 50.92932 0.40256 21,050 203 361 2176
2017-09-21 09:39:26 GMT 50.93166 0.40412 21,000 203 361 2240
2017-09-21 09:39:26 GMT 50.93166 0.40412 21,000 203 361 2240
2017-09-21 09:39:24 GMT 50.93522 0.40642 20,925 203 360 2368
2017-09-21 09:39:22 GMT 50.94016 0.40962 20,800 203 360 2432
2017-09-21 09:39:18 GMT 50.94509 0.41283 20,675 203 359 2432
2017-09-21 09:39:15 GMT 50.94872 0.41519 20,575 203 359 2432
2017-09-21 09:39:13 GMT 50.95105 0.41664 20,500 203 359 2368
2017-09-21 09:39:11 GMT 50.95561 0.41962 20,400 203 359 2368
2017-09-21 09:39:09 GMT 50.95855 0.42152 20,325 203 359 2304
2017-09-21 09:39:07 GMT 50.96153 0.42343 20,250 203 359 2176
2017-09-21 09:39:05 GMT 50.96478 0.42549 20,175 203 359 2176
2017-09-21 09:39:03 GMT 50.96907 0.42824 20,075 202 358 1984
2017-09-21 09:39:01 GMT 50.97205 0.43014 20,000 202 358 1984
2017-09-21 09:38:59 GMT 50.97531 0.43220 19,950 202 358 1920
2017-09-21 09:38:57 GMT 50.97824 0.43411 19,900 203 357 1920
2017-09-21 09:38:55 GMT 50.98050 0.43559 19,850 203 357 1856
2017-09-21 09:38:54 GMT 50.98117 0.43602 19,825 203 356 1792
2017-09-21 09:38:52 GMT 50.98412 0.43789 19,775 203 350 1984
2017-09-21 09:38:50 GMT 50.98833 0.44057 19,675 203 356 1792
2017-09-21 09:38:47 GMT 50.99286 0.44350 19,600 203 353 1792
2017-09-21 09:38:45 GMT 50.99481 0.44479 19,575 203 353 1792
2017-09-21 09:38:43 GMT 50.99774 0.44662 19,500 203 353 1856
2017-09-21 09:38:41 GMT 51.00189 0.44937 19,425 203 352 1856
2017-09-21 09:38:39 GMT 51.00449 0.45105 19,375 203 352 1792
2017-09-21 09:38:37 GMT 51.00673 0.45242 19,325 203 352 1792
2017-09-21 09:38:35 GMT 51.01027 0.45479 19,250 203 351 1856
2017-09-21 09:38:35 GMT 51.01027 0.45479 19,250 203 351 1856
2017-09-21 09:38:33 GMT 51.01348 0.45685 19,200 203 350 1984
2017-09-21 09:38:31 GMT 51.01538 0.45808 19,150 203 349 2176
2017-09-21 09:38:29 GMT 51.02051 0.46143 19,050 203 349 2176
2017-09-21 09:38:27 GMT 51.02177 0.46226 19,000 203 349 2240
2017-09-21 09:38:25 GMT 51.02591 0.46494 18,900 203 348 2368
2017-09-21 09:38:23 GMT 51.02940 0.46722 18,825 203 348 2368
2017-09-21 09:38:21 GMT 51.03256 0.46928 18,725 203 347 2304
2017-09-21 09:38:18 GMT 51.03731 0.47234 18,625 203 347 2240
2017-09-21 09:38:16 GMT 51.03827 0.47301 18,600 203 346 2176
2017-09-21 09:38:14 GMT 51.04111 0.47486 18,525 203 346 2176
2017-09-21 09:38:12 GMT 51.04430 0.47699 18,450 203 346 2176
2017-09-21 09:38:10 GMT 51.04742 0.47905 18,375 203 344 2304
2017-09-21 09:38:07 GMT 51.05186 0.48199 18,275 203 343 2304
2017-09-21 09:38:05 GMT 51.05466 0.48384 18,200 203 343 2368
2017-09-21 09:38:03 GMT 51.05780 0.48592 18,125 203 343 2368
2017-09-21 09:38:01 GMT 51.05997 0.48733 18,050 203 343 2368
2017-09-21 09:37:58 GMT 51.06404 0.49008 17,950 203 343 2432
2017-09-21 09:37:56 GMT 51.06967 0.49377 17,800 203 342 2368
2017-09-21 09:37:54 GMT 51.07181 0.49522 17,750 203 342 2368
2017-09-21 09:37:54 GMT 51.07246 0.49568 17,725 203 342 2368
2017-09-21 09:37:52 GMT 51.07637 0.49820 17,675 203 342 2368
2017-09-21 09:37:50 GMT 51.07681 0.49854 17,600 203 342 2368
2017-09-21 09:37:47 GMT 51.08238 0.50224 17,475 203 341 2368
2017-09-21 09:37:45 GMT 51.08303 0.50262 17,450 203 341 2368
2017-09-21 09:37:43 GMT 51.08675 0.50507 17,350 203 340 2368
2017-09-21 09:37:41 GMT 51.08987 0.50720 17,250 203 340 2304
2017-09-21 09:37:39 GMT 51.09420 0.51002 17,150 203 339 2240
2017-09-21 09:37:37 GMT 51.09904 0.51331 17,075 203 339 2240
2017-09-21 09:37:35 GMT 51.09965 0.51369 17,050 203 339 2240
2017-09-21 09:37:33 GMT 51.10190 0.51524 16,950 203 338 2176
2017-09-21 09:37:33 GMT 51.10254 0.51562 16,950 203 338 2176
2017-09-21 09:37:31 GMT 51.10529 0.51747 16,875 203 338 2176
2017-09-21 09:37:29 GMT 51.10686 0.51857 16,850 203 337 2176
2017-09-21 09:37:26 GMT 51.11174 0.52185 16,725 204 337 2176
2017-09-21 09:37:24 GMT 51.11478 0.52391 16,650 204 337 2176
2017-09-21 09:37:22 GMT 51.11906 0.52682 16,525 204 336 2304
2017-09-21 09:37:20 GMT 51.12026 0.52764 16,500 204 335 2368
2017-09-21 09:37:18 GMT 51.12455 0.53055 16,400 203 328 2496
2017-09-21 09:37:16 GMT 51.12607 0.53165 16,350 204 334 2624
2017-09-21 09:37:14 GMT 51.12817 0.53306 16,275 204 334 2688
2017-09-21 09:37:12 GMT 51.13181 0.53558 16,175 204 334 2688
2017-09-21 09:37:12 GMT 51.13181 0.53558 16,175 204 334 2688
2017-09-21 09:37:10 GMT 51.13479 0.53764 16,075 204 334 2688
2017-09-21 09:37:08 GMT 51.13724 0.53937 16,000 204 333 2496
2017-09-21 09:37:06 GMT 51.14150 0.54222 15,875 204 333 2496
2017-09-21 09:37:05 GMT 51.14296 0.54323 15,850 204 333 2496
2017-09-21 09:37:03 GMT 51.14479 0.54449 15,800 204 332 2496
2017-09-21 09:37:01 GMT 51.14839 0.54695 15,700 204 332 2432
2017-09-21 09:36:59 GMT 51.15083 0.54857 15,625 203 332 2432
2017-09-21 09:36:55 GMT 51.15651 0.55243 15,475 203 330 2496
2017-09-21 09:36:53 GMT 51.15921 0.55422 15,400 203 330 2496
2017-09-21 09:36:51 GMT 51.16193 0.55603 15,325 203 330 2496
2017-09-21 09:36:49 GMT 51.16347 0.55702 15,275 203 329 2560
2017-09-21 09:36:48 GMT 51.16705 0.55939 15,175 203 328 2496
2017-09-21 09:36:47 GMT 51.16754 0.55978 15,200 203 328 2496
2017-09-21 09:36:45 GMT 51.16946 0.56104 15,100 203 328 2432
2017-09-21 09:36:43 GMT 51.17422 0.56419 14,950 203 328 2432
2017-09-21 09:36:40 GMT 51.17636 0.56564 14,900 203 328 2368
2017-09-21 09:36:38 GMT 51.18077 0.56862 14,775 203 328 2240
2017-09-21 09:36:37 GMT 51.18114 0.56884 14,775 203 328 2240
2017-09-21 09:36:35 GMT 51.18256 0.56984 14,725 204 327 2112
2017-09-21 09:36:33 GMT 51.18736 0.57307 14,600 203 326 2048
2017-09-21 09:36:31 GMT 51.18970 0.57463 14,550 203 325 2048
2017-09-21 09:36:29 GMT 51.19359 0.57723 14,450 204 323 2048
2017-09-21 09:36:26 GMT 51.19501 0.57819 14,425 203 323 2176
2017-09-21 09:36:24 GMT 51.19853 0.58057 14,350 204 320 2624
2017-09-21 09:36:22 GMT 51.20114 0.58235 14,275 204 321 2560
2017-09-21 09:36:22 GMT 51.20114 0.58235 14,275 204 320 2624
2017-09-21 09:36:19 GMT 51.20467 0.58472 14,150 204 320 2752
2017-09-21 09:36:17 GMT 51.20874 0.58755 14,025 204 320 3008
2017-09-21 09:36:14 GMT 51.21249 0.59007 13,875 204 319 2944
2017-09-21 09:36:11 GMT 51.21803 0.59386 13,700 203 319 2880
2017-09-21 09:36:09 GMT 51.22003 0.59524 13,625 203 319 2944
2017-09-21 09:36:09 GMT 51.22003 0.59524 13,625 203 319 2944
2017-09-21 09:36:08 GMT 51.22064 0.59564 13,600 203 319 2944
2017-09-21 09:36:06 GMT 51.22412 0.59794 13,475 203 318 3008
2017-09-21 09:36:04 GMT 51.22613 0.59928 13,400 203 318 3008
2017-09-21 09:35:59 GMT 51.23282 0.60365 13,175 203 318 2944
2017-09-21 09:35:57 GMT 51.23721 0.60648 13,000 203 317 2880
2017-09-21 09:35:55 GMT 51.23893 0.60760 12,950 203 317 2816
2017-09-21 09:35:52 GMT 51.24243 0.60982 12,825 202 316 2752
2017-09-21 09:35:50 GMT 51.24442 0.61112 12,750 202 316 2752
2017-09-21 09:35:48 GMT 51.24875 0.61394 12,625 202 315 2624
2017-09-21 09:35:48 GMT 51.24875 0.61394 12,625 202 315 2688
2017-09-21 09:35:48 GMT 51.24875 0.61394 12,625 202 315 2688
2017-09-21 09:35:46 GMT 51.25085 0.61523 12,550 202 315 2688
2017-09-21 09:35:44 GMT 51.25504 0.61791 12,450 202 314 2624
2017-09-21 09:35:42 GMT 51.25630 0.61874 12,375 202 314 2624
2017-09-21 09:35:40 GMT 51.25832 0.61998 12,300 202 314 2624
2017-09-21 09:35:38 GMT 51.26028 0.62125 12,250 202 313 2624
2017-09-21 09:35:36 GMT 51.26379 0.62347 12,125 202 312 2624
2017-09-21 09:35:36 GMT 51.26379 0.62347 12,125 202 312 2624
2017-09-21 09:35:34 GMT 51.26802 0.62622 12,000 202 312 2624
2017-09-21 09:35:32 GMT 51.27058 0.62785 11,925 202 311 2688
2017-09-21 09:35:30 GMT 51.27232 0.62889 11,875 202 311 2688
2017-09-21 09:35:27 GMT 51.27690 0.63186 11,700 202 310 2688
2017-09-21 09:35:27 GMT 51.27690 0.63186 11,700 202 310 2688
2017-09-21 09:35:27 GMT 51.27690 0.63186 11,700 202 310 2688
2017-09-21 09:35:25 GMT 51.28029 0.63402 11,600 202 309 2624
2017-09-21 09:35:23 GMT 51.28143 0.63469 11,575 202 309 2560
2017-09-21 09:35:18 GMT 51.28790 0.63888 11,350 202 306 2304
2017-09-21 09:35:16 GMT 51.29182 0.64136 11,250 202 306 1984
2017-09-21 09:35:16 GMT 51.29182 0.64136 11,250 202 306 1984
2017-09-21 09:35:14 GMT 51.29384 0.64263 11,200 202 303 1792
2017-09-21 09:35:11 GMT 51.29910 0.64597 11,100 202 301 1536
2017-09-21 09:35:09 GMT 51.29965 0.64634 11,075 202 299 1472
2017-09-21 09:35:07 GMT 51.30238 0.64812 11,025 203 296 1472
2017-09-21 09:35:05 GMT 51.30508 0.64987 10,975 203 295 1472
2017-09-21 09:35:01 GMT 51.31155 0.65407 10,850 203 280 1600
2017-09-21 09:34:59 GMT 51.31393 0.65569 10,800 203 289 1472
2017-09-21 09:34:59 GMT 51.31393 0.65569 10,800 203 284 1472
2017-09-21 09:34:59 GMT 51.31343 0.65532 10,825 203 289 1472
2017-09-21 09:34:57 GMT 51.31551 0.65674 10,775 203 287 1472
2017-09-21 09:34:55 GMT 51.31815 0.65844 10,725 203 283 1472
2017-09-21 09:34:52 GMT 51.32221 0.66124 10,650 203 280 1600
2017-09-21 09:34:51 GMT 51.32221 0.66124 10,650 203 280 1600
2017-09-21 09:34:51 GMT 51.32277 0.66162 10,625 203 277 1600
2017-09-21 09:34:49 GMT 51.32400 0.66245 10,600 203 274 1792
2017-09-21 09:34:47 GMT 51.32680 0.66430 10,550 203 274 1792
2017-09-21 09:34:45 GMT 51.33078 0.66696 10,450 191 267 2624
2017-09-21 09:34:42 GMT 51.33273 0.66834 10,400 203 270 2560
2017-09-21 09:34:40 GMT 51.33618 0.67069 10,250 203 268 3136
2017-09-21 09:34:38 GMT 51.33691 0.67113 10,200 200 268 3008
2017-09-21 09:34:36 GMT 51.33958 0.67291 10,100 203 268 3200
2017-09-21 09:34:36 GMT 51.33911 0.67261 10,125 203 268 3200
2017-09-21 09:34:34 GMT 51.34305 0.67514 9,950 201 268 3136
2017-09-21 09:34:32 GMT 51.34428 0.67588 9,900 201 268 3072
2017-09-21 09:34:30 GMT 51.34749 0.67780 9,750 198 268 2816
2017-09-21 09:34:30 GMT 51.34749 0.67780 9,750 198 268 2816
2017-09-21 09:34:26 GMT 51.35126 0.67963 9,600 193 267 2624
2017-09-21 09:34:26 GMT 51.35126 0.67963 9,600 193 267 2624
2017-09-21 09:34:23 GMT 51.35545 0.68108 9,450 187 266 2560
2017-09-21 09:34:23 GMT 51.35545 0.68108 9,450 182 267 2432
2017-09-21 09:34:20 GMT 51.35934 0.68160 9,325 182 267 2432
2017-09-21 09:34:18 GMT 51.36012 0.68160 9,300 177 266 2368
2017-09-21 09:34:18 GMT 51.36012 0.68160 9,300 177 266 2368
2017-09-21 09:34:15 GMT 51.36511 0.68123 9,150 170 265 2496
2017-09-21 09:34:12 GMT 51.36923 0.68008 9,000 166 264 2816
2017-09-21 09:34:10 GMT 51.37207 0.67909 8,900 165 263 2944
2017-09-21 09:34:08 GMT 51.37280 0.67878 8,875 165 263 3072
2017-09-21 09:34:08 GMT 51.37472 0.67795 8,850 165 262 3584
2017-09-21 09:34:06 GMT 51.37682 0.67711 8,700 165 262 3328
2017-09-21 09:34:04 GMT 51.37811 0.67662 8,650 165 261 3648
2017-09-21 09:34:02 GMT 51.38110 0.67543 8,500 165 261 3648
2017-09-21 09:34:00 GMT 51.38260 0.67477 8,425 165 261 3648
2017-09-21 09:33:59 GMT 51.38361 0.67440 8,375 165 261 3712
2017-09-21 09:33:58 GMT 51.38534 0.67368 8,300 165 261 3776
2017-09-21 09:33:56 GMT 51.38736 0.67291 8,200 165 261 3712
2017-09-21 09:33:54 GMT 51.38906 0.67223 8,100 165 261 3648
2017-09-21 09:33:52 GMT 51.39134 0.67131 8,000 165 261 3648
2017-09-21 09:33:50 GMT 51.39362 0.67040 7,875 165 262 3584
2017-09-21 09:33:48 GMT 51.39837 0.66841 7,650 165 262 3584
2017-09-21 09:33:48 GMT 51.39734 0.66883 7,700 165 262 3584
2017-09-21 09:33:46 GMT 51.39884 0.66826 7,600 165 261 3456
2017-09-21 09:33:44 GMT 51.40137 0.66720 7,500 165 261 3456
2017-09-21 09:33:44 GMT 51.40089 0.66742 7,525 165 261 3456
2017-09-21 09:33:42 GMT 51.40363 0.66620 7,375 165 261 3264
2017-09-21 09:33:40 GMT 51.40587 0.66528 7,275 164 261 3200
2017-09-21 09:33:38 GMT 51.40888 0.66400 7,150 164 261 3072
2017-09-21 09:33:34 GMT 51.41378 0.66185 6,925 164 258 3008
2017-09-21 09:33:32 GMT 51.41578 0.66101 6,850 164 259 3072
2017-09-21 09:33:30 GMT 51.41750 0.66025 6,775 164 258 3008
2017-09-21 09:33:27 GMT 51.42096 0.65873 6,625 164 257 3008
2017-09-21 09:33:25 GMT 51.42439 0.65712 6,475 164 256 3072
2017-09-21 09:33:23 GMT 51.42486 0.65697 6,450 164 255 3072
2017-09-21 09:33:20 GMT 51.43045 0.65437 6,200 164 254 3136
2017-09-21 09:33:17 GMT 51.43357 0.65300 6,075 163 253 3200
2017-09-21 09:33:13 GMT 51.43693 0.65146 5,900 164 252 3136
2017-09-21 09:33:11 GMT 51.43929 0.65033 5,800 164 252 3136
2017-09-21 09:33:09 GMT 51.44153 0.64934 5,700 164 251 2944
2017-09-21 09:33:06 GMT 51.44511 0.64774 5,550 164 250 2752
2017-09-21 09:33:04 GMT 51.44627 0.64723 5,500 164 249 2624
2017-09-21 09:33:02 GMT 51.44934 0.64582 5,375 164 249 2624
2017-09-21 09:33:02 GMT 51.44865 0.64613 5,400 164 249 2624
2017-09-21 09:32:59 GMT 51.45316 0.64407 5,225 163 246 2688
2017-09-21 09:32:56 GMT 51.45593 0.64277 5,125 163 245 2880
2017-09-21 09:32:54 GMT 51.45827 0.64174 5,025 163 244 3200
2017-09-21 09:32:54 GMT 51.45827 0.64174 5,025 163 244 3136
2017-09-21 09:32:52 GMT 51.46033 0.64077 4,925 163 244 3008
2017-09-21 09:32:50 GMT 51.46359 0.63927 4,750 164 245 2304
2017-09-21 09:32:48 GMT 51.46472 0.63869 4,725 164 245 2304
2017-09-21 09:32:45 GMT 51.46870 0.63691 4,575 164 246 1856
2017-09-21 09:32:42 GMT 51.47244 0.63522 4,475 164 248 1408
2017-09-21 09:32:40 GMT 51.47315 0.63491 4,450 164 248 1280
2017-09-21 09:32:37 GMT 51.47672 0.63332 4,375 163 249 1024
2017-09-21 09:32:34 GMT 51.48024 0.63164 4,325 163 250 896
2017-09-21 09:32:32 GMT 51.48165 0.63103 4,300 163 251 832
2017-09-21 09:32:30 GMT 51.48477 0.62950 4,275 162 245 1408
2017-09-21 09:32:28 GMT 51.48734 0.62830 4,250 163 249 1024
2017-09-21 09:32:28 GMT 51.48734 0.62830 4,250 163 249 1024
2017-09-21 09:32:26 GMT 51.48924 0.62736 4,225 163 246 1280
2017-09-21 09:32:24 GMT 51.49227 0.62592 4,150 162 241 1664
2017-09-21 09:32:22 GMT 51.49342 0.62533 4,125 162 240 1792
2017-09-21 09:32:20 GMT 51.49544 0.62436 4,075 162 237 2112
2017-09-21 09:32:16 GMT 51.49924 0.62243 3,950 162 227 1600
2017-09-21 09:32:13 GMT 51.50294 0.62058 3,825 162 227 1600
2017-09-21 09:32:10 GMT 51.50615 0.61895 3,750 162 223 1600
2017-09-21 09:32:07 GMT 51.50954 0.61722 3,650 162 220 1792
2017-09-21 09:32:06 GMT 51.50991 0.61699 3,650 162 220 1792
2017-09-21 09:32:05 GMT 51.50991 0.61699 3,650 162 218 1792
2017-09-21 09:32:03 GMT 51.51340 0.61523 3,550 163 211 1920
2017-09-21 09:32:01 GMT 51.51401 0.61493 3,525 163 211 1920
2017-09-21 09:31:58 GMT 51.51663 0.61368 3,425 163 210 1984
2017-09-21 09:31:55 GMT 51.51964 0.61226 3,325 176 197 1920
2017-09-21 09:31:52 GMT 51.52336 0.61112 3,175 176 197 1920
2017-09-21 09:31:50 GMT 51.52473 0.61093 3,150 183 193 1856
2017-09-21 09:31:48 GMT 51.52704 0.61089 3,050 186 191 1792
2017-09-21 09:31:45 GMT 51.52927 0.61145 2,975 195 187 1728
2017-09-21 09:31:43 GMT 51.53068 0.61204 2,950 204 183 1600
2017-09-21 09:31:41 GMT 51.53256 0.61323 2,875 210 180 1536
2017-09-21 09:31:39 GMT 51.53462 0.61501 2,800 218 178 1664
2017-09-21 09:31:36 GMT 51.53577 0.61627 2,750 216 179 1600
2017-09-21 09:31:34 GMT 51.53715 0.61806 2,700 229 175 1664
2017-09-21 09:31:32 GMT 51.53822 0.61989 2,625 236 170 1600
2017-09-21 09:31:30 GMT 51.53933 0.62203 2,575 234 173 1728
2017-09-21 09:31:27 GMT 51.54076 0.62511 2,500 235 171 1664
2017-09-21 09:31:24 GMT 51.54240 0.62882 2,400 236 168 1600
2017-09-21 09:31:22 GMT 51.54278 0.62973 2,375 236 166 1792
2017-09-21 09:31:19 GMT 51.54399 0.63255 2,275 236 161 1664
2017-09-21 09:31:16 GMT 51.54529 0.63557 2,200 236 160 1600
2017-09-21 09:31:14 GMT 51.54655 0.63850 2,125 236 157 1728
2017-09-21 09:31:11 GMT 51.54767 0.64114 2,050 236 155 1664
2017-09-21 09:31:08 GMT 51.54930 0.64491 1,950 236 151 1088
2017-09-21 09:31:04 GMT 51.55083 0.64849 1,875 235 145 1280
2017-09-21 09:31:02 GMT 51.55167 0.65033 1,825 235 141 1216
2017-09-21 09:30:58 GMT 51.55279 0.65292 1,775 235 139 1408
2017-09-21 09:30:56 GMT 51.55353 0.65453 1,725 234 136 1600
2017-09-21 09:30:53 GMT 51.55495 0.65762 1,625 236 133 1792
2017-09-21 09:30:51 GMT 51.55550 0.65881 1,575 235 134 1984
2017-09-21 09:30:51 GMT 51.55521 0.65819 1,600 235 134 1984
2017-09-21 09:30:49 GMT 51.55641 0.66096 1,500 236 133 1920

Making use of Plane Finder data

You are free to use the raw flight data, aircraft information and images provided in this report for your own purposes provided the data is correctly attributed to Plane Finder. We ask that you please credit Plane Finder and link to planefinder.net in close proximity to the content.

Optionally one of the following logos (no smaller then 150x24px) can be used and must link to planefinder.net

Embedding the Plane Finder map

You are welcome to embed the Plane Finder playback map on your website to offer visitors a more interactive experience. We suggest using the following HTML code:

<iframe src="//planefinder.net/data/report/U27435-G-EZIL-7700-squawk-2017-09-21/map" width="800" height="600" seamless="seamless"></iframe>

Where our data comes from

Plane Finder has a global network of data feeds and antenna radars that receive data broadcast directly from aircraft. The primary technologies used are ADS-B and MLAT. We also show feeds from the FAA and a FLARM glider feed.

Click here to find out more about the Plane Finder network.

How we collect our data